ftp/pub/palmer/observations_modified/2019/June/AR190423_BASE.txt

Download

Sample DateTime	Unit Id	WS Avg 2min	WD Avg 2min	WGS 10min	WGD 10min	Air Temp	Rel Humidity	Dew Point	Pyranometer	Quantum	Air Pressure	Snow Level	Rainfall	PW Current	Visibility	CBase 1	CBase 2	CBase 3	Vert Vis
2019/04/23 00:00:01	BASE	3.73	37	8.54	344	2.3	98	2.0	0	0	991.7	NA	0.0000		9999	1440	0	0	0
2019/04/23 00:01:01	BASE	3.36	42	8.54	344	2.4	98	2.1	0	0	991.7	NA	0.0000		9999	1540	0	0	0
2019/04/23 00:02:01	BASE	3.11	29	8.54	344	2.4	98	2.1	0	0	991.7	NA	0.0000		9999	1510	3540	0	0
2019/04/23 00:03:01	BASE	2.31	6	8.54	344	2.4	98	2.1	0	0	991.7	NA	0.0000		9999	1640	3740	0	0
2019/04/23 00:04:01	BASE	2.73	316	7.92	348	2.4	98	2.0	0	0	991.7	NA	0.0000		9999	1510	0	0	0
2019/04/23 00:05:01	BASE	3.90	274	7.31	315	2.2	98	1.9	0	0	991.7	NA	0.0000		9999	1440	0	0	0
2019/04/23 00:06:01	BASE	3.16	265	5.86	327	2.1	98	1.8	0	0	991.7	NA	0.0000		9999	1440	3610	0	0
2019/04/23 00:07:01	BASE	1.44	274	5.04	261	2.0	98	1.7	0	0	991.7	NA	0.0000		9999	1350	0	0	0
2019/04/23 00:08:01	BASE	0.57	297	5.04	261	1.9	98	1.7	0	0	991.7	NA	0.0000		9999	1540	3810	0	0
2019/04/23 00:09:01	BASE	0.52	337	5.04	261	1.9	99	1.8	0	0	991.7	NA	0.0000		9999	1570	0	0	0
2019/04/23 00:10:01	BASE	0.58	34	5.04	261	2.0	99	1.9	0	0	991.7	NA	0.0000		9999	1540	0	0	0
2019/04/23 00:11:01	BASE	0.29	61	5.04	261	2.1	99	1.9	0	0	991.7	NA	0.0000		9999	1540	3670	0	0
2019/04/23 00:12:01	BASE	0.60	70	5.04	261	2.1	99	2.0	0	0	991.7	NA	0.0000		9999	1480	0	0	0
2019/04/23 00:13:01	BASE	1.23	85	5.04	261	2.2	99	2.0	0	0	991.8	NA	0.0000		9999	1570	0	0	0
2019/04/23 00:14:01	BASE	1.95	120	5.04	261	2.2	99	2.0	0	0	991.8	NA	0.0000		9999	1540	3640	0	0
2019/04/23 00:15:01	BASE	3.00	136	4.22	128	2.2	98	1.9	0	0	991.8	NA	0.0000		9999	1610	0	0	0
2019/04/23 00:16:01	BASE	3.48	131	4.22	128	2.0	98	1.7	0	0	991.8	NA	0.0000		9999	1640	0	0	0
2019/04/23 00:17:01	BASE	3.97	144	6.02	154	1.9	98	1.5	0	0	991.8	NA	0.0000		9999	1610	0	0	0
2019/04/23 00:18:01	BASE	6.53	153	9.41	154	1.7	98	1.4	0	0	991.8	NA	0.0000		9999	1670	0	0	0
2019/04/23 00:19:01	BASE	8.87	152	10.65	145	1.4	98	1.2	0	0	991.7	NA	0.0000		9999	1570	3670	0	0
2019/04/23 00:20:01	BASE	9.59	154	11.01	170	1.3	98	1.1	0	0	991.7	NA	0.0000		9999	1540	0	0	0
2019/04/23 00:21:01	BASE	9.85	160	11.01	170	1.1	99	1.0	0	0	991.7	NA	0.0000		9999	1480	0	0	0
2019/04/23 00:22:01	BASE	9.55	160	11.11	149	1.0	99	0.8	0	0	991.7	NA	0.0000		9999	1480	0	0	0
2019/04/23 00:23:01	BASE	10.24	153	11.94	157	0.8	99	0.6	0	0	991.7	NA	0.0000		9999	1540	0	0	0
2019/04/23 00:24:01	BASE	11.00	145	11.94	157	0.7	98	0.5	0	0	991.7	NA	0.0000		9999	1540	0	0	0
2019/04/23 00:25:01	BASE	10.89	143	11.94	157	0.5	98	0.3	0	0	991.8	NA	0.0000		9999	3410	0	0	0
2019/04/23 00:26:01	BASE	10.98	147	11.94	159	0.4	98	0.1	0	0	991.8	NA	0.0000		9999	1610	4590	0	0
2019/04/23 00:27:01	BASE	11.18	151	12.24	154	0.2	98	-0.1	0	0	991.7	NA	0.0000		9999	1510	0	0	0
2019/04/23 00:28:01	BASE	11.45	149	12.71	144	0.1	97	-0.2	0	0	991.7	NA	0.0000		9999	1540	3310	4530	0
2019/04/23 00:29:01	BASE	11.86	146	13.68	150	-0.0	97	-0.4	0	0	991.6	NA	0.0000		9999	1570	3150	0	0
2019/04/23 00:30:01	BASE	11.37	141	13.68	150	-0.1	97	-0.5	0	0	991.7	NA	0.0000		9999	1640	3280	4690	0
2019/04/23 00:31:01	BASE	9.48	136	13.68	150	-0.1	97	-0.6	0	0	991.8	NA	0.0000		9999	1670	3250	4790	0
2019/04/23 00:32:01	BASE	7.92	145	13.68	150	-0.1	97	-0.6	0	0	991.8	NA	0.0000		9999	1540	0	0	0
2019/04/23 00:33:01	BASE	7.49	153	13.68	150	-0.1	97	-0.5	0	0	991.8	NA	0.0000		9999	1510	3380	0	0
2019/04/23 00:34:01	BASE	8.05	144	13.68	150	-0.1	97	-0.5	0	0	991.7	NA	0.0000		9999	1570	0	0	0
2019/04/23 00:35:01	BASE	8.52	130	13.68	150	-0.0	97	-0.5	0	0	991.7	NA	0.0000		9999	1610	4790	0	0
2019/04/23 00:36:01	BASE	8.92	122	13.68	150	0.0	97	-0.5	0	0	991.7	NA	0.0000		9999	1540	0	0	0
2019/04/23 00:37:01	BASE	9.00	126	13.68	150	0.1	96	-0.4	0	0	991.8	NA	0.0000		9999	3050	4890	0	0
2019/04/23 00:38:01	BASE	7.35	139	13.68	150	0.2	96	-0.4	0	0	991.7	NA	0.0000		9999	1510	3250	4820	0
2019/04/23 00:39:01	BASE	5.65	148	11.11	136	0.3	96	-0.3	0	0	991.8	NA	0.0000		9999	1480	3310	4890	0
2019/04/23 00:40:01	BASE	4.26	152	10.49	118	0.5	95	-0.2	0	0	991.8	NA	0.0000		9999	3180	0	0	0
2019/04/23 00:41:01	BASE	3.49	160	10.49	118	0.6	95	-0.1	0	0	991.8	NA	0.0000		9999	1610	3080	3640	0
2019/04/23 00:42:01	BASE	4.34	155	10.49	118	0.7	94	-0.1	0	0	991.8	NA	0.0000		9999	1640	3120	0	0
2019/04/23 00:43:01	BASE	4.79	147	10.49	118	0.7	94	-0.2	0	0	991.8	NA	0.0000		9999	1670	3150	0	0
2019/04/23 00:44:01	BASE	3.93	154	10.49	118	0.7	93	-0.3	0	0	991.8	NA	0.0000		9999	1840	0	0	0
2019/04/23 00:45:01	BASE	3.36	162	10.49	118	0.6	93	-0.3	0	0	991.8	NA	0.0000		9999	1770	3150	0	0
2019/04/23 00:46:01	BASE	4.55	167	10.19	130	0.5	93	-0.5	0	0	991.8	NA	0.0000		9999	1840	0	0	0
2019/04/23 00:47:01	BASE	5.22	182	7.82	196	0.4	94	-0.5	0	0	991.8	NA	0.0000		9999	1710	0	0	0
2019/04/23 00:48:01	BASE	4.78	210	7.82	196	0.3	94	-0.5	0	0	991.8	NA	0.0000		9999	3250	4950	0	0
2019/04/23 00:49:01	BASE	4.33	221	7.82	196	0.3	95	-0.4	0	0	991.8	NA	0.0000		9999	3810	4920	0	0
2019/04/23 00:50:01	BASE	4.23	204	7.82	196	0.3	95	-0.4	0	0	991.8	NA	0.0000		9999	1770	0	0	0
2019/04/23 00:51:01	BASE	4.38	177	7.82	196	0.3	96	-0.3	0	0	991.7	NA	0.0000		9999	1770	0	0	0
2019/04/23 00:52:01	BASE	4.84	155	7.82	196	0.3	96	-0.2	0	0	991.7	NA	0.0000		9999	0	0	0	0
2019/04/23 00:53:01	BASE	6.09	150	7.87	164	0.3	96	-0.2	0	0	991.7	NA	0.0000		9999	0	0	0	0
2019/04/23 00:54:01	BASE	6.81	153	8.03	156	0.3	96	-0.2	0	0	991.6	NA	0.0000		9999	14140	0	0	0
2019/04/23 00:55:01	BASE	7.34	150	8.13	146	0.3	97	-0.2	0	0	991.7	NA	0.0000		9999	0	0	0	0
2019/04/23 00:56:01	BASE	7.29	146	8.13	146	0.3	97	-0.2	0	0	991.7	NA	0.0000		9999	0	0	0	0
2019/04/23 00:57:01	BASE	6.94	148	8.13	146	0.3	97	-0.1	0	0	991.7	NA	0.0000		9999	0	0	0	0
2019/04/23 00:58:01	BASE	6.26	147	8.13	146	0.3	97	-0.1	0	0	991.7	NA	0.0000		9999	0	0	0	0
2019/04/23 00:59:01	BASE	5.45	139	8.13	146	0.3	97	-0.1	0	0	991.7	NA	0.0000		9999	0	0	0	0
2019/04/23 01:00:01	BASE	5.73	138	8.13	146	0.4	97	-0.1	0	0	991.7	NA	0.0000		9999	0	0	0	0
2019/04/23 01:01:01	BASE	5.59	139	8.13	146	0.4	97	-0.1	0	0	991.7	NA	0.0000		9999	0	0	0	0
2019/04/23 01:02:01	BASE	7.09	138	9.98	141	0.5	96	-0.1	0	0	991.7	NA	0.0000		9999	1940	0	0	0
2019/04/23 01:03:01	BASE	9.16	138	9.98	141	0.5	96	-0.1	0	0	991.6	NA	0.0000		9999	4820	0	0	0
2019/04/23 01:04:01	BASE	9.32	141	10.55	144	0.6	95	-0.1	0	0	991.6	NA	0.0000		9999	1800	0	0	0
2019/04/23 01:05:01	BASE	7.72	139	10.55	144	0.6	95	-0.1	0	0	991.7	NA	0.0000		9999	1770	0	0	0
2019/04/23 01:06:01	BASE	6.78	148	10.55	144	0.7	95	0.0	0	0	991.6	NA	0.0000		9999	1870	3080	0	0
2019/04/23 01:07:01	BASE	7.68	161	10.55	144	0.9	95	0.2	0	0	991.7	NA	0.0000		9999	1840	0	0	0
2019/04/23 01:08:01	BASE	8.16	162	10.55	144	1.1	94	0.2	0	0	991.6	NA	0.0000		9999	1940	0	0	0
2019/04/23 01:09:01	BASE	8.97	162	10.75	161	1.1	93	0.2	0	0	991.6	NA	0.0000		9999	1770	0	0	0
2019/04/23 01:10:01	BASE	8.71	161	10.75	161	1.2	92	0.1	0	0	991.6	NA	0.0000		9999	1770	4720	0	0
2019/04/23 01:11:01	BASE	7.97	165	10.75	161	1.1	92	-0.1	0	0	991.6	NA	0.0000		9999	1940	4690	0	0
2019/04/23 01:12:01	BASE	7.65	167	10.75	161	1.0	91	-0.3	0	0	991.6	NA	0.0000		9999	4630	0	0	0
2019/04/23 01:13:01	BASE	7.46	166	10.75	161	0.9	91	-0.4	0	0	991.6	NA	0.0000		9999	1840	4400	0	0
2019/04/23 01:14:01	BASE	6.91	167	10.75	161	0.8	91	-0.4	0	0	991.7	NA	0.0000		9999	1840	4130	0	0
2019/04/23 01:15:01	BASE	6.77	166	10.75	161	0.8	91	-0.5	0	0	991.7	NA	0.0000		9999	4130	4690	0	0
2019/04/23 01:16:14	BASE	6.74	165	10.75	161	0.7	92	-0.5	0	0	991.7	NA	0.0000		9999	4230	5280	0	0
2019/04/23 01:17:01	BASE	5.67	160	10.75	161	0.7	92	-0.4	0	0	991.8	NA	0.0000		9999	4330	0	0	0
2019/04/23 01:18:01	BASE	4.87	149	10.75	161	0.7	93	-0.4	0	0	991.7	NA	0.0000		9999	4400	0	0	0
2019/04/23 01:19:01	BASE	6.14	141	10.44	149	0.7	93	-0.4	0	0	991.7	NA	0.0000		9999	4590	0	0	0
2019/04/23 01:20:01	BASE	8.33	141	9.52	141	0.7	93	-0.3	0	0	991.6	NA	0.0000		9999	1800	4560	0	0
2019/04/23 01:21:01	BASE	8.37	147	9.52	141	0.7	93	-0.3	0	0	991.7	NA	0.0000		9999	4630	0	0	0
2019/04/23 01:22:01	BASE	6.84	156	9.52	141	0.7	94	-0.2	0	0	991.7	NA	0.0000		9999	4720	0	0	0
2019/04/23 01:23:01	BASE	5.78	161	9.52	141	0.7	94	-0.2	0	0	991.7	NA	0.0000		9999	4790	0	0	0
2019/04/23 01:24:01	BASE	5.04	157	9.52	141	0.7	94	-0.2	0	0	991.6	NA	0.0000		9999	1940	4820	0	0
2019/04/23 01:25:01	BASE	5.18	153	9.52	141	0.7	94	-0.2	0	0	991.6	NA	0.0000		9999	1840	2760	0	0
2019/04/23 01:26:01	BASE	7.23	153	9.93	154	0.7	94	-0.2	0	0	991.6	NA	0.0000		9999	2920	0	0	0
2019/04/23 01:27:01	BASE	8.96	150	10.03	154	0.7	94	-0.2	0	0	991.6	NA	0.0000		9999	2890	0	0	0
2019/04/23 01:28:01	BASE	8.31	153	10.03	154	0.7	94	-0.2	0	0	991.6	NA	0.0000		9999	2950	0	0	0
2019/04/23 01:29:01	BASE	6.84	156	10.03	154	0.6	94	-0.2	0	0	991.6	NA	0.0000		9999	2920	0	0	0
2019/04/23 01:30:01	BASE	6.99	150	10.03	154	0.6	94	-0.3	0	0	991.6	NA	0.0000		9999	2990	0	0	0
2019/04/23 01:31:01	BASE	8.30	147	10.65	142	0.5	95	-0.3	0	0	991.5	NA	0.0000		9999	2850	4990	0	0
2019/04/23 01:32:01	BASE	9.40	152	10.65	142	0.5	95	-0.2	0	0	991.5	NA	0.0000		9999	2890	4890	0	0
2019/04/23 01:33:01	BASE	9.30	151	10.65	142	0.5	95	-0.2	0	0	991.5	NA	0.0000		9999	1970	2850	4890	0
2019/04/23 01:34:01	BASE	8.31	145	10.65	142	0.5	96	-0.1	0	0	991.6	NA	0.0000		9999	2920	4820	0	0
2019/04/23 01:35:01	BASE	7.28	143	10.65	142	0.6	96	-0.0	0	0	991.6	NA	0.0000		9999	2820	4430	0	0
2019/04/23 01:36:01	BASE	7.95	137	10.65	142	0.6	96	0.0	0	0	991.6	NA	0.0000		9999	2790	4690	0	0
2019/04/23 01:37:01	BASE	9.77	130	11.21	129	0.7	96	0.1	0	0	991.6	NA	0.0000		9999	3020	4720	0	0
2019/04/23 01:38:01	BASE	9.43	129	11.21	129	0.7	96	0.1	0	0	991.6	NA	0.0000		9999	2950	4330	0	0
2019/04/23 01:39:01	BASE	8.45	131	11.21	129	0.8	95	0.2	0	0	991.6	NA	0.0000		9999	4230	5090	0	0
2019/04/23 01:40:01	BASE	7.83	143	11.21	129	0.9	95	0.2	0	0	991.6	NA	0.0000		9999	2000	2760	4040	0
2019/04/23 01:41:01	BASE	6.61	153	11.21	129	1.0	94	0.2	0	0	991.6	NA	0.0000		9999	2760	3970	0	0
2019/04/23 01:42:01	BASE	5.84	149	11.21	129	1.0	94	0.1	0	0	991.6	NA	0.0000		9999	3840	4490	0	0
2019/04/23 01:43:01	BASE	5.89	152	11.21	129	1.0	93	-0.0	0	0	991.6	NA	0.0000		9999	4000	4530	0	0
2019/04/23 01:44:01	BASE	6.10	163	11.21	129	1.0	93	-0.1	0	0	991.5	NA	0.0000		9999	2200	3810	4690	0
2019/04/23 01:45:01	BASE	6.06	169	11.21	129	0.9	92	-0.2	0	0	991.5	NA	0.0000		9999	2030	3940	4400	0
2019/04/23 01:46:01	BASE	5.72	173	11.21	129	0.9	92	-0.2	0	0	991.5	NA	0.0000		9999	3970	4490	0	0
2019/04/23 01:47:01	BASE	5.48	172	10.24	132	0.9	92	-0.2	0	0	991.5	NA	0.0000		9999	4000	0	0	0
2019/04/23 01:48:01	BASE	5.47	175	10.24	132	0.9	92	-0.2	0	0	991.5	NA	0.0000		9999	4100	0	0	0
2019/04/23 01:49:01	BASE	5.61	178	8.08	151	0.9	92	-0.2	0	0	991.5	NA	0.0000		9999	4460	0	0	0
2019/04/23 01:50:01	BASE	5.98	168	7.20	163	0.9	92	-0.2	0	0	991.5	NA	0.0000		9999	4270	0	0	0
2019/04/23 01:51:01	BASE	5.68	151	7.20	163	0.8	93	-0.2	0	0	991.5	NA	0.0000		9999	4300	0	0	0
2019/04/23 01:52:01	BASE	5.81	139	7.20	163	0.8	93	-0.2	0	0	991.5	NA	0.0000		9999	4130	0	0	0
2019/04/23 01:53:01	BASE	6.69	141	7.41	146	0.8	93	-0.1	0	0	991.5	NA	0.0000		9999	4070	0	0	0
2019/04/23 01:54:01	BASE	6.93	146	7.72	154	0.8	94	-0.1	0	0	991.5	NA	0.0000		9999	4000	0	0	0
2019/04/23 01:55:01	BASE	7.23	146	8.08	148	0.9	94	-0.0	0	0	991.5	NA	0.0000		9999	3810	0	0	0
2019/04/23 01:56:01	BASE	7.99	140	9.41	137	0.9	94	0.0	0	0	991.5	NA	0.0000		9999	3810	0	0	0
2019/04/23 01:57:01	BASE	8.40	138	9.62	138	0.9	94	0.0	0	0	991.5	NA	0.0000		9999	3900	0	0	0
2019/04/23 01:58:01	BASE	7.83	141	9.62	138	0.9	94	0.0	0	0	991.6	NA	0.0000		9999	3770	0	0	0
2019/04/23 01:59:01	BASE	8.41	143	10.34	143	0.8	94	-0.0	0	0	991.6	NA	0.0000		9999	3350	4270	0	0
2019/04/23 02:00:01	BASE	9.04	141	10.34	143	0.7	94	-0.1	0	0	991.6	NA	0.0000		9999	3350	0	0	0
2019/04/23 02:01:01	BASE	8.20	138	10.34	143	0.6	94	-0.2	0	0	991.6	NA	0.0000		9999	3050	0	0	0
2019/04/23 02:02:01	BASE	7.73	139	10.34	143	0.5	94	-0.3	0	0	991.6	NA	0.0000		9999	3450	0	0	0
2019/04/23 02:03:01	BASE	7.92	142	10.34	143	0.4	94	-0.4	0	0	991.6	NA	0.0000		9999	2950	3940	0	0
2019/04/23 02:04:01	BASE	7.72	138	10.34	143	0.3	94	-0.5	0	0	991.6	NA	0.0000		9999	2990	4070	0	0
2019/04/23 02:05:01	BASE	7.84	136	10.34	143	0.3	95	-0.5	0	0	991.5	NA	0.0000		9999	2950	0	0	0
2019/04/23 02:06:01	BASE	8.68	143	10.34	143	0.2	95	-0.5	0	0	991.5	NA	0.0000		9999	3020	0	0	0
2019/04/23 02:07:01	BASE	9.54	150	10.91	144	0.2	96	-0.4	0	0	991.5	NA	0.0000		9999	3080	0	0	0
2019/04/23 02:08:01	BASE	10.04	153	11.47	152	0.2	96	-0.4	0	0	991.5	NA	0.0000		9999	3120	0	0	0
2019/04/23 02:09:01	BASE	9.44	159	11.47	152	0.2	96	-0.3	0	0	991.6	NA	0.0000		9999	3180	0	0	0
2019/04/23 02:10:01	BASE	7.97	164	11.47	152	0.2	97	-0.3	0	0	991.6	NA	0.0000		9999	3080	0	0	0
2019/04/23 02:11:01	BASE	6.40	153	11.47	152	0.2	97	-0.3	0	0	991.6	NA	0.0000		9999	3020	0	0	0
2019/04/23 02:12:01	BASE	7.04	148	11.47	152	0.2	97	-0.2	0	0	991.5	NA	0.0000		9999	2990	0	0	0
2019/04/23 02:13:01	BASE	7.55	152	11.47	152	0.3	97	-0.2	0	0	991.6	NA	0.0000		9999	2950	0	0	0
2019/04/23 02:14:01	BASE	6.80	155	11.47	152	0.3	97	-0.1	0	0	991.6	NA	0.0000		9999	2950	0	0	0
2019/04/23 02:15:01	BASE	6.39	156	11.47	152	0.3	97	-0.1	0	0	991.6	NA	0.0000		9999	3080	3810	0	0
2019/04/23 02:16:01	BASE	6.51	153	11.47	152	0.4	97	-0.1	0	0	991.5	NA	0.0000		9999	2760	3810	0	0
2019/04/23 02:17:01	BASE	7.54	154	11.47	152	0.4	97	-0.0	0	0	991.5	NA	0.0000		9999	2620	3940	0	0
2019/04/23 02:18:01	BASE	7.99	153	10.03	162	0.4	97	0.0	0	0	991.5	NA	0.0000		9999	2620	3220	3970	0
2019/04/23 02:19:01	BASE	7.29	148	9.11	154	0.5	97	0.0	0	0	991.6	NA	0.0000		9999	2760	3970	0	0
2019/04/23 02:20:01	BASE	6.46	146	9.11	154	0.5	97	0.1	0	0	991.6	NA	0.0000		9999	2760	3580	0	0
2019/04/23 02:21:01	BASE	6.67	151	9.11	154	0.5	97	0.1	0	0	991.6	NA	0.0000		9999	2850	3510	0	0
2019/04/23 02:22:01	BASE	7.79	152	9.47	149	0.5	98	0.2	0	0	991.5	NA	0.0000		9999	2690	0	0	0
2019/04/23 02:23:01	BASE	7.96	148	9.47	149	0.5	98	0.2	0	0	991.6	NA	0.0000		9999	2950	0	0	0
2019/04/23 02:24:01	BASE	7.49	147	9.47	149	0.6	98	0.3	0	0	991.6	NA	0.0000		9999	2890	0	0	0
2019/04/23 02:25:01	BASE	7.74	147	9.47	149	0.6	98	0.3	0	0	991.6	NA	0.0000		9999	2890	0	0	0
2019/04/23 02:26:01	BASE	7.81	150	9.47	149	0.6	98	0.3	0	0	991.6	NA	0.0000		9999	2790	0	0	0
2019/04/23 02:27:01	BASE	6.98	159	9.47	149	0.6	98	0.3	0	0	991.5	NA	0.0000		9999	2990	3610	0	0
2019/04/23 02:28:01	BASE	6.81	160	9.47	149	0.6	98	0.3	0	0	991.5	NA	0.0000		9999	2760	3810	0	0
2019/04/23 02:29:01	BASE	7.98	143	10.08	139	0.6	98	0.3	0	0	991.5	NA	0.0000		9999	2790	0	0	0
2019/04/23 02:30:01	BASE	9.32	129	11.11	129	0.6	98	0.4	0	0	991.5	NA	0.0000		9999	2760	3410	0	0
2019/04/23 02:31:01	BASE	8.85	122	11.11	129	0.8	98	0.5	0	0	991.5	NA	0.0000		9999	2620	3450	0	0
2019/04/23 02:32:01	BASE	6.70	113	11.11	129	0.9	98	0.7	0	0	991.5	NA	0.0000		9999	2690	3770	0	0
2019/04/23 02:33:01	BASE	6.13	118	11.11	129	1.0	98	0.8	0	0	991.5	NA	0.0000		9999	2330	0	0	0
2019/04/23 02:34:01	BASE	8.92	134	12.40	139	1.1	97	0.7	0	0	991.5	NA	0.0000		9999	2560	0	0	0
2019/04/23 02:35:01	BASE	11.28	136	12.45	131	1.1	97	0.6	0	0	991.5	NA	0.0000		9999	2690	0	0	0
2019/04/23 02:36:01	BASE	10.97	132	12.45	131	1.0	96	0.4	0	0	991.5	NA	0.0000		9999	2690	0	0	0
2019/04/23 02:37:00	BASE	10.85	132	12.96	134	0.9	95	0.2	0	0	991.5	NA	0.0000		9999	2560	0	0	0
2019/04/23 02:38:00	BASE	11.79	136	13.43	137	0.8	94	-0.1	0	0	991.4	NA	0.0000		9999	2300	0	0	0
2019/04/23 02:39:01	BASE	12.25	141	13.48	146	0.7	93	-0.2	0	0	991.5	NA	0.0000		9999	2330	0	0	0
2019/04/23 02:40:00	BASE	12.46	145	14.35	147	0.6	93	-0.4	0	0	991.4	NA	0.0000		9999	2360	0	0	0
2019/04/23 02:41:00	BASE	11.78	145	14.35	147	0.5	93	-0.5	0	0	991.5	NA	0.0000		9999	2430	0	0	0
2019/04/23 02:42:00	BASE	9.87	138	14.35	147	0.4	93	-0.5	0	0	991.5	NA	0.0000		9999	1940	0	0	0
2019/04/23 02:43:00	BASE	8.98	129	14.35	147	0.4	93	-0.6	0	0	991.5	NA	0.0000		9999	2100	0	0	0
2019/04/23 02:44:00	BASE	8.82	126	14.35	147	0.4	94	-0.6	0	0	991.5	NA	0.0000		9999	2430	0	0	0
2019/04/23 02:45:00	BASE	10.00	130	14.35	147	0.4	94	-0.5	0	0	991.4	NA	0.0000		9999	2230	0	0	0
2019/04/23 02:46:00	BASE	10.73	135	14.35	147	0.4	94	-0.5	0	0	991.5	NA	0.0000		9999	2490	0	0	0
2019/04/23 02:47:00	BASE	9.54	144	14.35	147	0.4	94	-0.4	0	0	991.5	NA	0.0000		9999	2620	0	0	0
2019/04/23 02:48:00	BASE	8.13	154	14.35	147	0.4	94	-0.4	0	0	991.5	NA	0.0000		9999	2590	0	0	0
2019/04/23 02:49:00	BASE	7.27	150	14.35	147	0.4	94	-0.3	0	0	991.5	NA	0.0000		9999	2620	0	0	0
2019/04/23 02:50:00	BASE	7.28	141	12.60	132	0.5	95	-0.3	0	0	991.5	NA	0.0000		9999	2620	0	0	0
2019/04/23 02:51:00	BASE	8.81	137	12.60	132	0.5	95	-0.2	0	0	991.5	NA	0.0000		9999	2590	0	0	0
2019/04/23 02:52:00	BASE	10.44	140	12.60	132	0.5	95	-0.1	0	0	991.5	NA	0.0000		9999	2560	0	0	0
2019/04/23 02:53:00	BASE	9.40	142	12.60	132	0.6	95	-0.1	0	0	991.5	NA	0.0000		9999	2490	0	0	0
2019/04/23 02:54:00	BASE	9.47	144	12.60	132	0.6	95	-0.1	0	0	991.4	NA	0.0000		9999	2530	0	0	0
2019/04/23 02:55:00	BASE	11.29	146	12.66	150	0.6	95	-0.1	0	0	991.4	NA	0.0000		9999	2460	3480	0	0
2019/04/23 02:56:00	BASE	11.05	148	12.66	150	0.6	95	-0.1	0	0	991.5	NA	0.0000		9999	2490	3670	0	0
2019/04/23 02:57:00	BASE	10.20	147	12.66	150	0.6	94	-0.2	0	0	991.5	NA	0.0000		9999	2560	3380	0	0
2019/04/23 02:58:00	BASE	9.93	146	12.66	150	0.6	94	-0.2	0	0	991.5	NA	0.0000		9999	2760	3510	0	0
2019/04/23 02:59:00	BASE	9.22	145	12.66	150	0.6	94	-0.2	0	0	991.5	NA	0.0000		9999	3670	0	0	0
2019/04/23 03:00:00	BASE	7.55	141	12.66	150	0.6	94	-0.2	0	0	991.5	NA	0.0000		9999	3740	0	0	0
2019/04/23 03:01:00	BASE	7.33	143	12.66	150	0.6	95	-0.2	0	0	991.4	NA	0.0000		9999	3710	0	0	0
2019/04/23 03:02:00	BASE	9.12	148	12.66	150	0.6	95	-0.2	0	0	991.5	NA	0.0000		9999	3710	0	0	0
2019/04/23 03:03:00	BASE	10.41	150	12.66	150	0.5	95	-0.2	0	0	991.5	NA	0.0000		9999	3740	0	0	0
2019/04/23 03:04:00	BASE	10.23	148	12.66	150	0.5	95	-0.3	0	0	991.5	NA	0.0000		9999	3740	0	0	0
2019/04/23 03:05:00	BASE	8.78	148	11.68	153	0.4	95	-0.3	0	0	991.5	NA	0.0000		9999	3870	0	0	0
2019/04/23 03:06:00	BASE	8.41	150	11.68	153	0.3	95	-0.3	0	0	991.5	NA	0.0000		9999	3840	0	0	0
2019/04/23 03:07:00	BASE	9.39	150	11.68	153	0.3	96	-0.3	0	0	991.5	NA	0.0000		9999	3810	0	0	0
2019/04/23 03:08:00	BASE	9.79	152	11.68	153	0.3	96	-0.3	0	0	991.4	NA	0.0000		9999	3740	0	0	0
2019/04/23 03:09:00	BASE	10.13	155	11.68	153	0.3	96	-0.2	0	0	991.4	NA	0.0000		9999	3710	0	0	0
2019/04/23 03:10:00	BASE	9.68	155	11.68	153	0.2	97	-0.2	0	0	991.5	NA	0.0000		9999	3380	0	0	0
2019/04/23 03:11:00	BASE	8.99	151	11.68	153	0.2	97	-0.2	0	0	991.5	NA	0.0000		9999	3250	0	0	0
2019/04/23 03:12:00	BASE	8.74	145	11.68	153	0.2	98	-0.1	0	0	991.5	NA	0.0000		9999	3250	0	0	0
2019/04/23 03:13:00	BASE	8.93	142	11.47	154	0.2	98	-0.1	0	0	991.5	NA	0.0000		9999	3150	0	0	0
2019/04/23 03:14:00	BASE	10.18	141	11.63	138	0.2	98	-0.0	0	0	991.4	NA	0.0000		9999	3220	0	0	0
2019/04/23 03:15:01	BASE	10.69	144	11.63	151	0.2	98	-0.0	0	0	991.4	NA	0.0000		9999	3220	0	0	0
2019/04/23 03:16:00	BASE	10.63	152	12.50	156	0.2	98	-0.1	0	0	991.4	NA	0.0000		9999	3380	0	0	0
2019/04/23 03:17:00	BASE	9.51	153	12.50	156	0.2	98	-0.1	0	0	991.5	NA	0.0000		9999	3250	0	0	0
2019/04/23 03:18:00	BASE	8.61	147	12.50	156	0.1	98	-0.1	0	0	991.5	NA	0.0000		9999	3020	0	0	0
2019/04/23 03:19:00	BASE	9.89	146	12.50	156	0.1	98	-0.1	0	0	991.4	NA	0.0000		9999	3020	0	0	0
2019/04/23 03:20:00	BASE	10.27	145	12.50	156	0.1	99	-0.1	0	0	991.4	NA	0.0000		9999	3020	0	0	0
2019/04/23 03:21:00	BASE	10.49	148	12.50	156	0.1	99	-0.1	0	0	991.4	NA	0.0000		9999	3050	0	0	0
2019/04/23 03:22:00	BASE	10.38	148	12.50	156	0.0	99	-0.1	0	0	991.4	NA	0.0000		9999	3150	0	0	0
2019/04/23 03:23:00	BASE	9.67	147	12.50	156	0.0	99	-0.1	0	0	991.4	NA	0.0000		9999	3280	0	0	0
2019/04/23 03:24:00	BASE	10.42	148	12.50	156	-0.0	99	-0.1	0	0	991.4	NA	0.0000		9999	3220	0	0	0
2019/04/23 03:25:00	BASE	10.83	149	12.50	156	-0.1	99	-0.2	0	0	991.4	NA	0.0000		9999	3150	0	0	0
2019/04/23 03:26:00	BASE	10.97	152	11.99	153	-0.1	100	-0.2	0	2	991.3	NA	0.0000		9999	3120	0	0	0
2019/04/23 03:27:00	BASE	11.44	151	12.45	153	-0.1	100	-0.1	0	0	991.3	NA	0.0000		9999	3080	0	0	0
2019/04/23 03:28:00	BASE	11.38	149	12.45	147	-0.1	100	-0.1	0	0	991.3	NA	0.0000		9999	3220	0	0	0
2019/04/23 03:29:00	BASE	11.11	147	12.66	149	-0.1	100	-0.1	0	0	991.3	NA	0.0000		9999	3310	0	0	0
2019/04/23 03:30:00	BASE	10.26	145	12.66	149	-0.1	100	-0.1	0	0	991.3	NA	0.0000		9999	4760	0	0	0
2019/04/23 03:31:00	BASE	9.24	145	12.66	149	-0.1	100	-0.1	0	0	991.3	NA	0.0000		9999	4630	0	0	0
2019/04/23 03:32:00	BASE	9.00	145	12.66	149	-0.1	100	-0.1	0	0	991.3	NA	0.0000		9999	4330	0	0	0
2019/04/23 03:33:00	BASE	9.75	147	12.66	149	-0.1	100	-0.1	0	0	991.3	NA	0.0000		9999	4300	0	0	0
2019/04/23 03:34:00	BASE	8.81	145	12.66	149	-0.0	100	-0.0	0	0	991.4	NA	0.0000		9999	4230	0	0	0
2019/04/23 03:35:00	BASE	7.49	146	12.66	149	0.0	100	0.0	0	0	991.4	NA	0.0000		9999	4230	0	0	0
2019/04/23 03:36:00	BASE	7.25	148	12.66	149	0.1	100	0.1	0	0	991.4	NA	0.0000		9999	4170	0	0	0
2019/04/23 03:37:00	BASE	6.46	148	12.66	149	0.1	100	0.1	0	0	991.4	NA	0.0000		9999	4330	0	0	0
2019/04/23 03:38:00	BASE	5.96	151	12.66	149	0.1	100	0.1	0	0	991.5	NA	0.0000		9999	4200	0	0	0
2019/04/23 03:39:00	BASE	6.03	153	12.14	139	0.1	100	0.1	0	0	991.4	NA	0.0000		9999	4200	0	0	0
2019/04/23 03:40:00	BASE	7.05	154	11.78	153	0.1	100	0.1	0	0	991.4	NA	0.0000		9999	4100	0	0	0
2019/04/23 03:41:00	BASE	7.92	154	11.78	153	0.1	100	0.1	0	0	991.4	NA	0.0000		9999	4330	0	0	0
2019/04/23 03:42:00	BASE	7.04	158	11.78	153	0.1	100	0.1	0	0	991.4	NA	0.0000		9999	4170	0	0	0
2019/04/23 03:43:00	BASE	5.93	163	9.31	156	0.1	100	0.1	0	0	991.4	NA	0.0000		9999	4130	0	0	0
2019/04/23 03:44:00	BASE	5.69	163	9.31	156	0.1	100	0.1	0	0	991.4	NA	0.0000		9999	4040	0	0	0
2019/04/23 03:45:00	BASE	5.27	155	9.31	156	0.1	100	0.1	0	0	991.4	NA	0.0000		9999	3900	0	0	0
2019/04/23 03:46:00	BASE	5.33	151	9.31	156	0.1	100	0.1	0	0	991.4	NA	0.0000		9999	1380	0	0	0
2019/04/23 03:47:00	BASE	5.78	145	9.31	156	0.1	100	0.1	0	0	991.4	NA	0.0000		9999	1380	0	0	0
2019/04/23 03:48:00	BASE	5.32	136	9.31	156	0.2	100	0.2	0	0	991.4	NA	0.0000		9999	1310	0	0	0
2019/04/23 03:49:00	BASE	4.17	139	9.31	156	0.3	100	0.3	0	0	991.3	NA	0.0000		9999	1310	0	0	0
2019/04/23 03:50:00	BASE	2.64	159	9.31	156	0.5	100	0.5	0	0	991.3	NA	0.0000		9999	1540	0	0	0
2019/04/23 03:51:00	BASE	2.74	151	7.51	163	0.7	100	0.7	0	0	991.4	NA	0.0000		9999	3840	0	0	0
2019/04/23 03:52:00	BASE	3.95	145	7.92	147	0.8	100	0.8	0	0	991.3	NA	0.0000		9999	3870	0	0	0
2019/04/23 03:53:00	BASE	5.58	150	8.18	154	0.9	100	0.9	0	0	991.3	NA	0.0000		9999	3870	0	0	0
2019/04/23 03:54:00	BASE	6.61	158	8.18	154	1.0	100	1.0	0	0	991.3	NA	0.0000		9999	4040	0	0	0
2019/04/23 03:55:00	BASE	6.14	157	8.18	154	0.8	100	0.8	0	0	991.4	NA	0.0000		9999	4130	0	0	0
2019/04/23 03:56:00	BASE	6.69	149	8.49	143	0.7	100	0.7	0	0	991.3	NA	0.0000		9999	2100	0	0	0
2019/04/23 03:57:00	BASE	6.84	143	8.49	143	0.6	100	0.6	0	0	991.3	NA	0.0000		9999	2200	0	0	0
2019/04/23 03:58:00	BASE	7.10	136	8.64	136	0.5	100	0.5	0	0	991.4	NA	0.0000		9999	2170	0	0	0
2019/04/23 03:59:00	BASE	7.23	139	8.64	141	0.3	100	0.3	0	0	991.3	NA	0.0000		9999	2230	0	0	0
2019/04/23 04:00:00	BASE	6.62	144	8.64	141	0.3	100	0.3	0	0	991.3	NA	0.0000		9999	2300	0	0	0
2019/04/23 04:01:00	BASE	6.86	142	8.64	141	0.2	100	0.2	0	0	991.3	NA	0.0000		9999	3020	0	0	0
2019/04/23 04:02:00	BASE	7.21	139	8.64	141	0.1	100	0.1	0	0	991.3	NA	0.0000		9999	2990	0	0	0
2019/04/23 04:03:00	BASE	7.29	140	8.64	141	0.1	100	0.1	0	0	991.3	NA	0.0000		9999	4400	0	0	0
2019/04/23 04:04:00	BASE	7.32	142	8.64	141	0.1	100	0.1	0	0	991.4	NA	0.0000		9999	2230	0	0	0
2019/04/23 04:05:00	BASE	7.57	143	8.85	142	0.0	100	0.0	0	0	991.3	NA	0.0000		9999	4400	0	0	0
2019/04/23 04:06:00	BASE	7.78	144	9.00	152	0.0	100	0.0	0	0	991.4	NA	0.0000		9999	2100	0	0	0
2019/04/23 04:07:00	BASE	7.19	146	9.00	152	-0.0	100	-0.0	0	0	991.3	NA	0.0000		9999	2100	3640	0	0
2019/04/23 04:08:00	BASE	7.93	153	9.67	158	-0.0	100	-0.0	0	0	991.3	NA	0.0000		9999	2000	3640	0	0
2019/04/23 04:09:00	BASE	8.94	158	9.67	158	-0.0	100	-0.0	0	0	991.3	NA	0.0000		9999	2030	3640	0	0
2019/04/23 04:10:00	BASE	8.59	158	9.67	158	-0.1	100	-0.1	0	0	991.3	NA	0.0000		9999	2000	3670	0	0
2019/04/23 04:11:00	BASE	7.93	156	9.67	158	-0.1	100	-0.1	0	0	991.3	NA	0.0000		9999	2030	3740	0	0
2019/04/23 04:12:00	BASE	7.19	157	9.67	158	-0.1	100	-0.1	0	0	991.4	NA	0.0000		9999	2030	3810	0	0
2019/04/23 04:13:00	BASE	6.12	162	9.67	158	-0.1	100	-0.1	0	0	991.4	NA	0.0000		9999	1970	3840	0	0
2019/04/23 04:14:00	BASE	5.38	168	9.67	158	-0.0	100	-0.0	0	0	991.4	NA	0.0000		9999	2000	3810	0	0
2019/04/23 04:15:00	BASE	5.90	170	9.67	158	0.0	100	0.0	0	0	991.4	NA	0.0000		9999	2030	0	0	0
2019/04/23 04:16:00	BASE	6.78	163	9.67	158	0.0	100	0.0	0	0	991.4	NA	0.0000		9999	1940	0	0	0
2019/04/23 04:17:00	BASE	6.94	159	9.67	158	0.1	100	0.1	0	0	991.4	NA	0.0000		9999	1940	0	0	0
2019/04/23 04:18:00	BASE	6.61	161	9.62	143	0.1	100	0.1	0	0	991.4	NA	0.0000		9999	1970	0	0	0
2019/04/23 04:19:00	BASE	6.89	161	9.47	150	0.1	100	0.1	0	0	991.4	NA	0.0000		9999	1940	0	0	0
2019/04/23 04:20:00	BASE	7.25	162	8.54	154	0.2	100	0.2	0	0	991.4	NA	0.0000		9999	1710	0	0	0
2019/04/23 04:21:00	BASE	7.23	164	8.18	162	0.2	100	0.2	0	0	991.4	NA	0.0000		9999	1610	0	0	0
2019/04/23 04:22:00	BASE	6.30	164	8.18	162	0.2	100	0.2	0	0	991.5	NA	0.0000		9999	1710	0	0	0
2019/04/23 04:23:00	BASE	5.57	160	8.18	162	0.2	100	0.2	0	0	991.5	NA	0.0000		9999	1710	0	0	0
2019/04/23 04:24:00	BASE	6.83	153	9.67	149	0.2	100	0.2	0	0	991.4	NA	0.0000		9999	1770	0	0	0
2019/04/23 04:25:00	BASE	8.25	151	9.67	146	0.2	100	0.2	0	0	991.4	NA	0.0000		9999	1740	0	0	0
2019/04/23 04:26:00	BASE	8.64	154	9.67	146	0.2	100	0.2	0	0	991.4	NA	0.0000		9999	1740	0	0	0
2019/04/23 04:27:00	BASE	7.85	159	9.67	146	0.2	100	0.2	0	0	991.4	NA	0.0000		9999	1670	0	0	0
2019/04/23 04:28:00	BASE	7.35	157	9.67	146	0.2	100	0.2	0	0	991.4	NA	0.0000		9999	1710	0	0	0
2019/04/23 04:29:00	BASE	7.80	152	9.67	146	0.2	100	0.2	0	0	991.5	NA	0.0000		9999	1740	0	0	0
2019/04/23 04:30:00	BASE	7.87	154	9.67	146	0.3	100	0.3	0	0	991.5	NA	0.0000		9999	1710	0	0	0
2019/04/23 04:31:00	BASE	7.81	156	9.67	146	0.3	100	0.3	0	0	991.5	NA	0.0000		9999	1670	0	0	0
2019/04/23 04:32:00	BASE	7.33	151	9.67	146	0.2	100	0.2	0	0	991.5	NA	0.0000		9999	1770	0	0	0
2019/04/23 04:33:00	BASE	7.36	149	9.67	146	0.2	100	0.2	0	0	991.5	NA	0.0000		9999	1770	0	0	0
2019/04/23 04:34:00	BASE	7.95	153	9.67	154	0.2	100	0.2	0	0	991.5	NA	0.0000		9999	1740	0	0	0
2019/04/23 04:35:00	BASE	7.69	154	9.67	154	0.2	100	0.2	0	0	991.5	NA	0.0000		9999	1800	3250	0	0
2019/04/23 04:36:00	BASE	7.05	147	9.67	154	0.2	100	0.2	0	0	991.5	NA	0.0000		9999	1770	0	0	0
2019/04/23 04:37:00	BASE	7.50	141	9.67	154	0.2	100	0.2	0	0	991.5	NA	0.0000		9999	1770	3080	0	0
2019/04/23 04:38:00	BASE	7.86	142	9.67	154	0.2	100	0.2	0	0	991.5	NA	0.0000		9999	1770	3120	0	0
2019/04/23 04:39:00	BASE	6.91	141	9.67	154	0.2	100	0.2	0	0	991.6	NA	0.0000		9999	1770	3120	0	0
2019/04/23 04:40:00	BASE	5.63	144	9.67	154	0.2	100	0.2	0	0	991.6	NA	0.0000		9999	1800	0	0	0
2019/04/23 04:41:00	BASE	6.18	158	9.72	175	0.2	100	0.2	0	0	991.5	NA	0.0000		9999	1670	0	0	0
2019/04/23 04:42:00	BASE	7.69	169	9.72	175	0.3	100	0.3	0	0	991.5	NA	0.0000		9999	1770	0	0	0
2019/04/23 04:43:00	BASE	7.48	173	9.72	175	0.3	100	0.3	0	0	991.6	NA	0.0000		9999	1740	0	0	0
2019/04/23 04:44:00	BASE	6.44	174	9.72	175	0.3	100	0.3	0	0	991.6	NA	0.0000		9999	1670	0	0	0
2019/04/23 04:45:00	BASE	5.07	173	9.72	175	0.3	100	0.3	0	0	991.6	NA	0.0000		9999	1710	0	0	0
2019/04/23 04:46:00	BASE	4.28	174	9.72	175	0.3	100	0.3	0	0	991.6	NA	0.0000		9999	1670	0	0	0
2019/04/23 04:47:00	BASE	4.16	176	9.72	175	0.4	100	0.4	0	0	991.6	NA	0.0000		9999	1640	0	0	0
2019/04/23 04:48:00	BASE	3.64	167	9.72	175	0.4	100	0.4	0	0	991.6	NA	0.0000		9999	1640	0	0	0
2019/04/23 04:49:00	BASE	3.24	157	9.72	175	0.4	100	0.4	0	0	991.6	NA	0.0000		9999	1570	0	0	0
2019/04/23 04:50:00	BASE	3.70	159	9.72	175	0.5	100	0.5	0	0	991.6	NA	0.0000		9999	1480	0	0	0
2019/04/23 04:51:00	BASE	4.84	159	9.11	168	0.5	100	0.5	0	0	991.6	NA	0.0000		9999	1640	0	0	0
2019/04/23 04:52:00	BASE	5.36	155	7.87	183	0.5	100	0.5	0	0	991.6	NA	0.0000		9999	1570	0	0	0
2019/04/23 04:53:00	BASE	5.28	152	6.38	171	0.4	100	0.4	0	0	991.6	NA	0.0000		9999	1570	0	0	0
2019/04/23 04:54:00	BASE	5.39	154	6.17	155	0.4	100	0.4	0	0	991.6	NA	0.0000		9999	1570	0	0	0
2019/04/23 04:55:00	BASE	6.16	150	8.08	147	0.4	100	0.4	0	0	991.6	NA	0.0000		9999	1640	0	0	0
2019/04/23 04:56:00	BASE	7.02	144	8.08	147	0.4	100	0.4	0	0	991.6	NA	0.0000		9999	1640	0	0	0
2019/04/23 04:57:00	BASE	6.57	144	8.08	147	0.4	100	0.4	0	0	991.6	NA	0.0000		9999	1710	0	0	0
2019/04/23 04:58:00	BASE	5.87	149	8.08	147	0.4	100	0.4	0	0	991.6	NA	0.0000		9999	1610	0	0	0
2019/04/23 04:59:00	BASE	4.40	146	8.08	147	0.4	100	0.4	0	0	991.6	NA	0.0000		9999	1670	0	0	0
2019/04/23 05:00:00	BASE	3.80	137	8.08	147	0.5	100	0.5	0	0	991.6	NA	0.0000		9999	1710	0	0	0
2019/04/23 05:01:00	BASE	4.85	130	8.08	147	0.5	100	0.5	0	0	991.6	NA	0.0000		9999	3080	0	0	0
2019/04/23 05:02:00	BASE	5.72	125	8.08	147	0.5	100	0.5	0	0	991.6	NA	0.0000		9999	1800	0	0	0
2019/04/23 05:03:00	BASE	7.38	129	9.98	138	0.6	100	0.6	0	0	991.6	NA	0.0000		9999	3250	0	0	0
2019/04/23 05:04:00	BASE	8.68	135	9.98	138	0.5	100	0.5	0	0	991.6	NA	0.0000	UP	9999	3250	0	0	0
2019/04/23 05:05:00	BASE	8.40	138	9.98	138	0.5	100	0.5	0	0	991.6	NA	0.0000	UP	9999	1670	0	0	0
2019/04/23 05:06:00	BASE	7.85	136	9.98	138	0.4	100	0.4	0	0	991.6	NA	0.0000	UP	9999	3180	0	0	0
2019/04/23 05:07:00	BASE	7.92	126	9.98	138	0.3	100	0.3	0	0	991.6	NA	0.0000	UP	9999	3280	0	0	0
2019/04/23 05:08:00	BASE	8.12	126	9.98	138	0.3	100	0.3	0	0	991.6	NA	0.0000	UP	9999	3280	0	0	0
2019/04/23 05:09:00	BASE	8.88	136	10.60	135	0.2	100	0.2	0	0	991.6	NA	0.0000	UP	9999	3410	0	0	0
2019/04/23 05:10:00	BASE	9.72	142	10.60	135	0.2	100	0.2	0	0	991.6	NA	0.0000	UP	9999	3480	0	0	0
2019/04/23 05:11:00	BASE	9.88	145	10.91	145	0.2	100	0.2	0	0	991.6	NA	0.0000	UP	9999	3480	0	0	0
2019/04/23 05:12:00	BASE	9.68	147	10.91	145	0.2	100	0.2	0	0	991.6	NA	0.0000	UP	9999	3580	0	0	0
2019/04/23 05:13:00	BASE	9.21	146	10.91	145	0.2	100	0.2	0	0	991.6	NA	0.0000	UP	9999	3640	0	0	0
2019/04/23 05:14:00	BASE	9.04	145	10.91	145	0.2	100	0.2	0	0	991.5	NA	0.0000	UP	9999	3610	0	0	0
2019/04/23 05:15:00	BASE	9.22	147	10.91	145	0.2	100	0.2	0	0	991.5	NA	0.0000	UP	9999	3670	0	0	0
2019/04/23 05:16:00	BASE	8.83	150	10.91	145	0.2	100	0.2	0	0	991.5	NA	0.0000	UP	9999	3740	0	0	0
2019/04/23 05:17:00	BASE	8.10	146	10.91	145	0.3	100	0.3	0	0	991.5	NA	0.0000	UP	9999	3670	0	0	0
2019/04/23 05:18:00	BASE	7.81	136	10.91	145	0.3	100	0.3	0	0	991.6	NA	0.0000	UP	9999	3670	0	0	0
2019/04/23 05:19:00	BASE	7.95	134	10.91	145	0.4	100	0.4	0	0	991.5	NA	0.0000	UP	9999	3710	0	0	0
2019/04/23 05:20:00	BASE	8.42	141	10.91	145	0.4	100	0.4	0	0	991.5	NA	0.0000	UP	9999	1770	0	0	0
2019/04/23 05:21:00	BASE	8.75	146	10.49	152	0.4	100	0.4	0	0	991.5	NA	0.0000	UP	7000	1770	0	0	0
2019/04/23 05:22:00	BASE	8.56	139	10.49	152	0.4	100	0.4	0	0	991.5	NA	0.0000	UP BR	5000	1710	3020	0	0
2019/04/23 05:23:00	BASE	8.57	131	10.49	152	0.4	100	0.4	0	0	991.5	NA	0.0000	UP BR	5000	1610	3050	0	0
2019/04/23 05:24:00	BASE	9.01	130	10.44	124	0.5	100	0.5	0	0	991.5	NA	0.0000	UP BR	5000	1610	3050	0	0
2019/04/23 05:25:00	BASE	9.54	133	10.75	138	0.6	100	0.6	0	0	991.5	NA	0.0000	UP BR	6000	2660	0	0	0
2019/04/23 05:26:00	BASE	9.91	137	11.27	135	0.7	100	0.7	0	0	991.5	NA	0.0000	UP BR	6000	2460	0	0	0
2019/04/23 05:27:00	BASE	9.25	140	11.27	135	0.7	100	0.7	0	0	991.6	NA	0.0000	UP BR	7000	2430	0	0	0
2019/04/23 05:28:00	BASE	8.80	145	11.27	135	0.7	100	0.7	0	0	991.6	NA	0.0000	UP BR	8000	2490	0	0	0
2019/04/23 05:29:00	BASE	8.16	148	11.27	135	0.7	100	0.7	0	1	991.6	NA	0.0000	UP BR	9000	2790	0	0	0
2019/04/23 05:30:00	BASE	7.26	146	11.27	135	0.7	100	0.7	0	0	991.6	NA	0.0000	UP BR	9000	1610	0	0	0
2019/04/23 05:31:00	BASE	8.81	153	11.47	170	0.6	100	0.6	0	0	991.5	NA	0.0000	UP BR	9000	1540	2530	0	0
2019/04/23 05:32:00	BASE	9.48	164	11.47	170	0.6	100	0.6	0	0	991.5	NA	0.0000	UP BR	9000	1570	2360	0	0
2019/04/23 05:33:00	BASE	8.23	162	11.47	170	0.6	100	0.6	0	0	991.6	NA	0.0000	BR	9000	1480	2430	0	0
2019/04/23 05:34:00	BASE	7.32	158	11.47	170	0.7	100	0.7	0	0	991.6	NA	0.0000	BR	9999	1210	2430	0	0
2019/04/23 05:35:01	BASE	5.85	156	11.47	170	0.7	100	0.7	0	0	991.7	NA	0.0000	BR	9999	1210	2460	0	0
2019/04/23 05:36:00	BASE	4.72	153	11.47	170	0.7	100	0.7	0	0	991.7	NA	0.0000	UP BR	9999	1250	2850	0	0
2019/04/23 05:37:00	BASE	4.26	155	11.47	170	0.7	100	0.7	0	0	991.6	NA	0.0000	UP BR	9999	750	0	0	0
2019/04/23 05:38:01	BASE	4.53	158	11.47	170	0.7	100	0.7	0	0	991.8	NA	0.0000	UP BR	9000	920	0	0	0
2019/04/23 05:39:00	BASE	4.42	152	11.47	170	0.7	100	0.7	0	0	991.8	NA	0.0000	UP BR	7000	980	2920	0	0
2019/04/23 05:40:00	BASE	3.76	161	11.47	170	0.8	100	0.8	0	0	991.8	NA	0.0000	-RA BR	5000	490	0	0	0
2019/04/23 05:41:00	BASE	4.69	181	10.80	166	0.8	100	0.8	0	0	991.7	NA	0.0000	-RA BR	4300	430	0	0	0
2019/04/23 05:42:01	BASE	5.99	177	8.75	160	0.9	100	0.9	0	0	991.7	NA	0.0000	-RA BR	3000	790	0	0	0
2019/04/23 05:43:00	BASE	5.14	150	7.72	151	0.9	100	0.9	0	0	991.8	NA	0.0000	-RA BR	2600	850	0	0	0
2019/04/23 05:44:00	BASE	4.05	142	7.05	168	0.9	100	0.9	0	0	991.8	NA	0.0000	-RA BR	2700	660	0	0	0
2019/04/23 05:45:01	BASE	4.38	154	7.05	168	1.0	100	1.0	0	0	991.7	NA	0.0000	-RA BR	2800	620	0	0	0
2019/04/23 05:46:00	BASE	4.45	185	7.05	168	1.1	100	1.1	0	0	991.7	NA	0.0000	-SN BR	2900	0	0	0	2890
2019/04/23 05:47:00	BASE	3.65	277	7.05	168	1.4	100	1.4	0	1	991.7	NA	0.0000	-SN BR	3000	0	0	0	2950
2019/04/23 05:48:00	BASE	3.03	289	7.05	168	1.7	100	1.7	0	0	991.6	NA	0.0000	-SN BR	3100	0	0	0	2850
2019/04/23 05:49:00	BASE	2.91	237	7.05	168	2.1	100	2.1	0	0	991.6	NA	0.0000	-SN BR	3300	0	0	0	2660
2019/04/23 05:50:00	BASE	2.68	217	7.05	168	2.4	100	2.4	0	0	991.6	NA	0.0000	-SN BR	3500	560	0	0	0
2019/04/23 05:51:00	BASE	2.50	249	7.05	168	2.7	100	2.7	0	0	991.6	NA	0.0000	-SN BR	3700	720	0	0	0
2019/04/23 05:52:00	BASE	2.38	255	6.28	201	2.8	100	2.8	0	0	991.6	NA	0.0000	-SN BR	4000	890	0	0	0
2019/04/23 05:53:00	BASE	2.43	221	6.28	201	2.8	100	2.8	0	0	991.7	NA	0.0000	-SN BR	4200	820	0	0	0
2019/04/23 05:54:00	BASE	2.62	200	6.28	201	2.6	100	2.6	0	0	991.7	NA	0.0000	-SN BR	4300	1770	0	0	0
2019/04/23 05:55:00	BASE	2.91	194	6.28	201	2.4	100	2.4	0	0	991.7	NA	0.0000	-SN BR	4400	1770	0	0	0
2019/04/23 05:56:00	BASE	2.14	208	5.25	272	2.2	100	2.1	0	0	991.7	NA	0.0000	-SN BR	4800	1800	0	0	0
2019/04/23 05:57:00	BASE	1.39	273	5.09	254	1.9	100	1.8	0	0	991.7	NA	0.0000	-SN BR	5000	1640	0	0	0
2019/04/23 05:58:00	BASE	0.91	313	3.96	192	1.6	100	1.5	0	0	991.8	NA	0.0000	-SN BR	5000	1740	0	0	0
2019/04/23 05:59:00	BASE	0.09	320	3.96	192	1.5	100	1.5	0	0	991.8	NA	0.0000	-SN BR	5000	1740	0	0	0
2019/04/23 06:00:00	BASE	0.64	327	3.96	192	1.5	100	1.5	0	0	991.8	NA	0.0000	-SN BR	5000	1640	0	0	0
2019/04/23 06:01:00	BASE	1.88	322	3.96	192	1.4	100	1.4	0	0	991.8	NA	0.0000	-SN BR	6000	1670	0	0	0
2019/04/23 06:02:00	BASE	2.22	293	3.96	192	1.4	100	1.4	0	0	991.8	NA	0.2540	-SN BR	6000	1970	0	0	0
2019/04/23 06:03:00	BASE	2.22	242	3.96	192	1.4	100	1.4	0	0	991.8	NA	0.0000	-SN BR	6000	1940	0	0	0
2019/04/23 06:04:29	BASE	2.99	212	3.96	192	1.4	100	1.4	0	0	991.8	NA	0.0000	-SN BR	6000	1900	0	0	0
2019/04/23 06:05:01	BASE	3.02	205	3.29	201	1.3	100	1.3	0	0	991.9	NA	0.0000	-SN BR	7000	1380	0	0	0
2019/04/23 06:06:00	BASE	2.22	188	3.29	201	1.3	100	1.3	0	0	991.9	NA	0.0000	-SN BR	8000	1380	0	0	0
2019/04/23 06:07:00	BASE	2.48	175	3.76	155	1.2	100	1.2	0	0	991.8	NA	0.0000	-SN BR	8000	920	0	0	0
2019/04/23 06:08:00	BASE	3.61	170	5.04	178	1.2	100	1.2	0	0	991.8	NA	0.0000	-SN BR	6000	820	0	0	0
2019/04/23 06:09:00	BASE	4.74	171	5.66	161	1.1	100	1.1	0	0	991.8	NA	0.0000	-SN BR	4800	750	0	0	0
2019/04/23 06:10:00	BASE	5.12	163	5.66	161	1.1	100	1.1	0	0	991.8	NA	0.0000	-SN BR	3900	890	0	0	0
2019/04/23 06:11:00	BASE	4.29	149	5.66	161	1.0	100	1.0	0	0	991.8	NA	0.0000	-SN BR	3300	1120	0	0	0
2019/04/23 06:12:00	BASE	3.59	149	5.66	161	0.9	100	0.9	0	0	991.9	NA	0.0000	-SN BR	3100	850	0	0	0
2019/04/23 06:13:00	BASE	3.47	157	5.66	161	0.9	100	0.9	0	0	991.9	NA	0.0000	-SN BR	3100	750	1940	0	0
2019/04/23 06:14:00	BASE	3.81	168	5.66	161	0.8	100	0.8	0	0	991.9	NA	0.0000	-SN BR	3100	0	0	0	2620
2019/04/23 06:15:00	BASE	4.51	178	5.66	161	0.8	100	0.8	0	0	991.9	NA	0.0000	-SN BR	2800	0	0	0	2590
2019/04/23 06:16:00	BASE	4.49	182	5.66	161	0.8	100	0.8	0	0	992.0	NA	0.0000	-SN BR	2500	390	0	0	0
2019/04/23 06:17:00	BASE	4.35	176	5.66	161	0.7	100	0.7	0	0	992.0	NA	0.0000	-SN BR	2300	0	0	0	2720
2019/04/23 06:18:00	BASE	4.78	166	5.71	163	0.7	100	0.7	0	0	991.9	NA	0.0000	-SN BR	2000	720	0	0	0
2019/04/23 06:19:00	BASE	5.21	166	5.81	166	0.7	100	0.7	0	0	991.9	NA	0.0000	-SN BR	1900	360	0	0	0
2019/04/23 06:20:00	BASE	5.11	171	5.81	166	0.7	100	0.7	0	0	992.0	NA	0.0000	-SN BR	1800	690	0	0	0
2019/04/23 06:21:00	BASE	4.76	173	5.81	166	0.7	100	0.7	0	0	992.0	NA	0.2540	-SN BR	1700	0	0	0	2490
2019/04/23 06:22:00	BASE	4.60	175	5.81	166	0.7	100	0.7	0	0	992.0	NA	0.0000	-SN BR	1800	390	0	0	0
2019/04/23 06:23:00	BASE	4.46	174	5.81	166	0.7	100	0.7	0	0	992.0	NA	0.0000	-SN BR	1900	0	0	0	2790
2019/04/23 06:24:00	BASE	4.61	169	5.81	166	0.6	100	0.6	0	0	992.0	NA	0.0000	-SN BR	1900	360	0	0	0
2019/04/23 06:25:00	BASE	5.01	172	5.81	166	0.6	100	0.6	0	0	992.0	NA	0.0000	-SN BR	1800	0	0	0	3080
2019/04/23 06:26:00	BASE	5.03	177	5.81	166	0.6	100	0.6	0	0	992.0	NA	0.0000	-SN BR	1400	360	0	0	0
2019/04/23 06:27:00	BASE	5.21	178	6.38	177	0.6	100	0.6	0	0	992.0	NA	0.0000	-SN BR	1200	360	0	0	0
2019/04/23 06:28:00	BASE	5.67	179	6.53	184	0.6	100	0.6	0	0	992.0	NA	0.0000	-SN BR	1100	360	0	0	0
2019/04/23 06:29:00	BASE	5.49	176	6.53	184	0.5	100	0.5	0	0	992.0	NA	0.0000	-SN BR	1000	390	0	0	0
2019/04/23 06:30:00	BASE	5.19	174	6.53	184	0.5	100	0.5	0	0	992.0	NA	0.0000	-SN BR	1000	390	0	0	0
2019/04/23 06:31:00	BASE	4.82	178	6.53	184	0.5	100	0.5	0	0	992.0	NA	0.0000	-SN BR	1000	360	0	0	0
2019/04/23 06:32:00	BASE	4.69	181	6.53	184	0.5	100	0.5	0	0	992.0	NA	0.0000	-SN BR	1100	360	0	0	0
2019/04/23 06:33:00	BASE	4.96	182	6.53	184	0.5	100	0.5	0	0	992.0	NA	0.0000	-SN BR	1100	390	0	0	0
2019/04/23 06:34:00	BASE	5.56	185	6.53	184	0.5	100	0.5	0	0	992.0	NA	0.0000	RA BR	1000	590	0	0	0
2019/04/23 06:35:00	BASE	6.02	185	6.53	184	0.5	100	0.5	0	0	992.0	NA	0.0000	RA BR	1200	390	0	0	0
2019/04/23 06:36:00	BASE	5.75	183	6.53	184	0.5	100	0.5	0	0	992.0	NA	0.2540	RA BR	1300	390	0	0	0
2019/04/23 06:37:01	BASE	5.48	180	6.53	184	0.5	100	0.5	0	0	992.0	NA	0.0000	RA BR	1300	560	0	0	0
2019/04/23 06:38:00	BASE	5.00	177	6.28	185	0.5	100	0.5	0	0	992.0	NA	0.0000	RA BR	1100	430	0	0	0
2019/04/23 06:39:01	BASE	4.37	169	6.28	185	0.5	100	0.5	0	0	992.0	NA	0.0000	RA BR	1100	520	0	0	0
2019/04/23 06:40:01	BASE	4.18	163	6.28	185	0.5	100	0.5	0	0	992.0	NA	0.0000	RA BR	1100	490	0	0	0
2019/04/23 06:41:01	BASE	4.29	164	6.28	185	0.5	100	0.5	0	0	992.0	NA	0.0000	RA BR	1200	590	0	0	0
2019/04/23 06:42:01	BASE	4.29	165	6.28	185	0.5	100	0.5	0	0	992.1	NA	0.0000	-RA BR	1400	460	1640	0	0
2019/04/23 06:43:01	BASE	4.17	167	6.28	185	0.5	100	0.5	0	0	992.1	NA	0.0000	-RA BR	1400	430	0	0	0
2019/04/23 06:44:01	BASE	4.11	169	6.28	185	0.5	100	0.5	0	0	992.0	NA	0.0000	-RA BR	1300	520	0	0	0
2019/04/23 06:45:01	BASE	4.23	171	6.07	180	0.5	100	0.5	0	0	992.1	NA	0.0000	-RA BR	1400	560	0	0	0
2019/04/23 06:46:01	BASE	4.41	174	5.81	179	0.6	100	0.6	0	0	992.1	NA	0.2540	-RA BR	1600	560	0	0	0
2019/04/23 06:47:01	BASE	4.37	179	5.14	178	0.6	100	0.6	0	0	992.1	NA	0.0000	-RA BR	1600	490	0	0	0
2019/04/23 06:48:01	BASE	4.25	183	4.78	177	0.6	100	0.6	0	0	992.1	NA	0.0000	-RA BR	1600	620	0	0	0
2019/04/23 06:49:00	BASE	4.48	186	4.89	180	0.6	100	0.6	0	0	992.1	NA	0.0000	-RA BR	1600	560	0	0	0
2019/04/23 06:50:00	BASE	4.70	188	4.99	196	0.6	100	0.6	0	0	992.1	NA	0.0000	-RA BR	1600	660	0	0	0
2019/04/23 06:51:00	BASE	4.59	189	5.04	185	0.6	100	0.6	0	0	992.1	NA	0.0000	-RA BR	1600	750	0	0	0
2019/04/23 06:52:00	BASE	4.91	187	6.17	186	0.6	100	0.6	0	0	992.1	NA	0.0000	-RA BR	1600	620	0	0	0
2019/04/23 06:53:01	BASE	4.85	180	6.17	186	0.6	100	0.6	0	0	992.2	NA	0.0000	BR	1600	620	0	0	0
2019/04/23 06:54:01	BASE	4.50	171	6.17	186	0.6	100	0.6	0	0	992.2	NA	0.0000	BR	1600	590	0	0	0
2019/04/23 06:55:00	BASE	5.18	163	6.17	186	0.6	100	0.6	0	0	992.1	NA	0.0000	BR	1500	490	1800	0	0
2019/04/23 06:56:00	BASE	5.77	158	6.64	155	0.5	100	0.5	0	0	992.1	NA	0.0000	BR	1400	690	0	0	0
2019/04/23 06:57:00	BASE	5.97	158	6.69	164	0.5	100	0.5	0	0	992.1	NA	0.0000	BR	1400	620	0	0	0
2019/04/23 06:58:00	BASE	6.12	156	6.69	164	0.5	100	0.5	0	0	992.1	NA	0.0000	BR	1500	1250	0	0	0
2019/04/23 06:59:00	BASE	6.17	152	6.69	154	0.4	100	0.4	0	0	992.2	NA	0.0000	BR	1500	1180	2200	0	0
2019/04/23 07:00:00	BASE	6.26	153	6.69	154	0.4	100	0.4	0	0	992.2	NA	0.0000	BR	1500	750	0	0	0
2019/04/23 07:01:00	BASE	6.13	154	6.69	154	0.4	100	0.4	0	0	992.2	NA	0.0000	BR	1500	2260	0	0	0
2019/04/23 07:02:00	BASE	5.84	153	6.69	154	0.3	100	0.3	0	0	992.2	NA	0.0000	BR	1500	1670	2560	0	0
2019/04/23 07:03:00	BASE	5.36	151	6.69	154	0.3	100	0.3	0	0	992.2	NA	0.0000	BR	1500	750	0	0	0
2019/04/23 07:04:00	BASE	4.58	148	6.69	154	0.3	100	0.3	0	0	992.2	NA	0.0000	BR	1500	690	0	0	0
2019/04/23 07:05:00	BASE	3.94	146	6.69	154	0.3	100	0.3	0	0	992.2	NA	0.0000	BR	1500	660	0	0	0
2019/04/23 07:06:00	BASE	3.71	145	6.69	154	0.3	100	0.3	0	0	992.2	NA	0.0000	BR	1500	690	0	0	0
2019/04/23 07:07:00	BASE	3.57	145	6.69	154	0.4	100	0.4	0	0	992.2	NA	0.0000	BR	1500	690	0	0	0
2019/04/23 07:08:00	BASE	3.35	143	6.69	154	0.4	100	0.4	0	0	992.2	NA	0.0000	BR	1400	2100	0	0	0
2019/04/23 07:09:01	BASE	3.45	144	6.38	155	0.4	100	0.4	0	0	992.3	NA	0.0000	BR	1400	1900	0	0	0
2019/04/23 07:10:01	BASE	4.13	147	6.33	154	0.4	100	0.4	0	0	992.3	NA	0.0000	BR	1400	2130	0	0	0
2019/04/23 07:11:01	BASE	4.13	143	6.02	149	0.4	100	0.4	0	0	992.3	NA	0.0000	BR	1400	690	0	0	0
2019/04/23 07:12:01	BASE	3.79	146	5.76	151	0.4	100	0.4	0	0	992.3	NA	0.0000	BR	1400	660	0	0	0
2019/04/23 07:13:00	BASE	4.04	152	5.56	146	0.4	100	0.4	0	0	992.3	NA	0.0000	BR	1400	590	0	0	0
2019/04/23 07:14:01	BASE	4.26	153	5.56	146	0.4	100	0.4	0	0	992.3	NA	0.0000	BR	1400	620	0	0	0
2019/04/23 07:15:01	BASE	4.42	156	5.56	146	0.4	100	0.4	0	0	992.3	NA	0.0000	BR	1400	560	0	0	0
2019/04/23 07:16:00	BASE	4.56	156	5.56	146	0.4	100	0.4	0	0	992.4	NA	0.0000	BR	1400	2920	0	0	0
2019/04/23 07:17:00	BASE	4.50	154	5.56	146	0.4	100	0.4	0	0	992.4	NA	0.0000	BR	1400	590	0	0	0
2019/04/23 07:18:00	BASE	4.20	153	5.56	146	0.4	100	0.4	0	0	992.4	NA	0.0000	BR	1400	0	0	0	2920
2019/04/23 07:19:00	BASE	4.09	152	5.56	146	0.3	100	0.3	0	0	992.4	NA	0.0000	BR	1400	620	0	0	0
2019/04/23 07:20:00	BASE	3.96	150	4.94	154	0.3	100	0.3	0	0	992.4	NA	0.0000	BR	1400	0	0	0	2560
2019/04/23 07:21:00	BASE	3.72	151	4.94	154	0.4	100	0.4	0	0	992.5	NA	0.0000	BR	1400	0	0	0	2690
2019/04/23 07:22:00	BASE	3.65	153	4.94	154	0.4	100	0.4	0	0	992.5	NA	0.0000	BR	1400	490	0	0	0
2019/04/23 07:23:00	BASE	3.70	154	4.94	154	0.4	100	0.4	0	0	992.5	NA	0.0000	BR	1400	460	0	0	0
2019/04/23 07:24:00	BASE	3.88	153	4.89	159	0.4	100	0.4	0	0	992.5	NA	0.0000	BR	1400	390	0	0	0
2019/04/23 07:25:00	BASE	4.02	155	4.89	159	0.3	100	0.3	0	0	992.5	NA	0.0000	BR	1300	0	0	0	2720
2019/04/23 07:26:00	BASE	4.13	155	4.58	151	0.3	100	0.3	0	0	992.5	NA	0.0000	-RA BR	1100	390	0	0	0
2019/04/23 07:27:00	BASE	4.25	153	4.58	151	0.3	100	0.3	0	0	992.4	NA	0.0000	-RA BR	1000	390	0	0	0
2019/04/23 07:28:00	BASE	4.20	153	4.58	151	0.3	100	0.3	0	0	992.4	NA	0.0000	-RA BR	1000	390	0	0	0
2019/04/23 07:29:01	BASE	3.94	151	4.53	152	0.3	100	0.3	0	0	992.5	NA	0.0000	-RA BR	1000	360	0	0	0
2019/04/23 07:30:00	BASE	3.52	147	4.53	152	0.3	100	0.3	0	0	992.5	NA	0.2540	-RA BR	1000	360	1350	0	0
2019/04/23 07:31:00	BASE	2.85	142	4.53	152	0.3	100	0.3	0	0	992.6	NA	0.0000	-RA BR	1000	360	1350	0	0
2019/04/23 07:32:00	BASE	2.40	139	4.53	152	0.3	100	0.3	0	0	992.6	NA	0.0000	-RA BR	1000	360	0	0	0
2019/04/23 07:33:00	BASE	2.28	138	4.53	152	0.3	100	0.3	0	0	992.6	NA	0.0000	-RA BR	1000	360	0	0	0
2019/04/23 07:34:00	BASE	2.24	139	4.53	152	0.4	100	0.4	0	0	992.6	NA	0.0000	-RA BR	1000	390	0	0	0
2019/04/23 07:35:00	BASE	2.15	140	4.53	152	0.4	100	0.4	0	0	992.6	NA	0.0000	-RA BR	1000	390	0	0	0
2019/04/23 07:36:00	BASE	2.15	143	4.53	152	0.4	100	0.4	0	0	992.7	NA	0.0000	BR	1000	360	0	0	0
2019/04/23 07:37:00	BASE	2.44	147	4.37	153	0.4	100	0.4	0	0	992.7	NA	0.0000	BR	1000	360	1610	0	0
2019/04/23 07:38:00	BASE	2.57	151	4.22	151	0.4	100	0.4	0	0	992.7	NA	0.0000	BR	1000	360	0	0	0
2019/04/23 07:39:00	BASE	2.45	156	3.81	154	0.4	100	0.4	0	0	992.7	NA	0.0000	BR	1000	360	0	0	0
2019/04/23 07:40:01	BASE	2.56	155	2.98	152	0.4	100	0.4	0	0	992.7	NA	0.0000	BR	1000	360	0	0	0
2019/04/23 07:41:00	BASE	2.75	154	2.98	155	0.4	100	0.4	0	0	992.7	NA	0.0000	BR	1000	360	0	0	0
2019/04/23 07:42:00	BASE	2.75	154	2.98	155	0.4	100	0.4	0	0	992.7	NA	0.0000	BR	1000	360	0	0	0
2019/04/23 07:43:00	BASE	2.66	154	2.98	155	0.4	100	0.4	0	0	992.7	NA	0.0000	BR	1000	360	0	0	0
2019/04/23 07:44:00	BASE	2.57	159	2.98	155	0.4	100	0.4	0	0	992.7	NA	0.0000	BR	1000	360	0	0	0
2019/04/23 07:45:00	BASE	2.49	166	2.98	155	0.4	100	0.4	0	0	992.8	NA	0.0000	BR	1000	360	0	0	0
2019/04/23 07:46:00	BASE	2.46	167	2.98	155	0.4	100	0.4	0	0	992.8	NA	0.0000	BR	1000	330	0	0	0
2019/04/23 07:47:00	BASE	2.40	162	2.98	155	0.3	100	0.3	0	0	992.8	NA	0.0000	BR	1000	330	0	0	0
2019/04/23 07:48:00	BASE	2.43	154	2.98	155	0.3	100	0.3	0	0	992.8	NA	0.0000	BR	1000	330	0	0	0
2019/04/23 07:49:01	BASE	2.54	145	3.04	143	0.3	100	0.3	0	0	992.8	NA	0.0000	BR	1000	330	0	0	0
2019/04/23 07:50:01	BASE	2.61	144	3.04	143	0.3	100	0.3	0	0	992.8	NA	0.0000	BR	1000	260	0	0	0
2019/04/23 07:51:01	BASE	2.97	144	3.55	140	0.3	100	0.3	0	0	992.8	NA	0.0000	BR	1000	260	0	0	0
2019/04/23 07:52:01	BASE	3.35	146	3.70	151	0.3	100	0.3	0	0	992.8	NA	0.0000	BR	1000	200	0	0	0
2019/04/23 07:53:01	BASE	3.33	153	3.70	151	0.3	100	0.3	0	0	992.8	NA	0.0000	BR	1000	200	0	0	0
2019/04/23 07:54:01	BASE	3.08	153	3.70	151	0.2	100	0.2	0	0	992.8	NA	0.0000	BR	1000	200	0	0	0
2019/04/23 07:55:01	BASE	2.83	148	3.70	151	0.2	100	0.2	0	0	992.9	NA	0.0000	BR	1000	200	0	0	0
2019/04/23 07:56:00	BASE	2.62	150	3.70	151	0.2	100	0.2	0	0	992.9	NA	0.0000	BR	1000	200	0	0	0
2019/04/23 07:57:00	BASE	2.53	149	3.70	151	0.2	100	0.2	0	0	992.9	NA	0.0000	BR	1000	200	0	0	0
2019/04/23 07:58:00	BASE	2.43	137	3.70	151	0.1	100	0.1	0	0	992.8	NA	0.0000	BR	1000	230	0	0	0
2019/04/23 07:59:00	BASE	2.09	131	3.70	151	0.1	100	0.1	0	0	992.9	NA	0.0000	BR	1000	260	0	0	0
2019/04/23 08:00:00	BASE	2.08	136	3.70	151	0.1	100	0.1	0	0	992.9	NA	0.0000	BR	1000	260	0	0	0
2019/04/23 08:01:00	BASE	1.93	136	3.70	151	0.1	100	0.1	0	0	992.9	NA	0.0000	BR	1000	230	0	0	0
2019/04/23 08:02:01	BASE	1.61	135	3.50	151	0.1	100	0.1	0	0	992.9	NA	0.0000	BR	1000	260	0	0	0
2019/04/23 08:03:00	BASE	1.50	136	3.50	151	0.1	100	0.1	0	0	992.9	NA	0.0000	BR	1000	300	0	0	0
2019/04/23 08:04:00	BASE	1.13	137	3.14	143	0.1	100	0.1	0	0	992.9	NA	0.0000	BR	1000	300	0	0	0
2019/04/23 08:05:00	BASE	0.98	144	3.09	149	0.1	100	0.1	0	0	992.9	NA	0.0000	BR	1000	260	0	0	0
2019/04/23 08:06:00	BASE	0.54	147	3.09	149	0.1	100	0.1	0	0	992.9	NA	0.0000	BR	1000	230	0	0	0
2019/04/23 08:07:00	BASE	0.00	152	2.88	142	0.2	100	0.2	0	0	992.9	NA	0.0000	BR	1200	230	0	0	0
2019/04/23 08:08:00	BASE	0.46	166	2.88	142	0.2	100	0.2	0	0	992.9	NA	0.0000	BR	1400	230	0	0	0
2019/04/23 08:09:00	BASE	1.25	162	2.88	142	0.2	100	0.2	0	0	992.9	NA	0.0000	BR	1400	200	0	0	0
2019/04/23 08:10:00	BASE	1.64	151	2.11	133	0.2	100	0.2	0	0	992.9	NA	0.0000	-RA BR	1400	200	0	0	0
2019/04/23 08:11:00	BASE	1.67	145	2.11	133	0.2	100	0.2	0	0	992.9	NA	0.0000	-RA BR	1500	230	0	0	0
2019/04/23 08:12:00	BASE	1.15	135	1.95	153	0.2	100	0.2	0	0	992.9	NA	0.0000	-RA BR	1500	260	0	0	0
2019/04/23 08:13:00	BASE	0.84	132	1.95	153	0.2	100	0.2	0	0	992.9	NA	0.0000	-RA BR	1500	260	0	0	0
2019/04/23 08:14:00	BASE	0.68	129	1.95	153	0.2	100	0.2	0	0	992.9	NA	0.0000	-RA BR	1700	200	0	0	0
2019/04/23 08:15:00	BASE	0.31	130	1.95	153	0.2	100	0.2	0	0	992.9	NA	0.0000	-SN BR	2000	0	0	0	790
2019/04/23 08:16:00	BASE	0.70	126	1.95	153	0.3	100	0.3	0	0	992.9	NA	0.0000	-SN BR	2200	0	0	0	790
2019/04/23 08:17:00	BASE	1.29	123	2.01	127	0.3	100	0.3	0	0	992.9	NA	0.0000	-SN BR	2500	0	0	0	790
2019/04/23 08:18:00	BASE	1.53	125	2.01	127	0.3	100	0.3	0	0	992.9	NA	0.0000	-SN BR	2700	0	0	0	750
2019/04/23 08:19:00	BASE	1.53	125	2.01	127	0.3	100	0.3	0	0	992.9	NA	0.0000	-SN BR	2900	0	0	0	790
2019/04/23 08:20:00	BASE	1.44	125	2.01	127	0.3	100	0.3	0	0	992.9	NA	0.0000	-SN BR	3300	0	0	0	790
2019/04/23 08:21:00	BASE	1.45	114	2.01	127	0.3	100	0.3	0	0	992.9	NA	0.0000	-SN BR	3600	0	0	0	790
2019/04/23 08:22:00	BASE	1.30	111	2.01	127	0.3	100	0.3	0	0	992.9	NA	0.0000	-SN BR	4200	0	0	0	750
2019/04/23 08:23:00	BASE	0.62	115	2.01	127	0.3	100	0.3	0	0	992.9	NA	0.0000	-SN BR	4800	0	0	0	790
2019/04/23 08:24:00	BASE	0.04	116	2.01	127	0.3	100	0.3	0	0	993.0	NA	0.0000	-SN BR	5000	0	0	0	820
2019/04/23 08:25:00	BASE	0.00	116	2.01	127	0.3	100	0.3	0	0	993.0	NA	0.0000	-SN BR	5000	200	0	0	0
2019/04/23 08:26:00	BASE	0.00	116	2.01	127	0.3	100	0.3	0	0	993.0	NA	0.0000	-SN BR	4100	0	0	0	790
2019/04/23 08:27:00	BASE	0.00	110	1.85	124	0.3	100	0.3	0	0	993.0	NA	0.0000	-SN BR	3900	230	0	0	0
2019/04/23 08:28:00	BASE	0.00	93	1.70	131	0.3	100	0.3	0	0	993.0	NA	0.0000	-SN BR	4800	260	0	0	0
2019/04/23 08:29:01	BASE	0.00	76	1.54	107	0.3	100	0.3	0	0	993.0	NA	0.0000	-SN BR	4700	300	0	0	0
2019/04/23 08:30:01	BASE	0.00	64	1.54	107	0.3	100	0.3	0	0	993.0	NA	0.0000	-SN BR	5000	260	0	0	0
2019/04/23 08:31:01	BASE	0.00	47	1.39	107	0.3	100	0.3	0	0	993.2	NA	0.2540	-SN BR	6000	260	0	0	0
2019/04/23 08:32:01	BASE	0.00	34	1.03	116	0.3	100	0.3	0	0	993.2	NA	0.0000	-SN BR	7000	230	0	0	0
2019/04/23 08:33:01	BASE	0.00	51	M	M	0.3	100	0.3	0	0	993.2	NA	0.0000	-SN BR	8000	200	0	0	0
2019/04/23 08:34:01	BASE	0.00	130	M	M	0.3	100	0.3	0	0	993.2	NA	0.0000	-SN BR	7000	230	0	0	0
2019/04/23 08:35:01	BASE	0.00	161	M	M	0.3	100	0.3	0	0	993.2	NA	0.0000	-SN BR	7000	230	0	0	0
2019/04/23 08:36:00	BASE	0.00	157	M	M	0.4	100	0.4	0	0	993.2	NA	0.0000	-SN BR	9999	230	0	0	0
2019/04/23 08:37:00	BASE	0.00	156	M	M	0.4	100	0.4	0	0	993.2	NA	0.0000	-SN BR	9999	200	0	0	0
2019/04/23 08:38:00	BASE	0.00	158	M	M	0.4	100	0.4	0	0	993.2	NA	0.0000	-SN BR	9000	200	0	0	0
2019/04/23 08:39:00	BASE	0.00	154	M	M	0.3	100	0.3	0	0	993.2	NA	0.0000	-SN BR	8000	160	0	0	0
2019/04/23 08:40:00	BASE	0.38	146	1.29	142	0.3	100	0.3	0	0	993.2	NA	0.0000	-SN BR	8000	160	0	0	0
2019/04/23 08:41:00	BASE	0.66	139	1.29	142	0.3	100	0.3	0	0	993.2	NA	0.0000	-SN BR	9000	160	0	0	0
2019/04/23 08:42:00	BASE	0.28	126	1.29	142	0.2	100	0.2	0	0	993.2	NA	0.0000	-SN BR	9999	200	0	0	0
2019/04/23 08:43:00	BASE	0.00	112	1.29	142	0.2	100	0.2	0	0	993.2	NA	0.0000	-SN BR	9999	230	0	0	0
2019/04/23 08:44:00	BASE	0.09	101	1.29	142	0.2	100	0.2	0	0	993.2	NA	0.0000	-SN BR	9999	230	0	0	0
2019/04/23 08:45:00	BASE	0.67	101	1.29	111	0.2	100	0.2	0	0	993.2	NA	0.0000	-SN	9999	230	0	0	0
2019/04/23 08:46:00	BASE	1.11	106	1.29	106	0.2	100	0.2	0	0	993.2	NA	0.0000	-SN	9999	230	1770	0	0
2019/04/23 08:47:00	BASE	1.29	112	1.85	127	0.2	100	0.2	0	0	993.2	NA	0.0000	-SN	9999	260	1770	0	0
2019/04/23 08:48:00	BASE	1.76	123	2.26	127	0.2	100	0.2	0	0	993.2	NA	0.0000	-SN	9999	230	1770	0	0
2019/04/23 08:49:00	BASE	1.93	129	2.26	127	0.2	100	0.2	0	0	993.2	NA	0.0000	-SN	9000	230	1840	0	0
2019/04/23 08:50:00	BASE	1.86	131	2.26	127	0.2	100	0.2	0	0	993.2	NA	0.0000	-SN	7000	260	1840	0	0
2019/04/23 08:51:00	BASE	1.73	138	2.26	127	0.2	100	0.2	0	0	993.2	NA	0.0000	-SN	6000	260	1380	0	0
2019/04/23 08:52:00	BASE	1.58	144	2.26	127	0.2	100	0.2	0	0	993.3	NA	0.0000	-SN BR	5000	260	850	0	0
2019/04/23 08:53:00	BASE	1.41	134	2.26	127	0.2	100	0.2	0	0	993.3	NA	0.0000	-SN BR	6000	260	720	0	0
2019/04/23 08:54:00	BASE	1.52	118	2.26	127	0.2	100	0.2	0	0	993.3	NA	0.0000	-SN BR	6000	300	0	0	0
2019/04/23 08:55:00	BASE	1.17	104	2.26	127	0.2	100	0.2	0	0	993.3	NA	0.0000	-SN BR	7000	300	0	0	0
2019/04/23 08:56:00	BASE	0.44	98	2.26	127	0.2	100	0.2	0	0	993.3	NA	0.0000	-SN BR	8000	300	0	0	0
2019/04/23 08:57:00	BASE	1.07	105	2.26	127	0.2	100	0.2	0	0	993.3	NA	0.0000	-SN BR	9000	260	1310	0	0
2019/04/23 08:58:00	BASE	2.23	113	2.78	112	0.2	100	0.2	0	0	993.2	NA	0.0000	-SN BR	9999	300	0	0	0
2019/04/23 08:59:00	BASE	2.71	117	2.93	120	0.2	100	0.2	0	0	993.3	NA	0.0000	-SN BR	9999	300	1410	0	0
2019/04/23 09:00:00	BASE	2.62	123	2.93	120	0.2	100	0.2	0	0	993.3	NA	0.0000	-SN BR	9999	330	1380	0	0
2019/04/23 09:01:00	BASE	2.25	129	2.93	120	0.2	100	0.2	0	0	993.3	NA	0.0000	-SN BR	9999	360	1410	0	0
2019/04/23 09:02:00	BASE	1.73	132	2.93	120	0.2	100	0.2	0	0	993.2	NA	0.0000	-SN BR	9999	390	1280	0	0
2019/04/23 09:03:00	BASE	0.98	119	2.93	120	0.3	100	0.3	0	0	993.2	NA	0.0000	-SN BR	9999	330	1280	0	0
2019/04/23 09:04:00	BASE	0.28	93	2.93	120	0.3	100	0.3	0	0	993.2	NA	0.0000	-SN	9999	300	0	0	0
2019/04/23 09:05:00	BASE	0.00	85	2.93	120	0.3	100	0.3	0	0	993.2	NA	0.0000	-SN	9999	300	1280	0	0
2019/04/23 09:06:00	BASE	0.04	101	2.93	120	0.3	100	0.3	0	0	993.2	NA	0.0000	-SN	9999	260	1150	0	0
2019/04/23 09:07:00	BASE	0.04	137	2.93	120	0.3	100	0.3	0	0	993.3	NA	0.0000	-SN	9999	360	0	0	0
2019/04/23 09:08:00	BASE	0.00	162	2.93	120	0.3	100	0.3	0	0	993.3	NA	0.0000	-SN	9999	360	0	0	0
2019/04/23 09:09:00	BASE	0.00	166	2.62	127	0.3	100	0.3	0	0	993.3	NA	0.0000		9999	1280	0	0	0
2019/04/23 09:10:00	BASE	0.00	179	2.31	127	0.3	100	0.3	0	0	993.3	NA	0.0000		9999	1280	0	0	0
2019/04/23 09:11:00	BASE	0.00	200	1.59	132	0.3	100	0.3	0	0	993.4	NA	0.0000		9999	920	0	0	0
2019/04/23 09:12:00	BASE	0.00	199	1.18	132	0.3	100	0.3	0	0	993.3	NA	0.0000		9999	620	0	0	0
2019/04/23 09:13:00	BASE	0.00	186	1.03	134	0.2	100	0.2	0	0	993.3	NA	0.0000		9999	430	1150	0	0
2019/04/23 09:14:00	BASE	0.00	184	1.03	134	0.2	100	0.2	0	0	993.3	NA	0.0000		9999	330	1120	0	0
2019/04/23 09:15:00	BASE	0.00	184	1.03	134	0.2	100	0.2	0	0	993.3	NA	0.0000		9999	300	1020	0	0
2019/04/23 09:16:00	BASE	0.00	174	M	M	0.2	100	0.2	0	0	993.3	NA	0.0000		9999	1120	0	0	0
2019/04/23 09:17:00	BASE	0.00	167	M	M	0.2	100	0.2	0	0	993.3	NA	0.0000		9999	1080	0	0	0
2019/04/23 09:18:00	BASE	0.00	171	M	M	0.2	100	0.2	0	0	993.3	NA	0.0000		9999	720	0	0	0
2019/04/23 09:19:00	BASE	0.00	184	M	M	0.2	100	0.2	0	0	993.4	NA	0.0000		9999	750	0	0	0
2019/04/23 09:20:00	BASE	0.27	198	1.08	197	0.2	100	0.2	0	0	993.4	NA	0.0000		9999	1020	0	0	0
2019/04/23 09:21:00	BASE	0.27	201	1.08	197	0.2	100	0.2	0	0	993.4	NA	0.0000		9999	1080	0	0	0
2019/04/23 09:22:00	BASE	0.00	209	1.08	197	0.2	100	0.2	0	0	993.5	NA	0.0000		9999	1050	0	0	0
2019/04/23 09:23:00	BASE	0.05	247	1.08	316	0.2	100	0.2	0	0	993.5	NA	0.0000		9999	430	0	0	0
2019/04/23 09:24:00	BASE	0.10	267	1.39	248	0.2	100	0.2	0	0	993.5	NA	0.0000		9999	390	0	0	0
2019/04/23 09:25:00	BASE	0.06	288	1.39	248	0.2	100	0.2	0	0	993.5	NA	0.0000		9999	360	0	0	0
2019/04/23 09:26:00	BASE	0.00	286	1.39	248	0.2	100	0.2	0	0	993.5	NA	0.0000		9999	360	0	0	0
2019/04/23 09:27:00	BASE	0.00	265	1.39	248	0.2	100	0.2	0	0	993.6	NA	0.0000		9999	360	0	0	0
2019/04/23 09:28:00	BASE	0.31	288	1.85	300	0.2	100	0.2	0	0	993.6	NA	0.0000		9999	360	0	0	0
2019/04/23 09:29:00	BASE	0.37	313	1.85	300	0.2	100	0.2	0	0	993.6	NA	0.0000		9999	360	0	0	0
2019/04/23 09:30:00	BASE	0.05	329	1.85	300	0.2	100	0.2	0	0	993.6	NA	0.0000		9999	360	0	0	0
2019/04/23 09:31:00	BASE	0.05	297	1.85	300	0.3	100	0.3	0	0	993.6	NA	0.0000		9999	330	1050	0	0
2019/04/23 09:32:00	BASE	0.05	237	1.85	300	0.3	100	0.3	0	0	993.5	NA	0.0000		9999	330	0	0	0
2019/04/23 09:33:00	BASE	0.00	241	1.85	300	0.3	100	0.3	0	0	993.5	NA	0.0000		9999	330	0	0	0
2019/04/23 09:34:00	BASE	0.00	229	1.85	300	0.3	100	0.3	0	0	993.5	NA	0.0000		9999	300	0	0	0
2019/04/23 09:35:00	BASE	0.00	183	1.85	300	0.3	100	0.3	0	0	993.6	NA	0.0000		9999	330	0	0	0
2019/04/23 09:36:00	BASE	0.00	177	1.85	300	0.3	100	0.3	0	0	993.6	NA	0.0000	UP	9999	360	0	0	0
2019/04/23 09:37:00	BASE	0.00	176	1.85	300	0.3	100	0.3	0	0	993.6	NA	0.0000	UP	9999	360	0	0	0
2019/04/23 09:38:00	BASE	0.00	160	1.18	306	0.2	100	0.2	0	0	993.6	NA	0.0000	UP	9999	360	0	0	0
2019/04/23 09:39:00	BASE	0.00	180	1.13	214	0.2	100	0.2	0	0	993.6	NA	0.0000	UP	9999	330	0	0	0
2019/04/23 09:40:00	BASE	0.00	155	1.13	214	0.2	100	0.2	0	0	993.6	NA	0.0000	UP	9999	330	0	0	0
2019/04/23 09:41:00	BASE	0.55	328	2.47	280	0.2	100	0.2	0	0	993.6	NA	0.0000	UP	9999	330	0	0	0
2019/04/23 09:42:00	BASE	0.59	306	2.47	280	0.3	100	0.3	0	0	993.6	NA	0.0000	UP	9999	330	0	0	0
2019/04/23 09:43:00	BASE	0.75	316	2.47	280	0.3	100	0.3	0	0	993.6	NA	0.0000	UP	9999	330	0	0	0
2019/04/23 09:44:00	BASE	1.29	288	2.47	280	0.3	100	0.3	0	0	993.6	NA	0.0000		9999	330	0	0	0
2019/04/23 09:45:00	BASE	1.31	263	2.47	280	0.3	100	0.3	0	0	993.6	NA	0.0000		9999	330	0	0	0
2019/04/23 09:46:00	BASE	1.57	264	2.47	280	0.3	100	0.3	0	0	993.7	NA	0.0000		9999	330	0	0	0
2019/04/23 09:47:00	BASE	1.81	285	2.88	319	0.3	100	0.3	0	0	993.7	NA	0.0000		9999	330	0	0	0
2019/04/23 09:48:00	BASE	2.24	296	3.91	298	0.3	100	0.3	0	0	993.7	NA	0.0000		9999	330	0	0	0
2019/04/23 09:49:00	BASE	2.99	304	4.22	313	0.3	100	0.3	0	0	993.7	NA	0.0000		9999	330	0	0	0
2019/04/23 09:50:00	BASE	4.13	315	6.02	312	0.3	100	0.3	0	0	993.7	NA	0.0000		9999	330	0	0	0
2019/04/23 09:51:00	BASE	5.61	318	6.84	319	0.3	100	0.3	0	0	993.6	NA	0.0000		9999	330	0	0	0
2019/04/23 09:52:00	BASE	6.44	320	6.84	321	0.3	100	0.3	0	0	993.6	NA	0.0000	UP	9999	330	0	0	0
2019/04/23 09:53:00	BASE	6.62	323	7.92	321	0.3	100	0.3	0	0	993.6	NA	0.0000	UP	9999	300	0	0	0
2019/04/23 09:54:00	BASE	6.89	318	8.28	319	0.4	100	0.4	0	0	993.6	NA	0.0000	UP	9999	330	0	0	0
2019/04/23 09:55:00	BASE	6.37	306	8.28	319	0.4	100	0.4	0	0	993.6	NA	0.0000	UP	9999	300	0	0	0
2019/04/23 09:56:00	BASE	5.64	303	8.28	319	0.4	100	0.4	0	0	993.6	NA	0.0000	UP	9999	330	0	0	0
2019/04/23 09:57:00	BASE	4.69	305	8.28	319	0.4	100	0.4	0	0	993.6	NA	0.0000	UP	9999	300	0	0	0
2019/04/23 09:58:00	BASE	3.71	291	8.28	319	0.4	100	0.4	0	0	993.6	NA	0.0000	UP	9999	300	0	0	0
2019/04/23 09:59:00	BASE	3.94	273	8.28	319	0.4	100	0.4	0	0	993.6	NA	0.0000	UP	9999	260	0	0	0
2019/04/23 10:00:00	BASE	4.02	265	8.28	319	0.4	100	0.4	0	0	993.6	NA	0.0000	UP	9999	260	0	0	0
2019/04/23 10:01:00	BASE	3.49	259	8.28	319	0.3	100	0.3	0	0	993.5	NA	0.0000	UP	9999	260	950	0	0
2019/04/23 10:02:00	BASE	3.46	268	8.28	319	0.3	100	0.3	0	0	993.5	NA	0.0000	UP	8000	0	0	0	1150
2019/04/23 10:03:00	BASE	3.84	288	8.28	319	0.3	100	0.3	0	0	993.5	NA	0.0000	UP	7000	260	0	0	0
2019/04/23 10:04:00	BASE	4.04	299	6.33	311	0.3	100	0.3	0	0	993.5	NA	0.0000	UP	8000	300	0	0	0
2019/04/23 10:05:00	BASE	4.04	300	6.33	311	0.3	100	0.3	0	0	993.5	NA	0.0000	UP	9999	330	0	0	0
2019/04/23 10:06:00	BASE	4.27	303	5.20	298	0.3	100	0.3	0	0	993.5	NA	0.0000	UP	9999	330	0	0	0
2019/04/23 10:07:00	BASE	4.73	313	5.45	327	0.3	100	0.3	0	0	993.5	NA	0.0000	UP	9999	330	0	0	0
2019/04/23 10:08:00	BASE	5.12	320	5.71	322	0.2	100	0.2	0	0	993.5	NA	0.0000	UP	9999	330	0	0	0
2019/04/23 10:09:00	BASE	5.43	319	5.86	313	0.2	100	0.2	0	0	993.5	NA	0.0000	UP	9999	300	1180	0	0
2019/04/23 10:10:00	BASE	5.48	317	5.86	313	0.2	100	0.2	0	0	993.5	NA	0.0000	UP	9999	330	1180	0	0
2019/04/23 10:11:00	BASE	5.61	313	6.07	310	0.1	100	0.1	0	0	993.5	NA	0.0000	UP	9999	360	0	0	0
2019/04/23 10:12:00	BASE	5.82	307	6.17	301	0.1	100	0.1	0	0	993.5	NA	0.0000	UP	9999	360	0	0	0
2019/04/23 10:13:00	BASE	6.22	305	6.94	308	0.1	100	0.1	0	0	993.5	NA	0.0000	UP	9999	360	0	0	0
2019/04/23 10:14:00	BASE	6.69	305	7.05	304	0.1	100	0.1	0	0	993.4	NA	0.0000	UP	9999	330	1150	0	0
2019/04/23 10:15:00	BASE	7.06	303	7.87	302	0.0	100	0.0	0	0	993.4	NA	0.0000		9999	360	1120	0	0
2019/04/23 10:16:00	BASE	7.60	302	8.49	304	0.0	100	0.0	0	0	993.4	NA	0.0000		9999	360	0	0	0
2019/04/23 10:17:00	BASE	8.19	303	9.11	304	0.0	100	0.0	0	0	993.4	NA	0.0000		9999	360	0	0	0
2019/04/23 10:18:00	BASE	8.81	305	9.93	308	0.0	100	0.0	0	0	993.4	NA	0.0000		9999	360	0	0	0
2019/04/23 10:19:00	BASE	9.12	308	10.44	315	0.0	100	0.0	0	0	993.4	NA	0.0000		9999	430	0	0	0
2019/04/23 10:20:00	BASE	9.68	308	10.91	307	0.0	100	0.0	0	0	993.4	NA	0.0000		9999	430	0	0	0
2019/04/23 10:21:00	BASE	10.29	305	11.11	308	0.0	100	0.0	0	0	993.4	NA	0.0000		9999	590	0	0	0
2019/04/23 10:22:00	BASE	9.68	303	11.11	308	0.0	100	0.0	0	0	993.4	NA	0.0000		9999	330	0	0	0
2019/04/23 10:23:00	BASE	8.88	300	11.11	308	0.0	100	0.0	0	0	993.4	NA	0.0000		9999	230	950	0	0
2019/04/23 10:24:00	BASE	8.45	295	11.11	308	-0.0	100	-0.0	0	0	993.4	NA	0.0000		9999	230	850	0	0
2019/04/23 10:25:00	BASE	8.35	292	11.11	308	-0.1	100	-0.1	0	0	993.4	NA	0.0000		9999	230	0	0	0
2019/04/23 10:26:00	BASE	8.56	290	11.11	308	-0.1	100	-0.1	0	0	993.4	NA	0.0000		9999	360	0	0	0
2019/04/23 10:27:00	BASE	8.43	287	11.11	308	-0.1	100	-0.1	0	0	993.4	NA	0.0000		9999	260	950	0	0
2019/04/23 10:28:00	BASE	8.05	289	11.11	308	-0.1	100	-0.1	0	0	993.5	NA	0.0000		9999	260	1050	0	0
2019/04/23 10:29:00	BASE	7.48	289	11.11	308	-0.1	100	-0.1	0	0	993.5	NA	0.0000		9999	200	0	0	0
2019/04/23 10:30:00	BASE	7.52	287	11.11	308	-0.1	100	-0.1	0	0	993.5	NA	0.0000		9999	300	0	0	0
2019/04/23 10:31:00	BASE	7.91	288	10.03	308	-0.1	100	-0.1	0	0	993.5	NA	0.0000		9999	230	0	0	0
2019/04/23 10:32:00	BASE	7.89	288	9.41	284	-0.1	100	-0.1	0	0	993.5	NA	0.0000		9999	0	0	0	1250
2019/04/23 10:33:00	BASE	7.94	290	9.41	284	-0.1	100	-0.1	0	0	993.5	NA	0.0000		9999	0	0	0	1120
2019/04/23 10:34:00	BASE	7.98	291	9.41	284	-0.1	100	-0.1	0	0	993.5	NA	0.0000		9999	0	0	0	1150
2019/04/23 10:35:00	BASE	7.86	291	8.95	286	-0.1	100	-0.1	0	0	993.6	NA	0.0000		9999	260	0	0	0
2019/04/23 10:36:00	BASE	8.31	292	9.98	288	-0.1	100	-0.1	0	0	993.6	NA	0.0000		9999	0	0	0	1150
2019/04/23 10:37:00	BASE	8.84	291	9.98	288	-0.1	100	-0.1	0	0	993.6	NA	0.0000		9999	0	0	0	1250
2019/04/23 10:38:00	BASE	8.56	290	9.98	288	-0.1	100	-0.1	0	0	993.6	NA	0.0000		9999	0	0	0	1380
2019/04/23 10:39:00	BASE	8.34	290	9.98	288	-0.1	100	-0.1	0	0	993.6	NA	0.0000		9999	0	0	0	1510
2019/04/23 10:40:00	BASE	8.46	289	9.98	288	-0.1	100	-0.1	0	0	993.6	NA	0.0000		9999	0	0	0	1350
2019/04/23 10:41:00	BASE	8.36	290	9.98	288	-0.2	100	-0.2	0	0	993.7	NA	0.0000		9999	0	0	0	1080
2019/04/23 10:42:00	BASE	7.96	292	9.98	288	-0.2	100	-0.2	0	0	993.7	NA	0.0000		9999	0	0	0	1310
2019/04/23 10:43:00	BASE	7.74	292	9.98	288	-0.2	100	-0.2	0	0	993.7	NA	0.0000		9999	0	0	0	690
2019/04/23 10:44:00	BASE	7.74	291	9.98	288	-0.2	100	-0.2	0	0	993.7	NA	0.0000		9999	0	0	0	1150
2019/04/23 10:45:00	BASE	7.83	291	9.98	288	-0.2	100	-0.2	0	0	993.7	NA	0.0000		9999	0	0	0	1120
2019/04/23 10:46:00	BASE	7.83	293	9.52	287	-0.2	100	-0.2	0	0	993.7	NA	0.0000		9999	0	0	0	1280
2019/04/23 10:47:00	BASE	7.10	297	9.52	287	-0.2	100	-0.2	0	0	993.7	NA	0.0000		9999	0	0	0	1210
2019/04/23 10:48:00	BASE	6.72	297	9.36	287	-0.2	100	-0.2	0	0	993.7	NA	0.0000		9999	0	0	0	1150
2019/04/23 10:49:00	BASE	7.19	294	9.36	287	-0.2	100	-0.2	0	0	993.6	NA	0.0000		9999	0	0	0	1150
2019/04/23 10:50:00	BASE	7.35	296	9.05	289	-0.2	100	-0.2	0	0	993.6	NA	0.0000		9999	0	0	0	1180
2019/04/23 10:51:00	BASE	6.86	299	8.64	290	-0.2	100	-0.2	0	0	993.6	NA	0.0000		9999	0	0	0	1210
2019/04/23 10:52:00	BASE	6.39	299	8.64	290	-0.2	100	-0.2	0	0	993.6	NA	0.0000		9999	0	0	0	1280
2019/04/23 10:53:00	BASE	6.45	300	8.64	290	-0.3	100	-0.3	0	0	993.6	NA	0.0000		9999	0	0	0	1180
2019/04/23 10:54:00	BASE	6.62	301	8.64	290	-0.3	100	-0.3	0	0	993.6	NA	0.0000		9999	0	0	0	1050
2019/04/23 10:55:00	BASE	6.57	300	8.18	295	-0.3	100	-0.3	0	0	993.6	NA	0.0000		9999	0	0	0	1120
2019/04/23 10:56:00	BASE	6.28	300	8.08	298	-0.3	100	-0.3	0	0	993.6	NA	0.0000		9999	200	0	0	0
2019/04/23 10:57:00	BASE	5.74	299	8.08	298	-0.3	100	-0.3	0	0	993.6	NA	0.0000		9999	260	0	0	0
2019/04/23 10:58:00	BASE	5.32	300	8.08	298	-0.3	100	-0.3	0	0	993.7	NA	0.0000		9999	230	0	0	0
2019/04/23 10:59:00	BASE	5.06	300	8.08	298	-0.3	100	-0.3	0	0	993.7	NA	0.0000		9999	260	0	0	0
2019/04/23 11:00:00	BASE	4.59	300	7.41	306	-0.3	100	-0.3	0	0	993.7	NA	0.0000		9999	260	0	0	0
2019/04/23 11:01:00	BASE	4.56	303	7.41	306	-0.3	100	-0.3	0	0	993.8	NA	0.0000		9999	230	0	0	0
2019/04/23 11:02:00	BASE	4.53	303	7.41	306	-0.3	100	-0.3	0	0	993.9	NA	0.0000		9999	230	0	0	0
2019/04/23 11:03:00	BASE	4.39	305	7.31	294	-0.3	100	-0.3	0	0	993.9	NA	0.0000		9999	230	0	0	0
2019/04/23 11:04:00	BASE	4.45	309	6.89	300	-0.3	100	-0.3	0	0	993.9	NA	0.0000		9999	160	0	0	0
2019/04/23 11:05:00	BASE	4.16	312	6.53	298	-0.3	100	-0.3	0	0	993.9	NA	0.0000		9999	0	0	0	1150
2019/04/23 11:06:00	BASE	3.73	316	5.92	294	-0.3	100	-0.3	0	0	994.0	NA	0.0000		5000	0	0	0	1210
2019/04/23 11:07:00	BASE	3.48	318	5.71	302	-0.3	100	-0.3	0	0	994.0	NA	0.0000		3600	0	0	0	1120
2019/04/23 11:08:00	BASE	3.28	316	5.30	299	-0.3	100	-0.3	0	0	993.9	NA	0.0000	BR	3400	0	0	0	1080
2019/04/23 11:09:00	BASE	2.91	315	5.20	305	-0.3	100	-0.3	0	0	993.9	NA	0.0000	BR	3100	0	0	0	1050
2019/04/23 11:10:00	BASE	2.53	320	5.20	305	-0.3	100	-0.3	0	0	993.9	NA	0.0000	BR	2800	0	0	0	980
2019/04/23 11:11:00	BASE	2.36	321	5.04	309	-0.3	100	-0.3	0	0	993.9	NA	0.0000	BR	2800	0	0	0	950
2019/04/23 11:12:00	BASE	2.38	318	5.04	309	-0.3	100	-0.3	0	0	993.9	NA	0.0000	BR	2700	0	0	0	890
2019/04/23 11:13:00	BASE	2.16	317	4.78	310	-0.3	100	-0.3	0	0	993.9	NA	0.0000	BR	2400	0	0	0	890
2019/04/23 11:14:00	BASE	1.74	320	4.12	316	-0.3	100	-0.3	0	0	993.9	NA	0.0000	BR	2200	0	0	0	750
2019/04/23 11:15:00	BASE	1.91	317	3.81	320	-0.3	100	-0.3	0	0	993.9	NA	0.0000	BR	2100	0	0	0	850
2019/04/23 11:16:00	BASE	2.16	318	3.81	320	-0.3	100	-0.3	0	0	993.9	NA	0.0000	BR	2000	0	0	0	620
2019/04/23 11:17:01	BASE	2.13	314	3.76	316	-0.3	100	-0.3	0	0	993.9	NA	0.0000	BR	2000	0	0	0	660
2019/04/23 11:18:01	BASE	2.08	306	2.88	312	-0.3	100	-0.3	0	0	993.9	NA	0.0000	BR	1900	0	0	0	560
2019/04/23 11:19:01	BASE	1.84	312	2.88	312	-0.3	100	-0.3	0	0	993.9	NA	0.0000	BR	1700	0	0	0	620
2019/04/23 11:20:01	BASE	1.77	314	2.88	312	-0.3	100	-0.3	0	0	994.0	NA	0.0000	BR	1600	0	0	0	590
2019/04/23 11:21:01	BASE	1.92	311	2.88	312	-0.4	100	-0.4	0	0	994.0	NA	0.0000	BR	1600	0	0	0	520
2019/04/23 11:22:01	BASE	1.88	305	2.78	304	-0.4	100	-0.4	0	0	994.0	NA	0.0000	BR	1700	0	0	0	560
2019/04/23 11:23:01	BASE	1.70	301	2.78	304	-0.4	100	-0.4	0	0	994.0	NA	0.0000	BR	1600	0	0	0	560
2019/04/23 11:24:01	BASE	1.48	304	2.78	304	-0.4	100	-0.4	0	0	994.0	NA	0.0000	BR	1600	0	0	0	590
2019/04/23 11:25:01	BASE	1.36	309	2.78	304	-0.4	100	-0.4	0	0	994.0	NA	0.0000	BR	1700	0	0	0	520
2019/04/23 11:26:00	BASE	1.38	306	2.31	307	-0.4	100	-0.4	0	0	994.1	NA	0.0000	BR	1600	0	0	0	560
2019/04/23 11:27:00	BASE	1.46	302	2.26	307	-0.4	100	-0.4	0	0	994.1	NA	0.0000	BR	1600	0	0	0	560
2019/04/23 11:28:00	BASE	1.70	304	2.16	307	-0.4	100	-0.4	0	0	994.1	NA	0.0000	BR	1700	0	0	0	560
2019/04/23 11:29:00	BASE	2.00	302	2.31	296	-0.4	100	-0.4	0	0	994.1	NA	0.0000	BR	2000	0	0	0	560
2019/04/23 11:30:00	BASE	2.28	300	2.62	299	-0.4	100	-0.4	0	0	994.1	NA	0.0000	BR	2900	0	0	0	660
2019/04/23 11:31:00	BASE	2.30	301	2.62	299	-0.4	100	-0.4	0	0	994.1	NA	0.0000	BR	3400	0	0	0	720
2019/04/23 11:32:00	BASE	2.18	301	2.62	299	-0.4	100	-0.4	0	0	994.1	NA	0.0000	BR	3600	0	0	0	790
2019/04/23 11:33:01	BASE	2.11	300	2.62	299	-0.4	100	-0.4	0	0	994.1	NA	0.0000	BR	3900	0	0	0	980
2019/04/23 11:34:00	BASE	2.06	302	2.62	299	-0.4	100	-0.4	0	0	994.1	NA	0.0000	BR	3600	0	0	0	980
2019/04/23 11:35:00	BASE	2.08	304	2.62	299	-0.4	100	-0.4	0	0	994.1	NA	0.0000	BR	3700	0	0	0	560
2019/04/23 11:36:00	BASE	1.94	302	2.62	299	-0.4	100	-0.4	0	0	994.1	NA	0.0000	BR	3800	0	0	0	520
2019/04/23 11:37:00	BASE	1.82	299	2.62	299	-0.4	100	-0.4	0	0	994.1	NA	0.0000	BR	4700	0	0	0	520
2019/04/23 11:38:00	BASE	1.77	299	2.62	299	-0.4	100	-0.4	0	0	994.1	NA	0.0000	BR	5000	0	0	0	460
2019/04/23 11:39:00	BASE	1.89	302	2.62	299	-0.4	100	-0.4	0	0	994.1	NA	0.0000	BR	4500	0	0	0	460
2019/04/23 11:40:00	BASE	2.19	311	2.78	319	-0.4	100	-0.4	0	0	994.1	NA	0.0000	BR	3600	0	0	0	430
2019/04/23 11:41:00	BASE	2.55	314	3.24	310	-0.4	100	-0.4	0	0	994.2	NA	0.0000	BR	2900	0	0	0	430
2019/04/23 11:42:00	BASE	3.19	311	3.96	312	-0.4	100	-0.4	1	0	994.2	NA	0.0000	BR	2300	0	0	0	430
2019/04/23 11:43:00	BASE	3.54	308	3.96	312	-0.4	100	-0.4	1	0	994.2	NA	0.0000	BR	2200	0	0	0	460
2019/04/23 11:44:00	BASE	3.69	305	4.32	299	-0.4	100	-0.4	1	0	994.2	NA	0.0000	BR	2200	0	0	0	460
2019/04/23 11:45:00	BASE	3.92	305	4.42	308	-0.4	100	-0.4	1	0	994.2	NA	0.0000	BR	2300	0	0	0	460
2019/04/23 11:46:00	BASE	4.28	308	4.63	310	-0.4	100	-0.4	1	0	994.3	NA	0.0000	BR	2800	0	0	0	490
2019/04/23 11:47:00	BASE	4.50	307	4.73	308	-0.4	100	-0.4	1	0	994.3	NA	0.0000	BR	3700	0	0	0	1050
2019/04/23 11:48:00	BASE	4.65	306	5.04	306	-0.4	100	-0.4	1	0	994.3	NA	0.0000	BR	3300	0	0	0	490
2019/04/23 11:49:00	BASE	5.04	305	5.61	306	-0.5	100	-0.5	1	0	994.2	NA	0.0000	BR	5000	0	0	0	460
2019/04/23 11:50:00	BASE	5.23	308	5.66	312	-0.5	100	-0.5	1	0	994.2	NA	0.0000	BR	4300	0	0	0	430
2019/04/23 11:51:00	BASE	5.57	310	6.33	309	-0.5	100	-0.5	1	0	994.2	NA	0.0000	BR	1800	0	0	0	690
2019/04/23 11:52:00	BASE	6.19	310	7.05	310	-0.5	100	-0.5	1	0	994.2	NA	0.0000	BR	1500	0	0	0	560
2019/04/23 11:53:00	BASE	6.73	311	7.51	311	-0.5	100	-0.5	2	0	994.2	NA	0.0000	BR	2200	0	0	0	520
2019/04/23 11:54:00	BASE	7.32	310	8.18	307	-0.5	100	-0.5	2	0	994.2	NA	0.0000	BR	4400	0	0	0	620
2019/04/23 11:55:00	BASE	7.43	311	8.18	307	-0.5	100	-0.5	2	0	994.2	NA	0.0000	BR	5000	0	0	0	790
2019/04/23 11:56:00	BASE	7.26	312	8.18	307	-0.5	100	-0.5	2	0	994.3	NA	0.0000	BR	3900	0	0	0	1280
2019/04/23 11:57:00	BASE	7.62	313	8.75	309	-0.5	100	-0.5	2	0	994.3	NA	0.0000	BR	4400	0	0	0	1250
2019/04/23 11:58:00	BASE	8.45	313	9.31	312	-0.5	100	-0.5	3	0	994.2	NA	0.0000	BR	8000	0	0	0	1210
2019/04/23 11:59:00	BASE	9.10	311	9.88	308	-0.5	100	-0.5	3	0	994.2	NA	0.0000	BR	7000	0	0	0	1310
2019/04/23 12:00:00	BASE	9.28	311	9.88	308	-0.5	100	-0.5	3	0	994.2	NA	0.0000	BR	8000	300	1210	0	0
2019/04/23 12:01:00	BASE	9.23	311	9.88	308	-0.5	100	-0.5	3	0	994.2	NA	0.0000	BR	9999	360	0	0	0
2019/04/23 12:02:00	BASE	9.38	311	10.08	314	-0.5	100	-0.5	3	0	994.2	NA	0.0000	BR	9999	330	0	0	0
2019/04/23 12:03:00	BASE	9.60	311	10.34	310	-0.5	100	-0.5	3	0	994.2	NA	0.0000	BR	9999	300	0	0	0
2019/04/23 12:04:00	BASE	9.38	312	10.34	310	-0.5	100	-0.5	4	0	994.2	NA	0.0000	BR	9999	0	0	0	1440
2019/04/23 12:05:00	BASE	9.21	311	10.34	310	-0.5	100	-0.5	4	0	994.2	NA	0.0000	BR	9999	260	1180	0	0
2019/04/23 12:06:00	BASE	9.08	311	10.34	310	-0.5	100	-0.5	4	0	994.1	NA	0.0000	BR	9999	0	0	0	1610
2019/04/23 12:07:00	BASE	8.62	313	10.34	310	-0.5	100	-0.5	4	0	994.1	NA	0.0000		9999	0	0	0	1800
2019/04/23 12:08:00	BASE	8.57	315	10.34	310	-0.5	100	-0.5	4	0	994.1	NA	0.0000		9999	0	0	0	1940
2019/04/23 12:09:00	BASE	8.83	315	10.34	310	-0.5	100	-0.5	4	0	994.1	NA	0.0000		9999	0	0	0	1870
2019/04/23 12:10:00	BASE	8.97	316	10.34	310	-0.6	100	-0.6	5	0	994.0	NA	0.0000		9999	0	0	0	1380
2019/04/23 12:11:00	BASE	8.99	316	10.34	310	-0.6	100	-0.6	4	0	993.9	NA	0.0000		9999	200	1120	0	0
2019/04/23 12:12:00	BASE	9.17	315	10.34	310	-0.6	100	-0.6	4	0	994.0	NA	0.0000		9999	0	0	0	1180
2019/04/23 12:13:00	BASE	9.67	314	10.70	312	-0.6	100	-0.6	5	0	994.0	NA	0.0000		9999	0	0	0	1280
2019/04/23 12:14:00	BASE	10.08	312	10.70	312	-0.6	100	-0.6	5	0	994.0	NA	0.0000		9999	0	0	0	1250
2019/04/23 12:15:00	BASE	10.31	312	10.75	313	-0.6	100	-0.6	5	0	993.9	NA	0.0000		9999	0	0	0	1180
2019/04/23 12:16:00	BASE	10.31	312	10.96	313	-0.6	100	-0.6	5	0	993.9	NA	0.0000		9999	0	0	0	1280
2019/04/23 12:17:00	BASE	10.41	313	10.96	313	-0.6	100	-0.6	5	0	993.9	NA	0.0000		9999	0	0	0	1180
2019/04/23 12:18:00	BASE	10.21	314	10.96	313	-0.6	100	-0.6	5	0	993.8	NA	0.0000		9999	0	0	0	1210
2019/04/23 12:19:00	BASE	9.47	314	10.96	313	-0.6	100	-0.6	5	0	993.8	NA	0.0000		6000	0	0	0	1150
2019/04/23 12:20:00	BASE	9.05	315	10.96	313	-0.6	100	-0.6	6	0	993.8	NA	0.0000		4500	0	0	0	1080
2019/04/23 12:21:00	BASE	8.70	317	10.96	313	-0.6	100	-0.6	6	0	993.8	NA	0.0000	BR	5000	0	0	0	1180
2019/04/23 12:22:00	BASE	8.17	317	10.96	313	-0.7	100	-0.7	6	0	993.8	NA	0.0000	BR	8000	0	0	0	1080
2019/04/23 12:23:00	BASE	8.15	316	10.96	313	-0.7	100	-0.7	6	0	993.7	NA	0.0000	BR	6000	0	0	0	1080
2019/04/23 12:24:00	BASE	8.39	315	10.96	313	-0.7	100	-0.7	6	0	993.7	NA	0.0000	BR	4200	0	0	0	1050
2019/04/23 12:25:00	BASE	8.36	316	10.96	313	-0.7	100	-0.7	6	0	993.7	NA	0.0000	BR	3400	0	0	0	1020
2019/04/23 12:26:00	BASE	8.36	316	10.80	310	-0.7	100	-0.7	6	0	993.7	NA	0.0000	BR	3200	0	0	0	980
2019/04/23 12:27:00	BASE	8.39	316	10.44	316	-0.7	100	-0.7	6	0	993.6	NA	0.0000	BR	3400	0	0	0	980
2019/04/23 12:28:00	BASE	8.09	316	9.88	314	-0.7	100	-0.7	6	0	993.6	NA	0.0000	BR	3600	0	0	0	1020
2019/04/23 12:29:00	BASE	7.97	314	9.52	321	-0.7	100	-0.7	7	0	993.7	NA	0.0000	BR	4000	0	0	0	1020
2019/04/23 12:30:00	BASE	7.68	314	9.41	314	-0.8	100	-0.8	7	0	993.7	NA	0.0000	BR	4900	0	0	0	980
2019/04/23 12:31:00	BASE	7.06	314	9.41	314	-0.8	100	-0.8	7	0	993.7	NA	0.0000	BR	3700	0	0	0	920
2019/04/23 12:32:00	BASE	6.87	315	9.41	314	-0.8	100	-0.8	7	0	993.7	NA	0.0000	BR	3000	0	0	0	980
2019/04/23 12:33:00	BASE	6.53	318	9.41	314	-0.8	100	-0.8	7	0	993.7	NA	0.0000	BR	2600	0	0	0	920
2019/04/23 12:34:00	BASE	6.13	323	9.41	314	-0.8	100	-0.8	8	0	993.7	NA	0.0000	BR	2200	0	0	0	980
2019/04/23 12:35:00	BASE	5.97	325	9.41	314	-0.8	100	-0.8	8	0	993.7	NA	0.0000	BR	2800	0	0	0	980
2019/04/23 12:36:00	BASE	5.76	324	9.21	315	-0.8	100	-0.8	8	0	993.7	NA	0.0000	BR	4800	0	0	0	980
2019/04/23 12:37:00	BASE	5.26	325	8.75	313	-0.8	100	-0.8	9	0	993.7	NA	0.0000	BR	7000	0	0	0	950
2019/04/23 12:38:00	BASE	4.51	325	8.75	313	-0.8	100	-0.8	10	0	993.7	NA	0.0000	BR	7000	0	0	0	950
2019/04/23 12:39:00	BASE	3.94	328	7.97	311	-0.9	100	-0.9	11	0	993.7	NA	0.0000	BR	7000	0	0	0	920
2019/04/23 12:40:00	BASE	3.80	328	7.25	318	-0.9	100	-0.9	12	0	993.7	NA	0.0000	BR	6000	0	0	0	890
2019/04/23 12:41:00	BASE	3.89	326	7.25	318	-0.9	100	-0.9	13	0	993.7	NA	0.0000	BR	5000	0	0	0	890
2019/04/23 12:42:00	BASE	3.68	325	6.79	321	-0.9	100	-0.9	15	0	993.7	NA	0.0000	BR	4000	0	0	0	890
2019/04/23 12:43:00	BASE	3.49	322	6.38	325	-0.9	100	-0.9	16	0	993.7	NA	0.0000	BR	3100	0	0	0	850
2019/04/23 12:44:00	BASE	3.49	321	6.12	327	-0.9	100	-0.9	17	0	993.7	NA	0.0000	BR	2000	0	0	0	920
2019/04/23 12:45:00	BASE	3.48	314	6.12	327	-0.9	100	-0.9	17	0	993.7	NA	0.0000	BR	1300	0	0	0	590
2019/04/23 12:46:00	BASE	3.73	306	5.14	327	-0.9	100	-0.9	19	0	993.7	NA	0.0000	BR	1100	0	0	0	620
2019/04/23 12:47:00	BASE	3.83	308	4.78	322	-0.9	100	-0.9	19	0	993.7	NA	0.0000	BR	1100	0	0	0	660
2019/04/23 12:48:00	BASE	3.78	307	4.53	304	-0.9	100	-0.9	20	0	993.7	NA	0.0000	BR	1000	0	0	0	620
2019/04/23 12:49:00	BASE	3.84	308	4.53	304	-0.9	100	-0.9	21	0	993.8	NA	0.0000	BR	1000	0	0	0	850
2019/04/23 12:50:00	BASE	3.70	309	4.53	304	-0.9	100	-0.9	21	0	993.9	NA	0.0000	BR	0900	0	0	0	720
2019/04/23 12:51:00	BASE	3.37	304	4.53	304	-0.9	100	-0.9	21	0	993.8	NA	0.0000	BR	0900	0	0	0	590
2019/04/23 12:52:00	BASE	3.13	300	4.53	304	-0.9	100	-0.9	22	0	993.8	NA	0.0000	BR	0900	0	0	0	690
2019/04/23 12:53:00	BASE	2.92	305	4.53	304	-0.9	100	-0.9	24	0	993.8	NA	0.0000	BR	0900	0	0	0	820
2019/04/23 12:54:00	BASE	2.67	309	4.53	304	-0.9	100	-0.9	23	0	993.9	NA	0.0000	BR	1100	0	0	0	790
2019/04/23 12:55:00	BASE	2.58	307	4.37	313	-0.9	100	-0.9	21	0	993.9	NA	0.0000	BR	1100	0	0	0	620
2019/04/23 12:56:00	BASE	2.53	305	4.12	305	-0.9	100	-0.9	19	0	994.0	NA	0.0000	BR	1200	0	0	0	560
2019/04/23 12:57:00	BASE	2.53	301	4.12	305	-0.9	100	-0.9	18	0	994.0	NA	0.0000	BR	1200	0	0	0	520
2019/04/23 12:58:00	BASE	2.22	304	3.96	307	-0.9	100	-0.9	18	0	994.0	NA	0.0000	BR	1100	0	0	0	560
2019/04/23 12:59:00	BASE	2.25	312	3.76	304	-0.9	100	-0.9	19	0	994.0	NA	0.0000	BR	1000	0	0	0	660
2019/04/23 13:00:00	BASE	2.77	306	3.60	305	-0.9	100	-0.9	20	0	994.0	NA	0.0000	BR	1000	0	0	0	590
2019/04/23 13:01:00	BASE	2.98	294	3.65	286	-0.9	100	-0.9	23	0	994.0	NA	0.0000	BR	1700	0	0	0	850
2019/04/23 13:02:00	BASE	3.43	291	4.01	295	-0.9	100	-0.9	25	0	994.0	NA	0.0000	BR	3100	0	0	0	790
2019/04/23 13:03:00	BASE	3.66	295	4.01	295	-0.9	100	-0.9	26	0	994.1	NA	0.0000	BR	2800	0	0	0	790
2019/04/23 13:04:00	BASE	3.31	297	4.01	295	-1.0	100	-1.0	27	0	994.1	NA	0.0000	BR	2000	0	0	0	790
2019/04/23 13:05:00	BASE	2.91	300	4.01	295	-1.0	100	-1.0	29	0	994.1	NA	0.0000	BR	1400	0	0	0	750
2019/04/23 13:06:00	BASE	2.72	303	4.01	295	-1.1	100	-1.1	31	0	994.1	NA	0.0000	BR	1300	0	0	0	850
2019/04/23 13:07:00	BASE	2.88	302	4.01	295	-1.1	100	-1.1	32	0	994.1	NA	0.0000	BR	1400	0	0	0	850
2019/04/23 13:08:00	BASE	2.85	302	4.01	295	-1.1	100	-1.1	34	0	994.1	NA	0.0000	BR	1400	0	0	0	850
2019/04/23 13:09:00	BASE	2.61	301	4.01	295	-1.1	100	-1.1	34	0	994.1	NA	0.0000	BR	1400	0	0	0	750
2019/04/23 13:10:00	BASE	2.52	299	4.01	295	-1.1	100	-1.1	35	0	994.2	NA	0.0000	BR	1300	0	0	0	660
2019/04/23 13:11:00	BASE	2.64	298	4.01	295	-1.1	100	-1.1	33	0	994.2	NA	0.0000	BR	1600	0	0	0	590
2019/04/23 13:12:00	BASE	3.11	293	4.12	288	-1.1	100	-1.1	28	0	994.2	NA	0.0000	BR	1800	0	0	0	620
2019/04/23 13:13:00	BASE	3.29	285	4.12	288	-1.0	100	-1.0	22	0	994.3	NA	0.0000	BR	1500	0	0	0	660
2019/04/23 13:14:00	BASE	2.97	281	4.12	288	-1.0	100	-1.0	20	0	994.3	NA	0.0000	BR	1000	0	0	0	560
2019/04/23 13:15:00	BASE	3.10	281	4.12	288	-1.0	100	-1.0	19	0	994.3	NA	0.0000	BR	0900	0	0	0	660
2019/04/23 13:16:00	BASE	3.07	281	4.12	288	-1.0	100	-1.0	19	0	994.2	NA	0.0000	BR	1300	0	0	0	720
2019/04/23 13:17:00	BASE	2.78	283	4.12	288	-1.0	100	-1.0	19	0	994.2	NA	0.0000	BR	1500	0	0	0	620
2019/04/23 13:18:00	BASE	2.51	289	4.12	288	-1.1	100	-1.1	19	0	994.2	NA	0.0000	BR	1300	0	0	0	560
2019/04/23 13:19:00	BASE	2.34	293	4.12	288	-1.1	100	-1.1	19	0	994.2	NA	0.0000	BR	1100	0	0	0	560
2019/04/23 13:20:00	BASE	2.57	286	4.12	288	-1.1	100	-1.1	20	0	994.2	NA	0.0000	BR	1000	0	0	0	560
2019/04/23 13:21:00	BASE	2.88	283	4.12	288	-1.1	100	-1.1	20	0	994.2	NA	0.0000	BR	1000	0	0	0	520
2019/04/23 13:22:00	BASE	3.15	288	4.37	291	-1.1	100	-1.1	21	0	994.2	NA	0.0000	BR	0900	0	0	0	520
2019/04/23 13:23:00	BASE	3.73	292	4.84	301	-1.1	100	-1.1	24	0	994.2	NA	0.0000	BR	1100	0	0	0	590
2019/04/23 13:24:00	BASE	3.78	294	4.84	301	-1.1	100	-1.1	28	0	994.2	NA	0.0000	BR	1700	0	0	0	660
2019/04/23 13:25:00	BASE	2.96	293	4.84	301	-1.1	100	-1.1	33	0	994.1	NA	0.0000	BR	1400	0	0	0	620
2019/04/23 13:26:00	BASE	2.47	303	4.84	301	-1.1	100	-1.1	39	0	994.1	NA	0.0000	BR	1000	0	0	0	490
2019/04/23 13:27:00	BASE	2.83	309	4.84	301	-1.1	100	-1.1	42	0	994.1	NA	0.0000	BR	1000	0	0	0	490
2019/04/23 13:28:00	BASE	3.78	301	4.84	301	-1.1	100	-1.1	41	0	994.1	NA	0.0000	BR	1600	0	0	0	750
2019/04/23 13:29:00	BASE	4.62	295	5.20	296	-1.1	100	-1.1	33	0	994.1	NA	0.0000	BR	3400	0	0	0	820
2019/04/23 13:30:00	BASE	4.95	299	5.50	303	-1.1	100	-1.1	21	0	994.1	NA	0.0000	BR	6000	300	0	0	0
2019/04/23 13:31:00	BASE	4.60	303	5.50	303	-1.2	100	-1.2	18	0	994.1	NA	0.0000	BR	3300	0	0	0	690
2019/04/23 13:32:00	BASE	4.00	301	5.50	303	-1.2	100	-1.2	17	0	994.2	NA	0.0000	BR	1500	0	0	0	750
2019/04/23 13:33:00	BASE	3.62	300	5.50	303	-1.2	100	-1.2	18	0	994.2	NA	0.0000	BR	1100	0	0	0	690
2019/04/23 13:34:00	BASE	3.48	301	5.50	303	-1.2	100	-1.2	30	0	994.1	NA	0.0000	BR	1000	0	0	0	690
2019/04/23 13:35:00	BASE	3.24	303	5.50	303	-1.2	100	-1.2	37	0	994.1	NA	0.0000	BR	0900	0	0	0	620
2019/04/23 13:36:00	BASE	2.93	307	5.50	303	-1.2	100	-1.2	37	0	994.1	NA	0.0000	BR	0800	0	0	0	590
2019/04/23 13:37:00	BASE	2.93	306	5.50	303	-1.2	100	-1.2	40	0	994.2	NA	0.0000	BR	0800	0	0	0	690
2019/04/23 13:38:00	BASE	2.89	305	5.50	303	-1.2	100	-1.2	44	0	994.2	NA	0.0000	BR	0800	0	0	0	720
2019/04/23 13:39:00	BASE	2.81	306	5.50	303	-1.2	100	-1.2	45	0	994.2	NA	0.0000	BR	0800	0	0	0	690
2019/04/23 13:40:00	BASE	2.92	304	4.68	302	-1.2	100	-1.2	47	0	994.2	NA	0.0000	BR	0750	0	0	0	750
2019/04/23 13:41:00	BASE	3.20	304	4.01	298	-1.2	100	-1.2	48	0	994.2	NA	0.0000	BR	0800	560	0	0	0
2019/04/23 13:42:00	BASE	3.28	303	3.76	305	-1.2	100	-1.2	49	0	994.2	NA	0.0000	BR	1000	0	0	0	750
2019/04/23 13:43:00	BASE	3.21	303	3.91	301	-1.2	100	-1.2	48	0	994.2	NA	0.0000	BR	1200	0	0	0	790
2019/04/23 13:44:00	BASE	3.51	302	3.91	304	-1.2	100	-1.2	49	0	994.3	NA	0.0000	BR	1600	460	0	0	0
2019/04/23 13:45:00	BASE	3.77	299	3.91	297	-1.2	100	-1.2	50	0	994.3	NA	0.0000	BR	1800	0	0	0	920
2019/04/23 13:46:00	BASE	3.55	299	3.91	297	-1.2	100	-1.2	49	0	994.4	NA	0.0000	BR	1300	0	0	0	850
2019/04/23 13:47:00	BASE	3.05	300	3.91	297	-1.2	100	-1.2	49	0	994.3	NA	0.0000	BR	1000	0	0	0	850
2019/04/23 13:48:00	BASE	2.86	301	3.91	297	-1.2	100	-1.2	51	0	994.3	NA	0.0000	BR	0900	0	0	0	790
2019/04/23 13:49:00	BASE	2.92	303	3.91	297	-1.2	100	-1.2	50	0	994.3	NA	0.0000	BR	1000	0	0	0	790
2019/04/23 13:50:00	BASE	2.71	308	3.91	297	-1.2	100	-1.2	49	0	994.3	NA	0.0000	BR	1200	0	0	0	660
2019/04/23 13:51:00	BASE	2.42	309	3.91	297	-1.2	100	-1.2	49	0	994.3	NA	0.0000	BR	1500	0	0	0	690
2019/04/23 13:52:00	BASE	2.26	310	3.91	297	-1.2	100	-1.2	52	0	994.4	NA	0.0000	BR	2800	230	0	0	0
2019/04/23 13:53:00	BASE	2.02	314	3.91	297	-1.2	100	-1.2	54	0	994.4	NA	0.0000	BR	8000	160	0	0	0
2019/04/23 13:54:00	BASE	1.80	316	3.91	297	-1.2	100	-1.2	53	0	994.4	NA	0.0000	BR	9999	0	0	0	560
2019/04/23 13:55:00	BASE	1.84	320	3.60	297	-1.2	100	-1.2	49	0	994.4	NA	0.0000	BR	9999	0	0	0	590
2019/04/23 13:56:00	BASE	2.10	321	3.19	302	-1.2	100	-1.2	49	0	994.4	NA	0.0000	BR	9999	0	0	0	590
2019/04/23 13:57:00	BASE	2.56	320	3.45	314	-1.1	100	-1.1	51	0	994.4	NA	0.0000	BR	9999	160	0	0	0
2019/04/23 13:58:00	BASE	3.13	316	3.81	306	-1.1	100	-1.1	49	0	994.4	NA	0.0000	BR	9999	200	0	0	0
2019/04/23 14:06:00	BASE	M	M	3.81	320	-1.1	100	-1.1	49	0	M	NA	0.0000	BR	9999	200	0	0	0
2019/04/23 14:06:11	BASE	M	M	3.81	320	-1.1	100	-1.1	M	M	M	NA	0.0000	BR	M	M	M	M	M
2019/04/23 14:06:18	BASE	M	M	M	M	-1.1	100	-1.1	M	M	M	NA	0.0000	BR	M	M	M	M	M
2019/04/23 14:06:38	BASE	M	M	M	M	-1.1	100	-1.1	M	M	M	NA	0.0000		M	M	M	M	M
2019/04/23 14:06:45	BASE	M	M	M	M	-1.1	100	-1.1	M	M	M	NA	0.0000		M	M	M	M	M
2019/04/23 14:06:52	BASE	M	M	M	M	-1.1	100	-1.1	M	M	M	NA	0.0000		M	M	M	M	M
2019/04/23 14:06:56	BASE	M	M	M	M	-1.1	100	-1.1	M	M	M	NA	0.0000		M	M	M	M	M
2019/04/23 14:06:59	BASE	M	M	M	M	-1.1	100	-1.1	M	M	M	NA	0.0000		M	M	M	M	M
2019/04/23 14:07:07	BASE	M	M	M	M	-1.1	100	-1.1	M	M	M	NA	0.0000		M	M	M	M	M
2019/04/23 14:08:00	BASE	M	M	M	M	-1.1	100	-1.1	M	M	M	NA	0.0000		M	M	M	M	M
2019/04/23 14:09:00	BASE	M	M	M	M	-1.1	100	-1.1	M	M	M	NA	0.0000		M	M	M	M	M
2019/04/23 14:10:00	BASE	M	M	M	M	-1.1	100	-1.1	M	M	M	NA	0.0000		M	M	M	M	M
2019/04/23 14:11:00	BASE	M	M	M	M	-1.1	100	-1.1	M	M	M	NA	0.0000		M	M	M	M	M
2019/04/23 14:12:00	BASE	M	M	M	M	-1.1	100	-1.1	M	M	M	NA	0.0000		M	M	M	M	M
2019/04/23 14:13:00	BASE	M	M	M	M	-1.1	100	-1.1	47	0	994.2	NA	0.0000		9999	200	0	0	0
2019/04/23 14:14:00	BASE	0.73	291	M	M	-1.1	100	-1.1	49	0	994.2	NA	0.0000		9999	200	0	0	0
2019/04/23 14:15:00	BASE	0.97	291	M	M	M	M	M	52	0	994.2	NA	0.0000		9999	200	0	0	0
2019/04/23 14:16:00	BASE	1.35	297	M	M	-1.1	100	-1.1	54	0	994.3	NA	0.0000		9999	200	0	0	0
2019/04/23 14:17:00	BASE	1.48	295	M	M	-1.1	100	-1.1	53	0	994.2	NA	0.0000		9999	160	0	0	0
2019/04/23 14:18:00	BASE	1.12	283	M	M	-1.1	100	-1.1	52	0	994.2	NA	0.0000		9999	0	0	0	560
2019/04/23 14:19:00	BASE	0.53	270	M	M	-1.1	100	-1.1	51	0	994.2	NA	0.0000		9999	0	0	0	590
2019/04/23 14:20:00	BASE	0.20	259	1.85	276	-1.1	100	-1.1	49	0	994.2	NA	0.0000		9000	0	0	0	560
2019/04/23 14:21:00	BASE	0.09	245	1.85	276	-1.1	100	-1.1	48	0	994.2	NA	0.0000		7000	0	0	0	490
2019/04/23 14:22:00	BASE	0.69	233	1.85	276	-1.1	100	-1.1	49	0	994.2	NA	0.0000		6000	0	0	0	490
2019/04/23 14:23:00	BASE	1.31	215	1.85	276	-1.1	100	-1.1	50	0	994.2	NA	0.0000	BR	5000	0	0	0	520
2019/04/23 14:24:00	BASE	0.90	168	1.85	276	-1.1	100	-1.1	49	0	994.3	NA	0.0000	BR	4800	0	0	0	520
2019/04/23 14:25:00	BASE	0.24	165	1.85	276	-1.1	100	-1.1	45	0	994.4	NA	0.0000	BR	4100	0	0	0	560
2019/04/23 14:26:00	BASE	0.10	230	1.85	276	-1.1	100	-1.1	43	0	994.4	NA	0.0000	BR	4700	0	0	0	620
2019/04/23 14:27:00	BASE	0.84	237	1.65	245	-1.1	100	-1.1	44	0	994.4	NA	0.0000	BR	8000	0	0	0	720
2019/04/23 14:28:00	BASE	1.62	231	2.37	235	-1.1	100	-1.1	44	0	994.4	NA	0.0000	BR	9999	200	0	0	0
2019/04/23 14:29:00	BASE	1.12	236	2.37	235	-1.1	100	-1.1	42	0	994.5	NA	0.0000	BR	9999	230	0	0	0
2019/04/23 14:30:00	BASE	0.25	244	2.37	235	-1.1	100	-1.1	38	0	994.5	NA	0.0000	BR	9999	230	0	0	0
2019/04/23 14:31:00	BASE	0.00	224	2.37	235	-1.1	100	-1.1	39	0	994.5	NA	0.0000	BR	9999	230	0	0	0
2019/04/23 14:32:00	BASE	0.00	173	2.37	235	-1.1	100	-1.1	41	0	994.5	NA	0.0000	BR	9999	200	0	0	0
2019/04/23 14:33:00	BASE	0.00	122	2.37	235	-1.1	100	-1.1	42	0	994.5	NA	0.0000	BR	9999	0	0	0	690
2019/04/23 14:34:00	BASE	0.14	99	2.37	235	-1.1	100	-1.1	43	0	994.5	NA	0.0000	BR	9999	0	0	0	660
2019/04/23 14:35:00	BASE	0.33	94	2.37	235	-1.1	100	-1.1	48	0	994.5	NA	0.0000		9999	0	0	0	660
2019/04/23 14:36:00	BASE	1.18	84	2.52	75	-1.2	100	-1.2	51	0	994.5	NA	0.0000		9999	230	0	0	0
2019/04/23 14:37:00	BASE	1.99	80	2.52	78	-1.2	100	-1.2	55	0	994.5	NA	0.0000		9999	260	0	0	0
2019/04/23 14:38:00	BASE	1.92	76	2.52	78	-1.2	100	-1.2	61	0	994.5	NA	0.0000		9999	230	0	0	0
2019/04/23 14:39:00	BASE	2.02	77	2.68	69	-1.2	100	-1.2	57	0	994.5	NA	0.0000		9999	230	0	0	0
2019/04/23 14:40:00	BASE	2.34	82	2.68	84	-1.2	100	-1.2	51	0	994.5	NA	0.0000		8000	200	0	0	0
2019/04/23 14:41:00	BASE	2.33	84	2.68	84	-1.2	100	-1.2	52	0	994.5	NA	0.0000		9000	200	0	0	0
2019/04/23 14:42:00	BASE	2.50	82	3.09	76	-1.3	100	-1.3	58	0	994.5	NA	0.0000		9000	230	0	0	0
2019/04/23 14:43:00	BASE	2.97	77	3.19	66	-1.3	100	-1.3	62	0	994.5	NA	0.0000		8000	230	0	0	0
2019/04/23 14:44:00	BASE	2.90	76	3.19	66	-1.3	100	-1.3	61	0	994.5	NA	0.0000		9999	200	0	0	0
2019/04/23 14:45:00	BASE	2.60	79	3.19	66	-1.3	100	-1.3	60	0	994.4	NA	0.0000		9999	200	0	0	0
2019/04/23 14:46:00	BASE	2.60	81	3.19	66	-1.3	100	-1.3	63	0	994.4	NA	0.0000		9999	0	0	0	590
2019/04/23 14:47:00	BASE	2.51	79	3.19	66	-1.2	100	-1.2	65	0	994.4	NA	0.0000		9999	200	0	0	0
2019/04/23 14:48:00	BASE	2.20	75	3.19	66	-1.2	100	-1.2	65	0	994.4	NA	0.0000		9999	0	0	0	590
2019/04/23 14:49:00	BASE	1.77	70	3.19	66	-1.2	100	-1.2	65	0	994.5	NA	0.0000		8000	0	0	0	560
2019/04/23 14:50:00	BASE	1.53	67	3.19	66	-1.2	100	-1.2	63	0	994.5	NA	0.0000	BR	8000	0	0	0	560
2019/04/23 14:51:00	BASE	1.70	66	3.19	66	-1.3	100	-1.3	58	0	994.5	NA	0.0000		9000	0	0	0	520
2019/04/23 14:52:00	BASE	1.85	62	3.19	66	-1.3	100	-1.3	55	0	994.5	NA	0.0000		9999	0	0	0	520
2019/04/23 14:53:00	BASE	2.00	63	2.93	84	-1.3	100	-1.3	62	0	994.4	NA	0.0000		9999	0	0	0	520
2019/04/23 14:54:00	BASE	2.11	65	2.88	84	-1.3	100	-1.3	75	0	994.4	NA	0.0000		9999	0	0	0	520
2019/04/23 14:55:00	BASE	2.51	59	3.70	59	-1.3	100	-1.3	87	0	994.3	NA	0.0000		9999	0	0	0	490
2019/04/23 14:56:00	BASE	2.92	55	3.70	59	-1.3	100	-1.3	102	0	994.3	NA	0.0000		9999	0	0	0	460
2019/04/23 14:57:00	BASE	3.02	56	3.70	59	-1.3	100	-1.3	95	0	994.3	NA	0.0000		9999	0	0	0	430
2019/04/23 14:58:00	BASE	3.25	59	3.86	61	-1.3	100	-1.3	87	0	994.2	NA	0.0000		9999	0	0	0	460
2019/04/23 14:59:00	BASE	3.56	62	4.53	64	-1.3	100	-1.3	84	0	994.2	NA	0.0000		5000	0	0	0	460
2019/04/23 15:00:00	BASE	3.69	64	4.53	64	-1.3	100	-1.3	83	0	994.2	NA	0.0000	BR	1400	0	0	0	460
2019/04/23 15:01:00	BASE	3.67	65	4.53	64	-1.4	100	-1.4	83	0	994.2	NA	0.0000	BR	0900	0	0	0	390
2019/04/23 15:02:00	BASE	3.70	68	4.53	64	-1.4	100	-1.4	83	0	994.1	NA	0.0000	BR	0800	0	0	0	360
2019/04/23 15:03:00	BASE	3.80	71	4.53	64	-1.5	100	-1.5	94	0	994.1	NA	0.0000	BR	0650	0	0	0	260
2019/04/23 15:04:00	BASE	3.93	76	4.53	64	-1.5	100	-1.5	120	0	994.1	NA	0.0000	BR	0550	5180	0	0	0
2019/04/23 15:05:00	BASE	3.70	85	4.53	64	-1.6	100	-1.6	181	0	994.1	NA	0.0000	BR	0600	5180	0	0	0
2019/04/23 15:06:00	BASE	3.48	96	4.53	64	-1.6	100	-1.6	101	0	994.1	NA	0.0000	BR	0650	5180	0	0	0
2019/04/23 15:07:00	BASE	3.31	107	4.53	64	-1.6	100	-1.6	103	0	994.1	NA	0.0000	BR	0750	5220	7150	0	0
2019/04/23 15:11:09	BASE	M	M	4.53	64	-1.6	100	-1.6	103	0	M	NA	0.0000	FZFG	M	5220	7150	0	0
2019/04/23 15:11:12	BASE	M	M	4.22	81	-1.6	100	-1.6	M	M	M	NA	0.0000	FZFG	M	M	M	M	M
2019/04/23 15:11:16	BASE	M	M	M	M	-1.6	100	-1.6	M	M	M	NA	0.0000		M	M	M	M	M
2019/04/23 15:11:20	BASE	M	M	M	M	-1.6	100	-1.6	M	M	M	NA	0.0000		M	M	M	M	M
2019/04/23 15:12:00	BASE	M	M	M	M	-1.6	100	-1.6	M	M	M	NA	0.0000		M	M	M	M	M
2019/04/23 15:13:00	BASE	M	M	M	M	-1.6	100	-1.6	M	M	M	NA	0.0000		M	M	M	M	M
2019/04/23 15:14:00	BASE	M	M	M	M	-1.6	100	-1.6	M	M	M	NA	0.0000		M	M	M	M	M
2019/04/23 15:15:00	BASE	M	M	M	M	-1.6	100	-1.6	M	M	M	NA	0.0000		M	M	M	M	M
2019/04/23 15:16:00	BASE	M	M	M	M	-1.6	100	-1.6	M	M	M	NA	0.0000		M	M	M	M	M
2019/04/23 15:17:00	BASE	M	M	M	M	-1.6	100	-1.6	M	M	M	NA	0.0000		M	M	M	M	M
2019/04/23 15:18:00	BASE	M	M	M	M	-1.6	100	-1.6	M	M	M	NA	0.0000		M	M	M	M	M
2019/04/23 15:19:00	BASE	M	M	M	M	-1.6	100	-1.6	M	M	M	NA	0.0000		M	M	M	M	M
2019/04/23 15:20:00	BASE	M	M	M	M	-1.6	100	-1.6	M	M	M	NA	0.0000		M	M	M	M	M
2019/04/23 15:21:00	BASE	M	M	M	M	-1.6	100	-1.6	135	0	M	NA	0.0000		M	0	0	0	30
2019/04/23 15:22:00	BASE	M	M	M	M	-1.6	100	-1.6	203	0	993.9	NA	0.0000		0650	5050	0	0	0
2019/04/23 15:23:00	BASE	5.00	131	M	M	-1.6	100	-1.6	203	0	993.9	NA	0.0000		0900	4920	0	0	0
2019/04/23 15:24:00	BASE	4.91	133	M	M	M	M	M	197	0	993.9	NA	0.0000		1200	6400	0	0	0
2019/04/23 15:25:00	BASE	4.50	138	M	M	-1.5	100	-1.5	195	0	993.9	NA	0.0000		1100	6200	0	0	0
2019/04/23 15:26:00	BASE	3.88	137	M	M	-1.5	100	-1.5	201	0	993.9	NA	0.0000		1000	6170	0	0	0
2019/04/23 15:27:00	BASE	3.52	140	M	M	-1.5	100	-1.5	196	0	993.9	NA	0.0000		1100	0	0	0	30
2019/04/23 15:28:00	BASE	3.52	142	M	M	-1.5	100	-1.5	172	0	994.0	NA	0.0000		1700	0	0	0	0
2019/04/23 15:29:00	BASE	3.91	144	6.53	133	-1.5	100	-1.5	190	0	994.0	NA	0.0000	BR	3400	6170	0	0	0
2019/04/23 15:30:00	BASE	3.87	147	6.53	133	-1.5	100	-1.5	122	0	994.0	NA	0.0000	BR	5000	6100	0	0	0
2019/04/23 15:31:00	BASE	3.60	148	6.53	133	-1.5	100	-1.5	214	0	994.0	NA	0.0000	BR	6000	6070	0	0	0
2019/04/23 15:32:00	BASE	3.62	145	5.61	142	-1.5	100	-1.5	208	0	994.0	NA	0.0000	BR	8000	6070	0	0	0
2019/04/23 15:33:00	BASE	3.65	144	5.61	142	-1.5	100	-1.5	210	0	994.1	NA	0.0000	BR	7000	6070	0	0	0
2019/04/23 15:34:00	BASE	3.86	153	5.14	147	-1.5	100	-1.5	188	0	994.1	NA	0.0000	BR	5000	6000	0	0	0
2019/04/23 15:35:00	BASE	3.76	157	5.14	147	-1.5	100	-1.5	191	0	994.1	NA	0.0000	BR	3100	5940	0	0	0
2019/04/23 15:36:00	BASE	3.65	155	5.14	147	-1.5	100	-1.5	152	0	994.1	NA	0.0000	BR	2400	6300	0	0	0
2019/04/23 15:37:00	BASE	3.53	153	5.14	147	-1.5	100	-1.5	228	0	994.1	NA	0.0000	BR	1900	6140	0	0	0
2019/04/23 15:38:00	BASE	3.36	149	5.14	147	-1.5	100	-1.5	210	0	994.1	NA	0.0000	BR	1600	6100	0	0	0
2019/04/23 15:39:00	BASE	3.16	149	4.58	151	-1.5	100	-1.5	205	0	994.1	NA	0.0000	BR	1700	5740	0	0	0
2019/04/23 15:40:00	BASE	3.09	146	4.58	151	-1.4	100	-1.4	165	0	994.1	NA	0.0000	BR	1500	5710	0	0	0
2019/04/23 15:41:00	BASE	3.04	144	4.58	151	-1.4	100	-1.4	102	0	994.1	NA	0.0000	BR	0800	5640	0	0	0
2019/04/23 15:42:14	BASE	2.80	145	4.58	151	-1.4	100	-1.4	96	0	994.1	NA	0.0000	BR	0700	5610	0	0	0
2019/04/23 15:43:00	BASE	3.07	142	4.58	151	-1.4	100	-1.4	90	0	994.0	NA	0.0000	BR	0750	5610	0	0	0
2019/04/23 15:44:00	BASE	3.37	139	4.01	159	-1.4	100	-1.4	87	0	994.0	NA	0.0000	BR	0700	5450	0	0	0
2019/04/23 15:45:00	BASE	3.08	133	4.01	159	-1.4	100	-1.4	85	0	994.0	NA	0.0000	BR	1000	5480	0	0	0
2019/04/23 15:46:00	BASE	2.00	126	3.91	151	-1.4	100	-1.4	85	0	994.0	NA	0.0000	BR	1800	4100	5350	0	0
2019/04/23 15:47:00	BASE	0.64	116	3.76	135	-1.4	100	-1.4	86	0	994.0	NA	0.0000	BR	3300	3900	5450	0	0
2019/04/23 15:48:00	BASE	0.30	90	3.76	135	-1.4	100	-1.4	87	0	994.1	NA	0.0000	BR	9999	3970	5380	0	0
2019/04/23 15:49:00	BASE	1.05	68	3.76	135	-1.4	100	-1.4	87	0	994.0	NA	0.0000	BR	9999	4100	5320	0	0
2019/04/23 15:50:00	BASE	1.75	67	3.76	135	-1.4	100	-1.4	87	0	994.0	NA	0.0000	BR	9999	5180	0	0	0
2019/04/23 15:51:00	BASE	1.98	74	3.76	135	-1.4	100	-1.4	87	0	994.0	NA	0.0000	BR	9999	5180	0	0	0
2019/04/23 15:52:00	BASE	2.35	76	3.76	135	-1.3	100	-1.3	86	0	994.0	NA	0.0000	BR	9999	5180	0	0	0
2019/04/23 15:53:00	BASE	2.57	74	3.76	135	-1.3	100	-1.3	84	0	994.0	NA	0.0000	BR	9999	5220	0	0	0
2019/04/23 15:54:00	BASE	2.31	64	3.19	116	-1.3	100	-1.3	81	0	994.0	NA	0.0000	BR	9999	5150	0	0	0
2019/04/23 15:55:00	BASE	2.26	51	3.04	76	-1.3	100	-1.3	78	0	994.0	NA	0.0000	BR	9999	5120	0	0	0
2019/04/23 15:56:00	BASE	2.35	49	3.04	76	-1.3	100	-1.3	75	0	994.0	NA	0.0000		9999	4170	5050	0	0
2019/04/23 15:57:00	BASE	2.28	47	3.04	76	-1.3	100	-1.3	73	0	994.0	NA	0.0000		9999	4130	5090	0	0
2019/04/23 15:58:00	BASE	2.13	44	3.04	76	-1.3	100	-1.3	71	0	994.0	NA	0.0000		9999	4200	5150	0	0
2019/04/23 15:59:00	BASE	2.02	41	3.04	76	-1.3	100	-1.3	69	0	994.0	NA	0.0000		9999	4200	5120	0	0
2019/04/23 16:00:00	BASE	1.80	39	3.04	76	-1.3	100	-1.3	67	0	994.0	NA	0.0000		9999	4200	5020	0	0
2019/04/23 16:01:00	BASE	1.48	38	3.04	76	-1.3	100	-1.3	66	0	994.0	NA	0.0000		9999	4200	4950	0	0
2019/04/23 16:02:00	BASE	1.27	28	2.78	71	-1.3	100	-1.3	64	0	994.0	NA	0.0000		9999	4230	0	0	0
2019/04/23 16:03:00	BASE	1.41	13	2.57	53	-1.3	100	-1.3	61	0	994.1	NA	0.0000		9999	4990	0	0	0
2019/04/23 16:04:00	BASE	1.66	4	2.57	53	-1.4	100	-1.4	60	0	994.1	NA	0.0000		9999	4890	0	0	0
2019/04/23 16:05:00	BASE	1.95	350	2.52	50	-1.4	100	-1.4	61	0	994.1	NA	0.0000		9999	4860	0	0	0
2019/04/23 16:06:00	BASE	2.19	340	2.47	340	-1.4	100	-1.4	63	0	994.1	NA	0.0000		9999	4860	0	0	0
2019/04/23 16:07:00	BASE	2.31	337	2.73	336	-1.4	100	-1.4	66	0	994.1	NA	0.0000		9999	4860	0	0	0
2019/04/23 16:08:00	BASE	2.40	333	2.73	336	-1.4	100	-1.4	68	0	994.1	NA	0.0000		9999	4630	0	0	0
2019/04/23 16:09:00	BASE	2.19	332	2.73	336	-1.3	100	-1.3	68	0	994.1	NA	0.0000		9999	4630	0	0	0
2019/04/23 16:10:00	BASE	2.03	334	2.73	336	-1.3	100	-1.3	67	0	994.1	NA	0.0000		9999	4760	0	0	0
2019/04/23 16:11:00	BASE	1.98	332	2.73	336	-1.3	100	-1.3	69	0	994.1	NA	0.0000		9999	4760	0	0	0
2019/04/23 16:12:00	BASE	1.80	332	2.73	336	-1.3	100	-1.3	70	0	994.1	NA	0.0000		9999	4760	0	0	0
2019/04/23 16:13:00	BASE	1.31	334	2.73	336	-1.2	100	-1.2	71	0	994.0	NA	0.0000		9999	4790	0	0	0
2019/04/23 16:14:00	BASE	0.47	334	2.73	336	-1.2	100	-1.2	71	0	994.0	NA	0.0000		9999	4760	0	0	0
2019/04/23 16:15:00	BASE	0.00	338	2.73	336	-1.2	100	-1.2	70	0	994.0	NA	0.0000		9999	4530	0	0	0
2019/04/23 16:16:00	BASE	0.00	340	2.73	336	-1.3	100	-1.3	70	0	994.0	NA	0.0000		9999	4200	0	0	0
2019/04/23 16:17:00	BASE	0.00	333	2.52	330	-1.3	100	-1.3	71	0	994.0	NA	0.0000		9999	4360	0	0	0
2019/04/23 16:18:00	BASE	0.00	322	2.21	336	-1.3	100	-1.3	74	0	994.0	NA	0.0000		9999	4490	0	0	0
2019/04/23 16:19:00	BASE	0.00	327	2.16	333	-1.2	100	-1.2	79	0	994.0	NA	0.0000		9999	5380	0	0	0
2019/04/23 16:20:00	BASE	0.00	341	2.11	331	-1.2	100	-1.2	82	0	994.0	NA	0.0000		9999	4990	0	0	0
2019/04/23 16:21:00	BASE	0.00	349	1.80	335	-1.2	100	-1.2	86	0	994.0	NA	0.0000		9999	4760	0	0	0
2019/04/23 16:22:00	BASE	0.00	359	1.54	334	-1.2	100	-1.2	89	0	994.0	NA	0.0000		9999	4330	0	0	0
2019/04/23 16:23:00	BASE	0.00	26	M	M	-1.2	100	-1.2	89	0	994.0	NA	0.0000		9999	4330	0	0	0
2019/04/23 16:24:00	BASE	0.00	56	M	M	-1.2	100	-1.2	89	0	994.0	NA	0.0000		9999	4560	0	0	0
2019/04/23 16:25:00	BASE	0.00	74	M	M	-1.1	100	-1.1	88	0	994.0	NA	0.0000		9999	4200	0	0	0
2019/04/23 16:26:00	BASE	0.14	102	1.23	121	-1.1	100	-1.1	87	0	994.0	NA	0.0000		9999	3450	4330	0	0
2019/04/23 16:27:00	BASE	0.64	119	1.59	125	-1.1	100	-1.1	85	0	993.9	NA	0.0000		9999	4360	0	0	0
2019/04/23 16:28:00	BASE	1.28	128	1.70	134	-1.1	100	-1.1	83	0	993.9	NA	0.0000		9999	3450	0	0	0
2019/04/23 16:29:00	BASE	1.71	139	2.06	146	-1.1	100	-1.1	80	0	993.9	NA	0.0000		9999	3250	0	0	0
2019/04/23 16:30:00	BASE	1.75	147	2.06	146	-1.1	100	-1.1	76	0	993.9	NA	0.0000		9999	3180	0	0	0
2019/04/23 16:31:00	BASE	1.68	151	2.06	146	-1.1	100	-1.1	72	0	993.9	NA	0.0000		9999	3220	0	0	0
2019/04/23 16:32:00	BASE	1.79	152	2.06	151	-1.1	100	-1.1	69	0	993.9	NA	0.0000		9999	3220	0	0	0
2019/04/23 16:33:00	BASE	2.06	147	2.68	123	-1.1	100	-1.1	67	0	993.9	NA	0.0000		9999	3120	0	0	0
2019/04/23 16:34:00	BASE	2.80	138	4.12	128	-1.1	100	-1.1	68	0	994.0	NA	0.0000		9999	3280	0	0	0
2019/04/23 16:35:00	BASE	3.55	129	4.22	129	-1.2	100	-1.2	68	0	994.0	NA	0.0000		9999	3280	0	0	0
2019/04/23 16:36:00	BASE	3.35	126	4.22	129	-1.2	100	-1.2	68	0	994.0	NA	0.0000		9999	3150	0	0	0
2019/04/23 16:37:00	BASE	2.93	126	4.22	129	-1.3	100	-1.3	67	0	994.0	NA	0.0000		9999	1670	3250	0	0
2019/04/23 16:38:00	BASE	2.74	128	4.22	129	-1.3	100	-1.3	65	0	994.0	NA	0.0000		9999	1670	3350	0	0
2019/04/23 16:39:00	BASE	2.50	136	4.22	129	-1.4	100	-1.4	63	0	994.0	NA	0.0000		9999	1640	3280	0	0
2019/04/23 16:40:00	BASE	2.62	146	4.22	129	-1.4	100	-1.4	60	0	994.0	NA	0.0000		9999	1610	3350	0	0
2019/04/23 16:41:00	BASE	2.59	155	4.22	129	-1.4	100	-1.4	58	0	994.0	NA	0.0000		9999	1610	3220	0	0
2019/04/23 16:42:00	BASE	2.59	156	4.22	129	-1.4	100	-1.4	56	0	994.0	NA	0.0000		9999	1640	3350	0	0
2019/04/23 16:43:00	BASE	3.00	150	4.22	129	-1.4	100	-1.4	53	0	994.0	NA	0.0000		9999	1640	3350	0	0
2019/04/23 16:44:00	BASE	3.35	148	4.22	129	-1.4	100	-1.4	51	0	994.0	NA	0.0000		9999	1610	3220	0	0
2019/04/23 16:45:00	BASE	3.50	147	3.76	148	-1.4	100	-1.4	50	0	994.0	NA	0.0000		9999	1610	3410	0	0
2019/04/23 16:46:00	BASE	3.48	148	3.76	148	-1.4	100	-1.4	50	0	993.9	NA	0.0000		9999	1610	3380	0	0
2019/04/23 16:47:00	BASE	3.40	148	3.81	153	-1.4	100	-1.4	50	0	993.9	NA	0.0000		9999	1670	3220	0	0
2019/04/23 16:48:00	BASE	3.33	149	4.01	153	-1.4	100	-1.4	51	0	994.0	NA	0.0000		9999	1640	3250	0	0
2019/04/23 16:49:00	BASE	3.40	147	4.01	153	-1.4	100	-1.4	52	0	994.0	NA	0.0000		9999	1770	3180	0	0
2019/04/23 16:50:00	BASE	3.55	143	4.01	153	-1.4	100	-1.4	53	0	994.0	NA	0.0000		9999	1770	3220	0	0
2019/04/23 16:51:00	BASE	3.51	143	4.01	153	-1.4	100	-1.4	53	0	994.0	NA	0.0000		9999	1840	3280	0	0
2019/04/23 16:52:00	BASE	3.16	141	4.01	153	-1.4	100	-1.4	54	0	993.9	NA	0.0000		9999	1900	3250	0	0
2019/04/23 16:53:00	BASE	2.62	142	4.01	153	-1.3	100	-1.3	55	0	993.9	NA	0.0000		9999	3250	0	0	0
2019/04/23 16:54:00	BASE	2.33	136	4.01	153	-1.3	100	-1.3	57	0	993.9	NA	0.0000		9999	1710	3280	0	0
2019/04/23 16:55:00	BASE	2.25	128	4.01	153	-1.3	100	-1.3	57	0	993.9	NA	0.0000		9999	1800	3280	0	0
2019/04/23 16:56:00	BASE	2.02	136	4.01	153	-1.2	100	-1.2	57	0	993.8	NA	0.0000		9999	1940	3250	0	0
2019/04/23 16:57:00	BASE	1.81	140	4.01	153	-1.2	100	-1.2	58	0	993.7	NA	0.0000		9999	3220	0	0	0
2019/04/23 16:58:00	BASE	1.73	133	3.81	140	-1.2	100	-1.2	62	0	993.7	NA	0.0000		9999	1670	3250	0	0
2019/04/23 16:59:00	BASE	2.11	135	3.81	140	-1.1	100	-1.1	65	0	993.7	NA	0.0000		9999	1610	3250	0	0
2019/04/23 17:00:00	BASE	2.58	138	3.70	146	-1.1	100	-1.1	65	0	993.7	NA	0.0000		9999	1570	3250	0	0
2019/04/23 17:01:00	BASE	2.42	135	3.60	146	-1.1	100	-1.1	63	0	993.7	NA	0.0000		9999	1570	3310	0	0
2019/04/23 17:02:00	BASE	1.67	112	3.45	142	-1.0	100	-1.0	57	0	993.7	NA	0.0000		9999	1540	3180	0	0
2019/04/23 17:03:00	BASE	0.62	76	3.45	142	-1.0	100	-1.0	50	0	993.7	NA	0.0000		9999	1540	3150	0	0
2019/04/23 17:04:00	BASE	0.05	52	3.45	142	-1.0	100	-1.0	44	0	993.7	NA	0.0000		9999	1510	3220	0	0
2019/04/23 17:05:00	BASE	0.00	42	3.45	142	-1.0	100	-1.0	41	0	993.7	NA	0.0000		9999	1510	3250	0	0
2019/04/23 17:06:00	BASE	0.00	76	3.45	142	-1.0	100	-1.0	40	0	993.7	NA	0.0000		9999	1510	3250	0	0
2019/04/23 17:07:00	BASE	0.13	116	3.45	142	-1.0	100	-1.0	40	0	993.6	NA	0.0000		9999	1540	3280	0	0
2019/04/23 17:08:00	BASE	0.13	125	3.45	142	-1.0	100	-1.0	40	0	993.6	NA	0.0000		9999	1570	3350	0	0
2019/04/23 17:09:00	BASE	0.00	121	3.45	142	-1.0	100	-1.0	40	0	993.6	NA	0.0000		9999	1640	2030	3280	0
2019/04/23 17:10:00	BASE	0.00	114	3.45	142	-0.9	100	-0.9	41	0	993.6	NA	0.0000		9999	3120	21880	0	0
2019/04/23 17:11:00	BASE	0.00	155	1.34	113	-0.9	100	-0.9	43	0	993.6	NA	0.0000		9999	2950	0	0	0
2019/04/23 17:12:00	BASE	0.00	240	1.13	70	-0.9	100	-0.9	45	0	993.6	NA	0.0000		9999	2950	0	0	0
2019/04/23 17:13:00	BASE	0.00	284	1.08	118	-0.9	100	-0.9	47	0	993.6	NA	0.0000		9999	1570	2820	0	0
2019/04/23 17:14:00	BASE	0.00	263	1.08	118	-0.9	100	-0.9	49	0	993.6	NA	0.0000		9999	1570	2820	0	0
2019/04/23 17:15:00	BASE	0.31	174	1.44	163	-0.9	100	-0.9	50	0	993.6	NA	0.0000		9999	1610	2790	0	0
2019/04/23 17:16:00	BASE	1.10	151	1.85	140	-0.9	100	-0.9	53	0	993.6	NA	0.0000		9999	1670	0	0	0
2019/04/23 17:17:00	BASE	2.08	143	2.88	142	-0.9	100	-0.9	55	0	993.6	NA	0.0000		9999	1610	0	0	0
2019/04/23 17:18:00	BASE	2.24	136	2.88	142	-0.9	100	-0.9	56	0	993.6	NA	0.0000		9999	1570	2820	0	0
2019/04/23 17:19:00	BASE	1.96	135	2.88	142	-0.9	100	-0.9	56	0	993.6	NA	0.0000		9999	1610	0	0	0
2019/04/23 17:20:00	BASE	2.01	134	2.88	142	-0.8	100	-0.8	56	0	993.6	NA	0.0000		9999	1610	2850	0	0
2019/04/23 17:21:00	BASE	2.17	128	2.88	142	-0.8	100	-0.8	54	0	993.6	NA	0.0000		9999	1610	0	0	0
2019/04/23 17:22:00	BASE	1.46	123	2.88	142	-0.8	100	-0.8	52	0	993.6	NA	0.0000		9999	1610	0	0	0
2019/04/23 17:23:00	BASE	0.29	66	2.88	142	-0.8	100	-0.8	50	0	993.6	NA	0.0000		9999	1570	0	0	0
2019/04/23 17:24:00	BASE	0.00	342	2.88	142	-0.8	100	-0.8	48	0	993.7	NA	0.0000		9999	1610	0	0	0
2019/04/23 17:25:00	BASE	0.00	338	2.88	142	-0.8	100	-0.8	47	0	993.7	NA	0.0000		9999	1570	0	0	0
2019/04/23 17:26:00	BASE	0.00	342	2.88	142	-0.9	100	-0.9	46	0	993.7	NA	0.0000		9999	1570	0	0	0
2019/04/23 17:27:00	BASE	0.00	344	2.68	126	-1.0	100	-1.0	46	0	993.7	NA	0.0000		9999	1540	0	0	0
2019/04/23 17:28:00	BASE	0.00	6	2.68	126	-1.0	100	-1.0	47	0	993.7	NA	0.0000		9999	1570	0	0	0
2019/04/23 17:29:00	BASE	0.00	146	2.68	126	-1.0	100	-1.0	48	0	993.7	NA	0.0000		9999	1710	0	0	0
2019/04/23 17:30:00	BASE	0.04	353	2.68	126	-1.0	100	-1.0	49	0	993.7	NA	0.0000		9999	1670	0	0	0
2019/04/23 17:31:00	BASE	0.04	346	1.44	131	-1.0	100	-1.0	50	0	993.7	NA	0.0000		9999	1610	0	0	0
2019/04/23 17:32:00	BASE	0.13	342	1.08	337	-1.0	100	-1.0	53	0	993.7	NA	0.0000		9999	1640	0	0	0
2019/04/23 17:33:00	BASE	0.45	338	1.18	343	-1.0	100	-1.0	56	0	993.7	NA	0.0000		9999	1670	0	0	0
2019/04/23 17:34:00	BASE	1.03	343	1.49	350	-1.0	100	-1.0	59	0	993.7	NA	0.0000		9999	1570	0	0	0
2019/04/23 17:35:00	BASE	1.41	349	1.49	354	-1.0	100	-1.0	60	0	993.7	NA	0.0000		9999	1440	0	0	0
2019/04/23 17:36:00	BASE	1.40	0	1.54	10	-1.0	100	-1.0	60	0	993.7	NA	0.0000		9999	1440	0	0	0
2019/04/23 17:37:00	BASE	0.98	10	1.54	10	-1.0	100	-1.0	59	0	993.7	NA	0.0000		9999	1540	0	0	0
2019/04/23 17:38:00	BASE	0.77	28	1.54	10	-1.0	100	-1.0	59	0	993.7	NA	0.0000		9999	1570	2990	0	0
2019/04/23 17:39:00	BASE	0.58	35	1.54	10	-1.0	100	-1.0	57	0	993.7	NA	0.0000		9999	1350	2950	0	0
2019/04/23 17:40:00	BASE	0.09	26	1.54	10	-1.0	100	-1.0	55	0	993.7	NA	0.0000		9999	1610	2950	0	0
2019/04/23 17:41:00	BASE	0.23	38	1.54	10	-1.0	100	-1.0	53	0	993.7	NA	0.0000		9999	1480	2920	0	0
2019/04/23 17:42:00	BASE	0.92	45	1.54	10	-0.9	100	-0.9	52	0	993.7	NA	0.0000		9999	1480	2920	0	0
2019/04/23 17:43:00	BASE	1.40	34	1.54	27	-0.9	100	-0.9	50	0	993.6	NA	0.0000		9999	1310	2920	0	0
2019/04/23 17:44:00	BASE	1.39	37	1.54	33	-0.9	100	-0.9	49	0	993.6	NA	0.0000		9999	1310	2790	0	0
2019/04/23 17:45:00	BASE	1.38	65	1.54	33	-0.9	100	-0.9	48	0	993.6	NA	0.0000		9999	1310	2720	0	0
2019/04/23 17:46:00	BASE	1.43	95	1.75	104	-0.9	100	-0.9	47	0	993.5	NA	0.0000		9999	1410	2850	0	0
2019/04/23 17:47:00	BASE	1.54	115	1.85	133	-0.9	100	-0.9	47	0	993.5	NA	0.0000		9999	1380	2230	0	0
2019/04/23 17:48:00	BASE	1.66	124	2.06	132	-0.9	100	-0.9	46	0	993.5	NA	0.0000		9999	1410	2200	2890	0
2019/04/23 17:49:00	BASE	1.85	126	2.11	127	-0.9	100	-0.9	45	0	993.5	NA	0.0000		9999	1410	2070	2820	0
2019/04/23 17:50:00	BASE	2.03	122	2.31	125	-0.8	100	-0.8	45	0	993.6	NA	0.0000		9999	1480	2920	0	0
2019/04/23 17:51:00	BASE	2.09	123	2.42	125	-0.8	100	-0.8	45	0	993.6	NA	0.0000		9999	1440	0	0	0
2019/04/23 17:52:00	BASE	2.55	131	3.60	142	-0.8	100	-0.8	45	0	993.6	NA	0.0000		9999	1380	2130	0	0
2019/04/23 17:53:00	BASE	2.96	133	4.42	130	-0.7	100	-0.7	46	0	993.6	NA	0.0000		9999	2720	0	0	0
2019/04/23 17:54:00	BASE	3.27	132	4.48	125	-0.7	100	-0.7	46	0	993.6	NA	0.0000		9999	1970	2760	0	0
2019/04/23 17:55:00	BASE	4.12	131	5.14	127	-0.7	100	-0.7	46	0	993.5	NA	0.0000		9999	1870	2620	0	0
2019/04/23 17:56:00	BASE	4.35	127	5.14	110	-0.6	100	-0.6	46	0	993.5	NA	0.0000		9999	1940	2530	0	0
2019/04/23 17:57:00	BASE	4.16	128	5.61	133	-0.6	100	-0.6	46	0	993.5	NA	0.0000		9999	2070	0	0	0
2019/04/23 17:58:00	BASE	4.26	130	5.61	133	-0.6	100	-0.6	47	0	993.5	NA	0.0000		9999	2170	0	0	0
2019/04/23 17:59:00	BASE	3.81	130	5.61	133	-0.6	100	-0.6	49	0	993.5	NA	0.0000		9999	1800	0	0	0
2019/04/23 18:03:25	BASE	2.86	132	5.61	133	-0.6	100	-0.6	50	0	993.5	NA	0.0000		9999	1870	0	0	0
2019/04/23 18:03:28	BASE	M	M	5.61	133	-0.6	100	-0.6	50	0	M	NA	0.0000		M	1870	0	0	0
2019/04/23 18:03:34	BASE	M	M	5.61	133	-0.6	100	-0.6	M	M	M	NA	0.0000		M	M	M	M	M
2019/04/23 18:03:37	BASE	M	M	M	M	-0.6	100	-0.6	M	M	M	NA	0.0000		M	M	M	M	M
2019/04/23 18:04:00	BASE	M	M	M	M	-0.6	100	-0.6	M	M	M	NA	0.0000		M	M	M	M	M
2019/04/23 18:05:00	BASE	M	M	M	M	-0.6	100	-0.6	M	M	M	NA	0.0000		M	M	M	M	M
2019/04/23 18:06:00	BASE	M	M	M	M	-0.6	100	-0.6	M	M	M	NA	0.0000		M	M	M	M	M
2019/04/23 18:07:00	BASE	M	M	M	M	-0.6	100	-0.6	M	M	M	NA	0.0000		M	M	M	M	M
2019/04/23 18:08:00	BASE	M	M	M	M	-0.6	100	-0.6	M	M	M	NA	0.0000		M	M	M	M	M
2019/04/23 18:09:00	BASE	M	M	M	M	-0.6	100	-0.6	M	M	M	NA	0.0000		M	M	M	M	M
2019/04/23 18:10:00	BASE	M	M	M	M	-0.6	100	-0.6	M	M	M	NA	0.0000		M	M	M	M	M
2019/04/23 18:11:00	BASE	M	M	M	M	-0.6	100	-0.6	M	M	M	NA	0.0000		M	M	M	M	M
2019/04/23 18:15:22	BASE	M	M	M	M	-0.6	100	-0.6	M	M	M	NA	0.0000		M	M	M	M	M
2019/04/23 18:15:25	BASE	M	M	M	M	-0.6	100	-0.6	M	M	M	NA	0.0000		M	M	M	M	M
2019/04/23 18:15:28	BASE	M	M	M	M	-0.6	100	-0.6	M	M	M	NA	0.0000		M	M	M	M	M
2019/04/23 18:15:32	BASE	M	M	M	M	-0.6	100	-0.6	M	M	M	NA	0.0000		M	M	M	M	M
2019/04/23 18:16:00	BASE	M	M	M	M	-0.6	100	-0.6	40	0	M	NA	0.0000		M	2170	0	0	0
2019/04/23 18:17:00	BASE	M	M	M	M	M	M	M	40	0	993.5	NA	0.0000		9999	2130	0	0	0
2019/04/23 18:18:00	BASE	6.03	123	M	M	M	M	M	41	0	993.5	NA	0.0000		9999	2070	0	0	0
2019/04/23 18:19:01	BASE	6.43	123	M	M	M	M	M	41	0	993.4	NA	0.0000		9999	2000	0	0	0
2019/04/23 18:20:01	BASE	6.12	122	M	M	-0.4	100	-0.4	41	0	993.4	NA	0.0000		9999	2070	0	0	0
2019/04/23 18:21:01	BASE	7.47	122	M	M	-0.4	100	-0.4	41	0	993.4	NA	0.0000		9999	2000	0	0	0
2019/04/23 18:22:01	BASE	8.17	119	M	M	-0.6	100	-0.6	40	0	993.3	NA	0.0000		9999	1970	0	0	0
2019/04/23 18:23:01	BASE	7.20	120	M	M	-0.6	100	-0.6	40	0	993.3	NA	0.0000		9999	1940	0	0	0
2019/04/23 18:24:01	BASE	6.56	122	9.83	123	-0.6	100	-0.6	39	0	993.3	NA	0.0000		9999	2030	0	0	0
2019/04/23 18:25:01	BASE	6.67	123	9.83	123	-0.7	100	-0.7	38	0	993.3	NA	0.0000		9999	2030	0	0	0
2019/04/23 18:26:01	BASE	7.02	121	9.83	123	-0.7	100	-0.7	36	0	993.3	NA	0.0000		9999	2030	0	0	0
2019/04/23 18:27:01	BASE	6.98	125	9.83	123	-0.7	100	-0.7	35	0	993.3	NA	0.0000		9999	1840	0	0	0
2019/04/23 18:28:01	BASE	6.80	129	9.83	123	-0.7	100	-0.7	33	0	993.2	NA	0.0000		9999	1900	0	0	0
2019/04/23 18:29:01	BASE	6.89	127	9.83	123	-0.8	100	-0.8	32	0	993.2	NA	0.0000		9999	1870	0	0	0
2019/04/23 18:30:01	BASE	6.78	127	9.83	123	-0.8	100	-0.8	31	0	993.2	NA	0.0000		9999	1870	0	0	0
2019/04/23 18:31:01	BASE	7.03	132	9.05	125	-0.8	100	-0.8	30	0	993.2	NA	0.0000		9999	1740	0	0	0
2019/04/23 18:32:01	BASE	7.85	134	8.95	135	-0.8	100	-0.8	30	0	993.2	NA	0.0000		9999	1710	0	0	0
2019/04/23 18:33:01	BASE	7.57	131	8.95	135	-0.8	100	-0.8	29	0	993.2	NA	0.0000		9999	1770	0	0	0
2019/04/23 18:34:01	BASE	6.84	127	8.95	135	-0.8	100	-0.8	29	0	993.2	NA	0.0000		9999	1740	0	0	0
2019/04/23 18:35:01	BASE	7.35	130	8.95	135	-0.8	100	-0.8	29	0	993.1	NA	0.0000		9999	1770	0	0	0
2019/04/23 18:36:01	BASE	7.41	130	8.95	135	-0.8	100	-0.8	29	0	993.1	NA	0.0000		9999	1510	0	0	0
2019/04/23 18:37:01	BASE	7.73	128	9.52	130	-0.8	100	-0.8	30	0	993.1	NA	0.0000		9999	1250	0	0	0
2019/04/23 18:38:01	BASE	8.39	121	10.13	125	-0.8	100	-0.8	30	0	993.1	NA	0.0000		9999	1210	0	0	0
2019/04/23 18:39:01	BASE	8.45	119	10.13	125	-0.8	100	-0.8	30	0	993.1	NA	0.0000		9999	1440	0	0	0
2019/04/23 18:40:01	BASE	8.92	125	10.55	117	-0.8	100	-0.8	30	0	993.1	NA	0.0000		9999	790	0	0	0
2019/04/23 18:41:01	BASE	8.81	127	10.55	117	-0.8	100	-0.8	30	0	993.0	NA	0.0000		9999	790	0	0	0
2019/04/23 18:42:01	BASE	8.79	130	10.65	135	-0.8	100	-0.8	30	0	993.0	NA	0.0000		9999	1120	0	0	0
2019/04/23 18:43:01	BASE	9.85	133	11.52	133	-0.9	100	-0.9	29	0	993.0	NA	0.0000		9999	1150	0	0	0
2019/04/23 18:44:01	BASE	9.54	130	11.52	133	-0.9	100	-0.9	28	0	993.0	NA	0.0000		9999	1310	0	0	0
2019/04/23 18:45:01	BASE	8.71	131	11.52	133	-0.9	100	-0.9	27	0	993.0	NA	0.0000		9000	1150	0	0	0
2019/04/23 18:46:01	BASE	9.06	133	11.52	133	-0.9	100	-0.9	26	0	993.0	NA	0.0000		9000	1150	0	0	0
2019/04/23 18:47:01	BASE	9.21	129	11.52	133	-0.9	100	-0.9	25	0	993.0	NA	0.0000		9000	1120	0	0	0
2019/04/23 18:48:01	BASE	9.90	129	11.68	133	-0.9	100	-0.9	23	0	993.0	NA	0.0000		8000	1350	0	0	0
2019/04/23 18:49:01	BASE	10.01	131	11.68	133	-0.9	100	-0.9	23	0	993.1	NA	0.0000		8000	1150	0	0	0
2019/04/23 18:50:01	BASE	8.60	128	11.68	133	-0.9	100	-0.9	22	0	993.0	NA	0.0000	BR	9999	1250	0	0	0
2019/04/23 18:51:01	BASE	8.84	128	11.68	133	-0.9	100	-0.9	23	0	993.0	NA	0.0000	BR	7000	1210	0	0	0
2019/04/23 18:52:01	BASE	9.57	134	11.68	133	-0.9	100	-0.9	23	0	992.9	NA	0.0000	BR	6000	1210	0	0	0
2019/04/23 18:53:01	BASE	9.42	132	11.68	133	-0.9	100	-0.9	23	0	992.9	NA	0.0000	BR	6000	1180	0	0	0
2019/04/23 18:54:01	BASE	9.13	133	11.68	133	-0.9	100	-0.9	22	0	992.9	NA	0.0000	BR	5000	950	0	0	0
2019/04/23 18:55:01	BASE	9.22	140	11.68	133	-0.9	100	-0.9	21	0	992.9	NA	0.0000	BR	5000	1350	0	0	0
2019/04/23 18:56:01	BASE	8.71	146	11.68	133	-0.8	100	-0.8	20	0	992.9	NA	0.0000	BR	4100	950	0	0	0
2019/04/23 18:57:01	BASE	6.89	150	11.68	133	-0.8	100	-0.8	20	0	992.9	NA	0.0000	BR	3900	1610	0	0	0
2019/04/23 18:58:01	BASE	7.05	145	11.32	133	-0.8	100	-0.8	20	0	992.9	NA	0.0000	BR	5000	1050	0	0	0
2019/04/23 18:59:01	BASE	8.34	137	11.21	132	-0.8	100	-0.8	20	0	992.9	NA	0.0000	BR	6000	1610	0	0	0
2019/04/23 19:00:01	BASE	8.32	136	11.21	132	-0.8	100	-0.8	20	0	992.9	NA	0.0000	BR	6000	1440	0	0	0
2019/04/23 19:01:01	BASE	7.49	138	10.80	150	-0.8	100	-0.8	21	0	992.9	NA	0.0000	BR	6000	1440	0	0	0
2019/04/23 19:02:01	BASE	7.23	138	10.80	150	-0.8	100	-0.8	21	0	992.9	NA	0.0000	BR	8000	1180	0	0	0
2019/04/23 19:03:01	BASE	7.23	140	10.80	150	-0.8	100	-0.8	20	0	992.9	NA	0.0000	BR	9000	1480	0	0	0
2019/04/23 19:04:01	BASE	7.16	141	10.80	150	-0.8	100	-0.8	20	0	992.9	NA	0.0000	BR	9999	1440	0	0	0
2019/04/23 19:05:01	BASE	7.59	140	9.77	131	-0.7	100	-0.7	20	0	992.9	NA	0.0000	BR	9999	1350	0	0	0
2019/04/23 19:06:01	BASE	7.52	141	9.77	131	-0.7	100	-0.7	20	0	992.9	NA	0.0000	BR	9999	1570	0	0	0
2019/04/23 19:07:01	BASE	7.40	142	9.77	131	-0.7	100	-0.7	20	0	992.9	NA	0.0000	BR	9999	1610	0	0	0
2019/04/23 19:08:01	BASE	6.92	141	9.52	127	-0.7	100	-0.7	20	0	992.9	NA	0.0000	BR	9999	1440	0	0	0
2019/04/23 19:09:01	BASE	6.24	137	9.05	141	-0.6	100	-0.6	20	0	992.9	NA	0.0000	BR	9999	1080	0	0	0
2019/04/23 19:10:01	BASE	6.93	137	9.05	141	-0.5	100	-0.5	20	0	992.9	NA	0.0000	BR	9000	1380	0	0	0
2019/04/23 19:11:00	BASE	7.91	139	9.31	135	-0.5	100	-0.5	20	0	992.9	NA	0.0000		9999	1310	0	0	0
2019/04/23 19:12:01	BASE	8.06	142	9.31	135	-0.4	100	-0.4	20	0	992.9	NA	0.0000		9999	980	1770	0	0
2019/04/23 19:13:01	BASE	7.35	149	9.31	135	-0.4	100	-0.4	20	0	992.9	NA	0.0000		9999	1410	0	0	0
2019/04/23 19:14:01	BASE	6.53	150	9.31	135	-0.4	100	-0.4	19	0	992.9	NA	0.0000		9999	1380	0	0	0
2019/04/23 19:15:00	BASE	5.90	143	9.31	135	-0.3	100	-0.3	19	0	992.9	NA	0.0000		9999	750	0	0	0
2019/04/23 19:16:00	BASE	6.58	142	9.31	135	-0.3	100	-0.3	18	0	992.9	NA	0.0000		9999	620	0	0	0
2019/04/23 19:17:00	BASE	7.11	150	9.31	135	-0.3	100	-0.3	18	0	992.9	NA	0.0000		9999	560	0	0	0
2019/04/23 19:18:00	BASE	6.22	145	9.31	135	-0.3	100	-0.3	18	0	992.9	NA	0.0000		9999	560	2000	0	0
2019/04/23 19:19:00	BASE	6.47	134	9.31	135	-0.2	100	-0.2	18	0	992.9	NA	0.0000		9999	520	1870	0	0
2019/04/23 19:20:00	BASE	6.66	136	9.31	135	-0.2	100	-0.2	18	0	992.9	NA	0.0000		7000	490	0	0	0
2019/04/23 19:21:00	BASE	6.42	137	8.85	140	-0.2	100	-0.2	17	0	992.9	NA	0.0000	UP	5000	430	0	0	0
2019/04/23 19:22:00	BASE	6.06	130	8.54	145	-0.1	100	-0.1	17	0	993.0	NA	0.0000	UP BR	3000	1870	0	0	0
2019/04/23 19:23:00	BASE	5.17	127	8.54	145	0.0	100	0.0	17	0	992.9	NA	0.0000	UP BR	2400	2000	0	0	0
2019/04/23 19:24:01	BASE	5.50	125	8.54	145	0.1	100	0.1	16	0	993.0	NA	0.0000	UP BR	2200	1710	0	0	0
2019/04/23 19:25:01	BASE	6.40	123	8.54	145	0.2	100	0.2	16	0	993.0	NA	0.0000	UP BR	2200	1970	0	0	0
2019/04/23 19:26:01	BASE	6.73	131	7.97	153	0.2	100	0.2	15	0	992.9	NA	0.0000	UP BR	2500	1210	0	0	0
2019/04/23 19:27:00	BASE	6.98	133	7.97	153	0.2	100	0.2	15	0	992.9	NA	0.0000	UP BR	3100	820	2100	0	0
2019/04/23 19:28:00	BASE	7.15	136	8.08	143	0.3	100	0.3	15	0	992.9	NA	0.0000	UP BR	3500	720	0	0	0
2019/04/23 19:29:00	BASE	7.23	144	8.54	150	0.3	100	0.3	15	0	992.9	NA	0.0000	UP BR	3000	520	0	0	0
2019/04/23 19:30:00	BASE	7.35	146	8.54	150	0.3	100	0.3	15	0	992.9	NA	0.0000	UP BR	2700	460	0	0	0
2019/04/23 19:31:00	BASE	7.36	141	8.54	150	0.4	100	0.4	15	0	992.9	NA	0.0000	UP BR	2400	430	2030	0	0
2019/04/23 19:32:00	BASE	7.46	140	8.54	150	0.5	100	0.5	15	0	992.9	NA	0.0000	UP BR	1700	430	0	0	0
2019/04/23 19:33:00	BASE	7.54	143	8.54	150	0.5	100	0.5	15	0	992.9	NA	0.0000	UP BR	1200	390	0	0	0
2019/04/23 19:34:00	BASE	7.60	146	8.54	150	0.5	100	0.5	14	0	992.9	NA	0.0000	UP BR	1000	390	0	0	0
2019/04/23 19:35:00	BASE	7.49	148	8.54	150	0.4	100	0.4	13	0	992.9	NA	0.0000	UP BR	0900	390	1800	0	0
2019/04/23 19:36:00	BASE	6.83	150	8.54	150	0.4	100	0.4	12	0	992.9	NA	0.0000	UP BR	0900	390	0	0	0
2019/04/23 19:37:00	BASE	6.03	154	8.54	150	0.3	100	0.3	11	0	992.9	NA	0.0000	UP BR	0900	390	1770	0	0
2019/04/23 19:38:00	BASE	5.83	153	8.54	150	0.3	100	0.3	10	0	992.9	NA	0.0000	UP BR	0900	390	1770	0	0
2019/04/23 19:39:00	BASE	6.29	151	8.08	150	0.3	100	0.3	9	0	992.9	NA	0.0000	UP BR	0900	390	1710	0	0
2019/04/23 19:40:00	BASE	6.56	155	8.03	139	0.3	100	0.3	8	0	992.9	NA	0.0000	UP BR	0900	360	0	0	0
2019/04/23 19:41:00	BASE	6.47	156	7.97	141	0.3	100	0.3	8	0	992.9	NA	0.0000	UP BR	0900	360	0	0	0
2019/04/23 19:42:00	BASE	6.78	150	8.03	143	0.3	100	0.3	7	0	992.9	NA	0.0000	UP BR	0900	390	0	0	0
2019/04/23 19:43:00	BASE	6.96	143	8.03	143	0.3	100	0.3	7	0	992.9	NA	0.0000	UP BR	0900	430	0	0	0
2019/04/23 19:44:00	BASE	6.50	145	8.03	143	0.3	100	0.3	7	0	992.9	NA	0.0000	BR	0900	430	0	0	0
2019/04/23 19:45:00	BASE	6.39	147	8.03	143	0.3	100	0.3	6	0	992.9	NA	0.0000	BR	0900	390	0	0	0
2019/04/23 19:46:00	BASE	6.40	148	8.03	143	0.4	100	0.4	6	0	992.9	NA	0.0000	BR	0900	390	0	0	0
2019/04/23 19:47:00	BASE	6.57	151	8.03	143	0.4	100	0.4	6	0	992.9	NA	0.0000	BR	0900	390	0	0	0
2019/04/23 19:48:00	BASE	6.48	147	8.03	143	0.4	100	0.4	6	0	992.9	NA	0.0000	BR	0900	430	0	0	0
2019/04/23 19:49:00	BASE	6.21	145	8.03	143	0.4	100	0.4	6	0	992.8	NA	0.0000	BR	0900	390	0	0	0
2019/04/23 19:50:00	BASE	6.29	146	8.03	143	0.4	100	0.4	6	0	992.8	NA	0.0000	BR	0900	390	1710	0	0
2019/04/23 19:51:00	BASE	5.73	145	8.03	143	0.4	100	0.4	6	0	992.8	NA	0.0000	BR	0900	390	0	0	0
2019/04/23 19:52:00	BASE	5.45	147	7.72	141	0.4	100	0.4	5	0	992.8	NA	0.0000	BR	0900	390	0	0	0
2019/04/23 19:53:00	BASE	5.63	145	7.41	149	0.4	100	0.4	5	0	992.8	NA	0.0000	BR	0900	360	0	0	0
2019/04/23 19:54:00	BASE	5.91	144	7.41	149	0.4	100	0.4	5	0	992.8	NA	0.0000	UP BR	0900	360	0	0	0
2019/04/23 19:55:00	BASE	5.76	141	7.41	149	0.4	100	0.4	5	0	992.8	NA	0.0000	UP BR	0750	360	0	0	0
2019/04/23 19:56:00	BASE	5.42	138	7.41	149	0.4	100	0.4	5	0	992.9	NA	0.0000	UP FG	0600	0	0	0	3050
2019/04/23 19:57:00	BASE	5.33	137	7.10	147	0.4	100	0.4	5	0	992.9	NA	0.0000	UP FG	0500	390	0	0	0
2019/04/23 19:58:00	BASE	5.76	136	7.10	147	0.3	100	0.3	5	0	992.9	NA	0.0000	UP FG	0450	390	0	0	0
2019/04/23 19:59:00	BASE	6.00	134	6.84	145	0.3	100	0.3	5	0	992.9	NA	0.0000	UP FG	0450	430	0	0	0
2019/04/23 20:00:00	BASE	5.55	134	6.84	145	0.3	100	0.3	5	0	992.9	NA	0.0000	UP FG	0550	460	0	0	0
2019/04/23 20:01:00	BASE	5.14	136	6.84	145	0.4	100	0.4	5	0	992.9	NA	0.0000	-SN FG	0700	460	0	0	0
2019/04/23 20:02:00	BASE	4.77	140	6.84	145	0.4	100	0.4	5	0	992.9	NA	0.0000	-SN FG	0800	460	0	0	0
2019/04/23 20:03:00	BASE	4.74	150	6.84	145	0.4	100	0.4	6	0	992.9	NA	0.0000	-SN FG	0800	520	0	0	0
2019/04/23 20:04:00	BASE	5.03	159	6.79	130	0.3	100	0.3	7	0	992.9	NA	0.0000	-SN FG	0900	460	0	0	0
2019/04/23 20:05:00	BASE	5.20	161	6.79	130	0.3	100	0.3	8	0	992.9	NA	0.0000	-SN FG	1100	390	0	0	0
2019/04/23 20:06:00	BASE	5.03	161	6.79	130	0.3	100	0.2	8	0	992.9	NA	0.0000	-SN FG	1300	430	0	0	0
2019/04/23 20:07:00	BASE	4.39	162	6.79	130	0.2	100	0.2	8	0	992.9	NA	0.0000	-SN FG	1800	0	0	0	2950
2019/04/23 20:08:00	BASE	4.24	164	6.74	134	0.1	100	0.1	8	0	992.9	NA	0.0000	-SN FG	2200	0	0	0	2920
2019/04/23 20:09:00	BASE	4.64	163	5.92	124	0.1	100	0.1	7	0	992.9	NA	0.0000	-SN BR	2900	0	0	0	3080
2019/04/23 20:10:00	BASE	4.47	161	5.81	162	0.1	100	0.1	7	0	992.9	NA	0.0000	-SN BR	3500	0	0	0	3580
2019/04/23 20:11:00	BASE	3.77	158	5.81	162	0.1	100	0.1	5	0	992.9	NA	0.0000	-SN BR	3300	590	0	0	0
2019/04/23 20:12:00	BASE	3.55	155	5.81	162	0.1	100	0.1	4	0	993.0	NA	0.0000	-SN BR	3200	590	0	0	0
2019/04/23 20:13:00	BASE	3.59	154	5.81	162	0.1	100	0.1	4	0	993.0	NA	0.0000	-SN BR	3100	660	0	0	0
2019/04/23 20:14:00	BASE	3.16	154	5.81	162	0.2	100	0.2	3	0	993.0	NA	0.0000	-SN BR	2700	620	0	0	0
2019/04/23 20:15:00	BASE	3.13	158	5.20	160	0.2	100	0.2	3	0	992.9	NA	0.0000	-SN BR	2700	590	0	0	0
2019/04/23 20:16:00	BASE	3.10	160	5.04	163	0.2	100	0.2	2	0	992.9	NA	0.0000	-SN BR	3000	660	0	0	0
2019/04/23 20:17:00	BASE	2.71	159	5.04	163	0.2	100	0.2	2	0	992.9	NA	0.0000	-SN BR	2900	660	0	0	0
2019/04/23 20:18:00	BASE	2.36	156	5.04	163	0.1	100	0.1	2	0	992.9	NA	0.0000	-SN BR	2900	620	0	0	0
2019/04/23 20:19:00	BASE	1.89	151	4.94	161	0.1	100	0.1	2	0	992.9	NA	0.0000	-SN BR	2800	620	0	0	0
2019/04/23 20:20:00	BASE	1.37	142	4.32	149	0.1	100	0.1	1	0	992.9	NA	0.0000	-SN BR	2700	1440	0	0	0
2019/04/23 20:21:00	BASE	1.40	139	4.32	149	0.1	100	0.1	1	0	992.9	NA	0.0000	-SN BR	2600	920	0	0	0
2019/04/23 20:22:00	BASE	1.51	139	3.81	156	0.1	100	0.1	1	0	992.9	NA	0.0000	-SN BR	2500	660	0	0	0
2019/04/23 20:23:00	BASE	1.28	129	3.70	162	0.1	100	0.1	1	0	992.9	NA	0.0000	-SN BR	2400	490	0	0	0
2019/04/23 20:24:01	BASE	1.05	120	3.70	162	0.2	100	0.2	1	0	992.9	NA	0.0000	-SN BR	3800	460	0	0	0
2019/04/23 20:25:01	BASE	0.78	111	3.34	161	0.3	100	0.3	1	0	992.9	NA	0.0000	-SN BR	3700	460	0	0	0
2019/04/23 20:26:01	BASE	0.57	83	3.09	144	0.3	100	0.3	1	0	992.9	NA	0.0000	-SN BR	3600	460	0	0	0
2019/04/23 20:27:01	BASE	0.30	81	2.52	120	0.4	100	0.4	1	0	992.9	NA	0.0000	BR	3500	2030	0	0	0
2019/04/23 20:28:01	BASE	1.01	109	3.24	124	0.5	100	0.5	1	0	992.9	NA	0.0000	BR	3500	1440	0	0	0
2019/04/23 20:29:01	BASE	2.27	119	3.24	124	0.5	100	0.5	1	0	992.9	NA	0.0000	BR	3400	1540	0	0	0
2019/04/23 20:30:01	BASE	2.61	125	3.24	124	0.5	100	0.5	1	0	992.9	NA	0.0000	BR	3300	1610	0	0	0
2019/04/23 20:31:01	BASE	2.73	130	3.45	133	0.6	100	0.6	1	0	992.9	NA	0.0000	BR	4400	1510	0	0	0
2019/04/23 20:32:01	BASE	2.53	126	3.45	133	0.6	100	0.6	1	0	992.9	NA	0.0000	BR	5000	1870	0	0	0
2019/04/23 20:33:01	BASE	2.15	119	3.45	133	0.7	100	0.7	1	0	992.9	NA	0.0000	BR	6000	1740	0	0	0
2019/04/23 20:34:01	BASE	1.70	96	3.45	133	0.7	100	0.7	1	0	992.9	NA	0.0000	BR	6000	1710	0	0	0
2019/04/23 20:35:01	BASE	0.95	61	3.45	133	0.7	100	0.7	1	0	992.9	NA	0.0000	BR	6000	1670	0	0	0
2019/04/23 20:36:01	BASE	0.33	40	3.45	133	0.6	100	0.6	1	0	992.9	NA	0.0000	BR	6000	1440	0	0	0
2019/04/23 20:37:01	BASE	0.44	61	3.45	133	0.6	100	0.6	1	0	992.9	NA	0.0000	BR	7000	1380	0	0	0
2019/04/23 20:38:01	BASE	0.97	138	3.45	133	0.6	100	0.6	1	0	992.9	NA	0.0000	BR	7000	1440	0	0	0
2019/04/23 20:39:01	BASE	0.71	157	3.45	133	0.6	100	0.6	0	0	992.9	NA	0.0000	BR	7000	1570	0	0	0
2019/04/23 20:40:01	BASE	0.92	161	3.45	133	0.6	100	0.6	0	0	992.9	NA	0.0000	BR	7000	1540	0	0	0
2019/04/23 20:41:01	BASE	1.52	177	2.62	133	0.5	100	0.5	0	0	992.9	NA	0.0000	BR	7000	1510	0	0	0
2019/04/23 20:42:01	BASE	1.61	192	2.52	119	0.5	100	0.5	0	0	992.9	NA	0.0000	BR	7000	1510	0	0	0
2019/04/23 20:43:01	BASE	1.01	204	2.16	104	0.4	100	0.4	0	0	992.9	NA	0.0000	BR	7000	1540	0	0	0
2019/04/23 20:44:01	BASE	0.55	220	2.06	161	0.3	100	0.3	0	0	992.9	NA	0.0000	BR	7000	1410	0	0	0
2019/04/23 20:45:01	BASE	0.54	205	2.06	161	0.2	100	0.2	0	0	992.9	NA	0.0000	BR	7000	1080	0	0	0
2019/04/23 20:46:01	BASE	0.14	192	2.06	161	0.2	100	0.2	0	0	992.9	NA	0.0000	BR	7000	920	0	0	0
2019/04/23 20:47:01	BASE	0.04	195	2.01	201	0.2	100	0.2	0	0	992.9	NA	0.0000	BR	7000	790	1970	0	0
2019/04/23 20:48:01	BASE	0.60	194	2.01	201	0.1	100	0.1	0	0	992.9	NA	0.0000	BR	7000	690	0	0	0
2019/04/23 20:49:01	BASE	1.15	200	2.01	201	0.1	100	0.1	0	0	992.9	NA	0.0000	BR	7000	620	0	0	0
2019/04/23 20:50:01	BASE	1.26	203	2.01	201	0.1	100	0.1	0	0	992.9	NA	0.0000	BR	7000	590	0	0	0
2019/04/23 20:51:01	BASE	1.22	200	2.01	201	0.0	100	0.0	0	0	992.9	NA	0.0000	BR	7000	1020	1940	0	0
2019/04/23 20:52:01	BASE	0.64	198	1.65	212	0.0	100	0.0	0	0	992.8	NA	0.0000	BR	6000	790	1940	0	0
2019/04/23 20:53:01	BASE	0.09	207	1.65	212	-0.0	100	-0.0	0	0	992.8	NA	0.0000	BR	6000	620	2000	0	0
2019/04/23 20:54:01	BASE	0.00	223	1.54	201	-0.0	100	-0.0	0	0	992.9	NA	0.0000	BR	6000	520	1480	0	0
2019/04/23 20:55:01	BASE	0.00	219	1.54	201	-0.0	100	-0.0	0	0	992.9	NA	0.0000	BR	7000	520	0	0	0
2019/04/23 20:56:01	BASE	0.00	203	1.54	201	-0.0	100	-0.0	0	0	992.9	NA	0.0000	BR	7000	490	0	0	0
2019/04/23 20:57:01	BASE	0.00	199	1.54	201	0.0	100	0.0	0	0	992.9	NA	0.0000	BR	7000	520	0	0	0
2019/04/23 20:58:01	BASE	0.00	199	1.54	201	0.0	100	0.0	0	0	992.9	NA	0.0000	BR	8000	520	0	0	0
2019/04/23 20:59:01	BASE	0.00	201	1.54	201	0.1	100	0.1	0	0	992.9	NA	0.0000	BR	8000	950	0	0	0
2019/04/23 21:00:01	BASE	0.00	205	1.39	201	0.1	100	0.1	0	0	992.9	NA	0.0000	BR	8000	1770	0	0	0
2019/04/23 21:01:01	BASE	0.23	213	1.13	211	0.1	100	0.1	0	0	992.9	NA	0.0000	BR	8000	620	0	0	0
2019/04/23 21:02:01	BASE	0.23	217	1.13	211	0.1	100	0.1	0	0	992.9	NA	0.0000	BR	8000	490	0	0	0
2019/04/23 21:03:01	BASE	0.00	219	1.13	211	0.1	100	0.1	0	0	992.9	NA	0.0000	BR	9000	1510	0	0	0
2019/04/23 21:04:01	BASE	0.00	281	1.13	211	0.1	100	0.1	0	0	992.9	NA	0.0000	BR	9000	1670	0	0	0
2019/04/23 21:05:01	BASE	0.05	1	1.13	211	0.2	100	0.2	0	0	992.9	NA	0.0000	BR	9000	1570	0	0	0
2019/04/23 21:06:01	BASE	0.63	5	1.29	7	0.3	100	0.3	0	0	992.9	NA	0.0000	BR	9999	1710	0	0	0
2019/04/23 21:07:01	BASE	1.34	2	1.70	360	0.4	100	0.4	0	0	992.9	NA	0.0000	BR	9999	1570	0	0	0
2019/04/23 21:08:01	BASE	1.46	355	1.70	360	0.4	100	0.4	0	0	992.9	NA	0.0000	BR	9999	1380	0	0	0
2019/04/23 21:09:01	BASE	1.06	348	1.70	360	0.4	100	0.4	0	0	992.9	NA	0.0000	BR	9999	1410	0	0	0
2019/04/23 21:10:01	BASE	0.92	344	1.70	360	0.3	100	0.3	0	0	992.9	NA	0.0000	BR	9999	1740	0	0	0
2019/04/23 21:11:01	BASE	1.16	343	1.70	360	0.3	100	0.3	0	0	992.9	NA	0.0000	BR	9999	1380	0	0	0
2019/04/23 21:12:01	BASE	1.38	341	1.75	339	0.2	100	0.2	0	0	992.9	NA	0.0000	BR	9999	1510	0	0	0
2019/04/23 21:13:01	BASE	1.67	336	1.95	329	0.0	100	0.0	0	0	992.9	NA	0.0000	BR	9000	1380	0	0	0
2019/04/23 21:14:01	BASE	1.70	328	1.95	329	-0.0	100	-0.0	0	0	992.9	NA	0.0000	BR	9000	1510	0	0	0
2019/04/23 21:15:01	BASE	1.54	323	1.95	329	-0.1	100	-0.1	0	0	992.9	NA	0.0000	BR	9000	1380	0	0	0
2019/04/23 21:16:01	BASE	1.61	318	1.95	329	-0.1	100	-0.1	0	0	992.9	NA	0.0000	BR	9000	1210	0	0	0
2019/04/23 21:17:01	BASE	1.72	314	1.95	329	-0.2	100	-0.2	0	0	992.9	NA	0.0000	BR	9999	1180	0	0	0
2019/04/23 21:18:01	BASE	1.67	317	1.95	329	-0.2	100	-0.2	0	0	992.9	NA	0.0000	BR	9999	920	0	0	0
2019/04/23 21:19:01	BASE	1.90	326	2.57	332	-0.2	100	-0.2	0	0	992.9	NA	0.0000	BR	9999	790	0	0	0
2019/04/23 21:20:00	BASE	2.57	332	3.45	334	-0.2	100	-0.2	0	0	992.9	NA	0.0000	BR	9999	720	0	0	0
2019/04/23 21:21:01	BASE	3.12	332	3.45	331	-0.2	100	-0.2	0	0	992.9	NA	0.0000	BR	9999	620	0	0	0
2019/04/23 21:22:01	BASE	3.01	333	3.45	331	-0.2	100	-0.2	0	0	992.8	NA	0.0000	BR	9999	520	0	0	0
2019/04/23 21:23:00	BASE	2.64	336	3.45	331	-0.2	100	-0.2	0	0	992.8	NA	0.0000	BR	9999	460	0	0	0
2019/04/23 21:24:01	BASE	2.30	337	3.45	331	-0.2	100	-0.2	0	0	992.8	NA	0.0000	BR	9000	430	0	0	0
2019/04/23 21:25:01	BASE	1.91	339	3.45	331	-0.3	100	-0.3	0	0	992.8	NA	0.0000	BR	8000	430	0	0	0
2019/04/23 21:26:00	BASE	1.54	346	3.45	331	-0.3	100	-0.3	0	0	992.8	NA	0.0000	BR	7000	390	0	0	0
2019/04/23 21:27:00	BASE	0.84	348	3.45	331	-0.3	100	-0.3	0	0	992.7	NA	0.0000	BR	7000	360	0	0	0
2019/04/23 21:28:00	BASE	0.36	350	3.45	331	-0.3	100	-0.3	0	0	992.7	NA	0.0000	BR	6000	360	1940	0	0
2019/04/23 21:29:00	BASE	0.92	7	3.45	331	-0.2	100	-0.2	0	0	992.7	NA	0.0000	BR	6000	360	1280	0	0
2019/04/23 21:30:00	BASE	1.57	24	3.45	331	-0.2	100	-0.2	0	0	992.7	NA	0.0000	BR	7000	390	0	0	0
2019/04/23 21:31:01	BASE	1.94	27	2.98	332	-0.2	100	-0.2	0	0	992.7	NA	0.0000	BR	7000	390	0	0	0
2019/04/23 21:32:00	BASE	2.29	24	2.73	336	-0.2	100	-0.2	0	0	992.7	NA	0.0000	BR	8000	390	0	0	0
2019/04/23 21:33:01	BASE	2.43	14	2.68	1	-0.2	100	-0.2	0	0	992.7	NA	0.0000	BR	9000	430	0	0	0
2019/04/23 21:34:00	BASE	2.44	4	2.68	1	-0.2	100	-0.2	0	0	992.7	NA	0.0000	BR	9000	430	0	0	0
2019/04/23 21:35:01	BASE	2.38	360	2.68	1	-0.2	100	-0.2	0	0	992.7	NA	0.0000	BR	9000	1480	0	0	0
2019/04/23 21:36:00	BASE	2.63	353	3.19	346	-0.2	100	-0.2	0	0	992.6	NA	0.0000	UP BR	9999	1250	0	0	0
2019/04/23 21:37:01	BASE	3.11	349	3.65	355	-0.2	100	-0.2	0	0	992.6	NA	0.0000	UP BR	9999	1310	0	0	0
2019/04/23 21:38:00	BASE	3.08	352	3.65	355	-0.2	100	-0.2	0	0	992.6	NA	0.0000	UP BR	9999	1480	0	0	0
2019/04/23 21:39:00	BASE	2.57	360	3.65	355	-0.2	100	-0.2	0	0	992.7	NA	0.0000	UP BR	9999	1640	0	0	0
2019/04/23 21:40:01	BASE	2.28	359	3.65	355	-0.2	100	-0.2	0	0	992.7	NA	0.0000	UP BR	9999	1640	0	0	0
2019/04/23 21:41:01	BASE	2.24	347	3.65	355	-0.2	100	-0.2	0	0	992.7	NA	0.0000	UP BR	9999	1540	0	0	0
2019/04/23 21:42:01	BASE	2.08	336	3.65	355	-0.2	100	-0.2	0	0	992.6	NA	0.0000	UP	9999	1610	0	0	0
2019/04/23 21:43:01	BASE	1.93	331	3.65	355	-0.2	100	-0.2	0	0	992.6	NA	0.0000	UP	9999	1610	0	0	0
2019/04/23 21:44:01	BASE	2.01	331	3.65	355	-0.2	100	-0.2	0	0	992.6	NA	0.0000	UP	9999	1570	0	0	0
2019/04/23 21:45:01	BASE	2.24	335	3.65	355	-0.2	100	-0.2	0	0	992.6	NA	0.0000	UP	9999	1610	0	0	0
2019/04/23 21:46:01	BASE	2.41	334	3.65	355	-0.2	100	-0.2	0	0	992.6	NA	0.0000	UP	9999	1570	0	0	0
2019/04/23 21:47:01	BASE	2.23	332	3.19	1	-0.2	100	-0.2	0	0	992.6	NA	0.0000	UP	9999	1610	2720	0	0
2019/04/23 21:48:00	BASE	2.03	338	2.83	343	-0.2	100	-0.2	0	0	992.6	NA	0.0000	UP	9000	2130	2690	0	0
2019/04/23 21:49:00	BASE	2.03	341	2.62	4	-0.2	100	-0.2	0	0	992.6	NA	0.0000	UP	9000	2170	2620	0	0
2019/04/23 21:50:00	BASE	1.99	342	2.57	332	-0.2	100	-0.2	0	0	992.7	NA	0.0000	UP	9999	2300	0	0	0
2019/04/23 21:51:00	BASE	1.74	346	2.57	332	-0.2	100	-0.2	0	0	992.7	NA	0.0000	UP	9999	2030	0	0	0
2019/04/23 21:52:00	BASE	1.62	350	2.57	332	-0.2	100	-0.2	0	0	992.7	NA	0.0000	UP BR	9999	2100	0	0	0
2019/04/23 21:53:00	BASE	1.87	349	2.57	332	-0.2	100	-0.2	0	0	992.7	NA	0.0000	UP BR	9999	2170	0	0	0
2019/04/23 21:54:00	BASE	2.25	342	2.62	343	-0.3	100	-0.3	0	0	992.7	NA	0.0000	UP BR	9999	690	2170	0	0
2019/04/23 21:55:00	BASE	2.52	337	2.73	335	-0.3	100	-0.3	0	0	992.7	NA	0.0000	UP BR	9999	690	0	0	0
2019/04/23 21:56:00	BASE	2.56	335	2.73	335	-0.3	100	-0.3	0	0	992.7	NA	0.0000	UP BR	9000	720	2100	0	0
2019/04/23 21:57:00	BASE	2.61	330	2.98	321	-0.4	100	-0.4	0	0	992.7	NA	0.0000	UP BR	9000	620	0	0	0
2019/04/23 21:58:00	BASE	2.78	325	3.24	317	-0.4	100	-0.4	0	0	992.7	NA	0.0000	UP BR	9000	460	0	0	0
2019/04/23 21:59:00	BASE	2.70	327	3.24	317	-0.4	100	-0.4	0	0	992.7	NA	0.0000	UP BR	9000	430	0	0	0
2019/04/23 22:00:00	BASE	2.26	330	3.24	317	-0.4	100	-0.4	0	0	992.7	NA	0.0000	UP BR	9000	390	2460	0	0
2019/04/23 22:01:00	BASE	2.33	334	3.24	317	-0.4	100	-0.4	0	0	992.7	NA	0.0000	UP BR	7000	430	2430	0	0
2019/04/23 22:02:00	BASE	2.85	342	3.24	317	-0.4	100	-0.4	0	0	992.6	NA	0.0000	UP BR	7000	390	0	0	0
2019/04/23 22:03:00	BASE	2.88	350	3.24	317	-0.4	100	-0.4	0	0	992.7	NA	0.0000	UP BR	8000	330	0	0	0
2019/04/23 22:04:00	BASE	2.81	0	3.24	11	-0.4	100	-0.4	0	0	992.6	NA	0.0000	UP BR	9000	330	0	0	0
2019/04/23 22:05:01	BASE	3.01	8	3.34	13	-0.4	100	-0.4	0	0	992.6	NA	0.0000	UP BR	9000	330	0	0	0
2019/04/23 22:06:01	BASE	2.98	8	3.34	13	-0.4	100	-0.4	0	0	992.6	NA	0.0000	UP BR	9000	300	0	0	0
2019/04/23 22:07:01	BASE	2.75	1	3.34	13	-0.4	100	-0.4	0	0	992.6	NA	0.0000	UP BR	8000	300	0	0	0
2019/04/23 22:08:01	BASE	2.58	354	3.34	13	-0.4	100	-0.4	0	0	992.6	NA	0.0000	UP BR	8000	360	2720	0	0
2019/04/23 22:09:01	BASE	2.42	356	3.34	13	-0.4	100	-0.4	0	0	992.6	NA	0.0000	UP BR	8000	390	0	0	0
2019/04/23 22:10:01	BASE	2.03	358	3.34	13	-0.4	100	-0.4	0	0	992.5	NA	0.0000	UP BR	9000	460	0	0	0
2019/04/23 22:11:01	BASE	1.79	2	3.34	13	-0.4	100	-0.4	0	0	992.4	NA	0.0000	UP BR	9000	560	0	0	0
2019/04/23 22:12:01	BASE	1.97	8	3.34	13	-0.4	100	-0.4	0	0	992.4	NA	0.0000	UP BR	9000	300	660	0	0
2019/04/23 22:13:01	BASE	1.81	10	3.34	13	-0.3	100	-0.3	0	0	992.4	NA	0.0000	UP BR	9000	260	690	0	0
2019/04/23 22:14:01	BASE	1.42	11	3.34	13	-0.3	100	-0.3	0	0	992.4	NA	0.0000	UP BR	9000	260	660	0	0
2019/04/23 22:15:01	BASE	1.30	23	3.14	4	-0.2	100	-0.2	0	0	992.4	NA	0.0000	UP BR	7000	200	0	0	0
2019/04/23 22:16:01	BASE	1.28	26	2.93	354	-0.2	100	-0.2	0	0	992.4	NA	0.0000	-SN BR	5000	230	3080	0	0
2019/04/23 22:17:01	BASE	1.38	11	2.78	353	-0.2	100	-0.2	0	0	992.4	NA	0.0000	-SN BR	7000	200	0	0	0
2019/04/23 22:18:01	BASE	1.69	356	2.52	354	-0.2	100	-0.2	0	0	992.5	NA	0.0000	-SN BR	9000	230	2950	0	0
2019/04/23 22:19:01	BASE	1.92	347	2.21	12	-0.1	100	-0.1	0	0	992.6	NA	0.0000	-SN BR	9000	230	690	0	0
2019/04/23 22:20:01	BASE	1.81	337	2.21	12	-0.1	100	-0.1	0	0	992.6	NA	0.0000	-SN BR	8000	230	0	0	0
2019/04/23 22:21:01	BASE	1.73	326	2.21	12	-0.1	100	-0.1	0	0	992.6	NA	0.0000	-SN BR	8000	200	0	0	0
2019/04/23 22:22:01	BASE	1.85	324	2.11	326	-0.1	100	-0.1	0	0	992.6	NA	0.0000	-SN BR	7000	200	2850	0	0
2019/04/23 22:23:01	BASE	1.79	323	2.11	326	-0.1	100	-0.1	0	0	992.6	NA	0.0000	-SN BR	6000	230	2820	0	0
2019/04/23 22:24:01	BASE	1.83	319	2.21	327	-0.1	100	-0.1	0	0	992.6	NA	0.0000	-SN BR	6000	230	2790	0	0
2019/04/23 22:25:01	BASE	2.03	318	2.21	327	-0.2	100	-0.2	0	0	992.5	NA	0.0000	-SN BR	8000	230	2890	0	0
2019/04/23 22:26:01	BASE	2.02	326	2.21	327	-0.2	100	-0.2	0	0	992.4	NA	0.0000	-SN BR	9999	260	2950	0	0
2019/04/23 22:27:01	BASE	2.06	342	2.42	360	-0.2	100	-0.2	0	0	992.4	NA	0.0000	-SN BR	9999	230	750	0	0
2019/04/23 22:28:01	BASE	2.29	358	2.52	6	-0.3	100	-0.3	0	0	992.4	NA	0.0000	-SN BR	9999	230	850	0	0
2019/04/23 22:29:01	BASE	2.29	4	2.52	6	-0.3	100	-0.3	0	0	992.4	NA	0.0000	-SN BR	9999	200	2790	0	0
2019/04/23 22:30:01	BASE	2.20	356	2.52	352	-0.3	100	-0.3	0	0	992.5	NA	0.0000	-SN BR	9000	230	2920	0	0
2019/04/23 22:31:01	BASE	2.05	342	2.52	352	-0.3	100	-0.3	0	0	992.4	NA	0.0000	-SN BR	9999	460	2920	0	0
2019/04/23 22:32:01	BASE	1.68	334	2.52	352	-0.3	100	-0.3	0	0	992.4	NA	0.0000	-SN BR	9999	230	2850	0	0
2019/04/23 22:33:01	BASE	1.47	334	2.52	352	-0.3	100	-0.3	0	0	992.4	NA	0.0000	-SN	9999	230	0	0	0
2019/04/23 22:34:01	BASE	1.49	344	2.52	352	-0.3	100	-0.3	0	0	992.4	NA	0.0000	-SN	9999	230	2790	0	0
2019/04/23 22:35:01	BASE	1.66	353	2.52	352	-0.3	100	-0.3	0	0	992.4	NA	0.0000	-SN	9999	200	0	0	0
2019/04/23 22:36:01	BASE	1.80	353	2.52	352	-0.3	100	-0.3	0	0	992.4	NA	0.0000	-SN	9999	200	2620	0	0
2019/04/23 22:37:01	BASE	1.67	348	2.52	352	-0.3	100	-0.3	0	0	992.4	NA	0.0000	-SN	9999	200	2430	0	0
2019/04/23 22:38:01	BASE	1.33	340	2.52	352	-0.2	100	-0.2	0	0	992.4	NA	0.0000	-SN	9999	200	0	0	0
2019/04/23 22:39:01	BASE	1.05	324	2.52	352	-0.1	100	-0.1	0	0	992.4	NA	0.0000	-SN	9999	160	720	0	0
2019/04/23 22:40:01	BASE	0.48	314	2.06	352	-0.0	100	-0.0	0	0	992.4	NA	0.0000	-SN	9999	690	2400	0	0
2019/04/23 22:41:01	BASE	0.00	327	2.06	352	0.0	100	0.0	0	0	992.4	NA	0.0000	-SN	9999	2330	0	0	0
2019/04/23 22:42:01	BASE	0.00	340	2.06	352	0.1	100	0.1	0	0	992.4	NA	0.0000	-SN	9999	2400	0	0	0
2019/04/23 22:43:01	BASE	0.28	308	2.06	352	0.1	100	0.1	0	0	992.4	NA	0.0000	-SN	9999	2330	0	0	0
2019/04/23 22:44:01	BASE	1.17	260	2.62	239	0.2	100	0.2	0	0	992.4	NA	0.0000	-SN	9999	2360	0	0	0
2019/04/23 22:45:01	BASE	2.25	241	3.40	237	0.2	100	0.2	0	0	992.4	NA	0.2540	-SN	9999	2260	0	0	0
2019/04/23 22:46:01	BASE	2.79	229	3.40	237	0.3	100	0.3	0	0	992.4	NA	0.0000	-SN	9999	2300	0	0	0
2019/04/23 22:47:01	BASE	2.36	218	3.40	237	0.3	100	0.3	0	0	992.4	NA	0.0000	-SN	8000	1440	0	0	0
2019/04/23 22:48:01	BASE	1.76	211	3.40	237	0.3	100	0.3	0	0	992.5	NA	0.0000	-SN	7000	1180	0	0	0
2019/04/23 22:49:01	BASE	2.02	213	3.40	237	0.4	100	0.4	0	0	992.4	NA	0.0000	-SN	8000	1570	0	0	0
2019/04/23 22:50:01	BASE	2.66	218	3.40	237	0.4	100	0.4	0	0	992.4	NA	0.0000	-SN	9000	1310	0	0	0
2019/04/23 22:51:01	BASE	3.14	225	3.50	234	0.4	100	0.4	0	0	992.4	NA	0.0000	-SN	9999	820	0	0	0
2019/04/23 22:52:01	BASE	3.46	226	4.58	212	0.3	100	0.3	0	0	992.4	NA	0.0000	-SN BR	9999	1280	0	0	0
2019/04/23 22:53:01	BASE	3.05	244	4.63	360	0.3	100	0.3	0	0	992.5	NA	0.0000	-SN BR	9999	430	1250	0	0
2019/04/23 22:54:01	BASE	2.83	325	4.63	360	0.3	100	0.3	0	0	992.4	NA	0.0000	-SN BR	9999	1410	0	0	0
2019/04/23 22:55:01	BASE	3.01	290	4.63	360	0.3	100	0.3	0	0	992.4	NA	0.0000	-SN	9999	1250	2490	0	0
2019/04/23 22:56:01	BASE	2.47	245	4.63	360	0.3	100	0.3	0	0	992.5	NA	0.0000	-SN	9999	1080	0	0	0
2019/04/23 22:57:01	BASE	2.00	67	4.63	360	0.3	100	0.3	0	0	992.5	NA	0.0000	-SN	9999	1310	0	0	0
2019/04/23 22:58:01	BASE	1.32	43	4.63	360	0.2	100	0.2	0	0	992.4	NA	0.0000	-SN	9999	1280	0	0	0
2019/04/23 22:59:01	BASE	0.63	30	4.63	360	0.2	100	0.2	0	0	992.5	NA	0.0000	-SN	9999	1380	2850	0	0
2019/04/23 23:00:01	BASE	0.26	353	4.63	360	0.2	100	0.2	0	0	992.5	NA	0.0000	-SN	9999	1440	0	0	0
2019/04/23 23:01:01	BASE	0.00	224	4.63	360	0.1	100	0.1	0	0	992.6	NA	0.0000	-SN	9999	1480	0	0	0
2019/04/23 23:02:01	BASE	0.38	175	4.63	360	0.1	100	0.1	0	0	992.6	NA	0.0000	-SN	9999	1280	0	0	0
2019/04/23 23:03:01	BASE	0.99	149	4.22	354	0.2	100	0.2	0	0	992.6	NA	0.0000	-SN	9999	2230	0	0	0
2019/04/23 23:04:01	BASE	1.24	151	3.45	268	0.2	100	0.2	0	0	992.6	NA	0.0000	-SN	9999	1710	0	0	0
2019/04/23 23:05:01	BASE	1.41	166	3.09	227	0.3	100	0.3	0	0	992.5	NA	0.0000	-SN	9999	1740	0	0	0
2019/04/23 23:06:01	BASE	1.75	179	2.78	184	0.3	100	0.3	0	0	992.5	NA	0.0000	-SN	9999	1610	0	0	0
2019/04/23 23:07:00	BASE	2.45	196	3.45	210	0.3	100	0.3	0	0	992.4	NA	0.0000	-SN	9999	1350	0	0	0
2019/04/23 23:08:00	BASE	3.40	210	4.32	215	0.3	100	0.3	0	0	992.3	NA	0.0000	-SN	9999	1480	0	0	0
2019/04/23 23:09:01	BASE	3.70	210	4.32	215	0.4	100	0.4	0	0	992.4	NA	0.0000		9999	1570	0	0	0
2019/04/23 23:10:01	BASE	3.40	211	4.32	215	0.4	100	0.4	0	0	992.4	NA	0.0000		9999	1380	0	0	0
2019/04/23 23:11:00	BASE	3.11	214	4.32	215	0.4	100	0.4	0	0	992.3	NA	0.0000		9999	1410	0	0	0
2019/04/23 23:12:00	BASE	2.87	212	4.32	215	0.4	100	0.4	0	0	992.3	NA	0.0000		9999	1310	0	0	0
2019/04/23 23:13:01	BASE	2.75	210	4.32	215	0.4	100	0.4	0	0	992.3	NA	0.0000		9999	1510	0	0	0
2019/04/23 23:14:00	BASE	2.61	208	4.32	215	0.4	100	0.4	0	0	992.3	NA	0.0000		9999	1480	3080	0	0
2019/04/23 23:15:00	BASE	2.82	205	4.32	215	0.4	100	0.4	0	0	992.2	NA	0.0000		9999	1540	2490	0	0
2019/04/23 23:16:01	BASE	3.20	206	4.32	215	0.4	100	0.4	0	0	992.2	NA	0.0000		9999	1710	2560	0	0
2019/04/23 23:17:00	BASE	3.03	209	4.32	215	0.3	100	0.3	0	0	992.2	NA	0.0000		9999	1540	0	0	0
2019/04/23 23:18:00	BASE	3.13	211	4.27	203	0.3	100	0.3	0	0	992.2	NA	0.0000		9999	1350	2460	0	0
2019/04/23 23:19:00	BASE	3.33	212	4.27	203	0.3	100	0.3	0	0	992.2	NA	0.0000		9999	1250	0	0	0
2019/04/23 23:20:00	BASE	2.53	213	4.27	203	0.3	100	0.3	0	0	992.2	NA	0.0000		9999	1250	0	0	0
2019/04/23 23:21:00	BASE	1.87	199	4.27	203	0.3	100	0.3	0	0	992.2	NA	0.0000		9999	390	0	0	0
2019/04/23 23:22:00	BASE	2.94	192	5.71	198	0.4	100	0.4	0	0	992.1	NA	0.0000		9999	1210	0	0	0
2019/04/23 23:23:00	BASE	4.49	197	5.71	198	0.4	100	0.4	0	0	992.1	NA	0.0000		9999	1310	0	0	0
2019/04/23 23:24:00	BASE	4.41	195	5.71	198	0.4	100	0.4	0	0	992.2	NA	0.0000		9999	1180	0	0	0
2019/04/23 23:25:00	BASE	3.61	191	5.71	198	0.4	100	0.4	0	0	992.2	NA	0.0000		9999	1310	0	0	0
2019/04/23 23:26:00	BASE	3.24	181	5.71	198	0.4	100	0.4	0	0	992.2	NA	0.0000		9999	1250	0	0	0
2019/04/23 23:27:00	BASE	2.94	176	5.71	198	0.5	100	0.5	0	0	992.2	NA	0.0000		9999	1350	0	0	0
2019/04/23 23:28:00	BASE	3.03	171	5.71	198	0.5	100	0.5	0	0	992.1	NA	0.0000		9999	1410	0	0	0
2019/04/23 23:29:00	BASE	3.70	177	5.71	198	0.5	100	0.5	0	0	992.1	NA	0.0000		9999	1350	0	0	0
2019/04/23 23:30:00	BASE	3.62	197	5.71	198	0.5	100	0.5	0	0	992.1	NA	0.0000		9999	1440	0	0	0
2019/04/23 23:31:00	BASE	3.15	197	5.71	198	0.5	100	0.5	0	0	992.0	NA	0.0000		9999	0	0	0	3480
2019/04/23 23:32:01	BASE	3.51	184	5.45	194	0.6	100	0.6	0	0	992.0	NA	0.0000		9999	1380	0	0	0
2019/04/23 23:33:00	BASE	3.48	176	4.73	193	0.6	100	0.6	0	0	992.0	NA	0.0000		9999	1510	0	0	0
2019/04/23 23:34:01	BASE	3.05	179	4.73	193	0.6	100	0.6	0	0	992.0	NA	0.0000		9999	1310	0	0	0
2019/04/23 23:35:00	BASE	2.51	172	4.73	193	0.6	100	0.6	0	0	992.0	NA	0.0000		9999	0	0	0	4360
2019/04/23 23:36:00	BASE	2.96	160	4.78	163	0.6	100	0.6	0	0	991.9	NA	0.0000		9999	0	0	0	4300
2019/04/23 23:37:00	BASE	4.35	171	5.45	196	0.6	100	0.6	0	0	991.7	NA	0.0000		9999	0	0	0	4300
2019/04/23 23:38:00	BASE	4.76	184	5.45	196	0.7	100	0.7	0	0	991.8	NA	0.0000		9999	0	0	0	3940
2019/04/23 23:39:00	BASE	4.83	175	6.28	155	0.7	100	0.7	0	0	991.8	NA	0.0000		9999	0	0	0	3840
2019/04/23 23:40:00	BASE	5.42	155	6.53	139	0.8	100	0.8	0	0	991.8	NA	0.0000		9999	0	0	0	3900
2019/04/23 23:41:00	BASE	5.68	143	6.53	139	0.8	100	0.8	0	0	991.8	NA	0.0000		9999	0	0	0	3900
2019/04/23 23:42:00	BASE	5.83	146	6.53	139	0.9	100	0.9	0	0	991.8	NA	0.0000	UP	9999	0	0	0	4760
2019/04/23 23:43:00	BASE	6.37	151	7.15	154	0.9	100	0.9	0	0	991.8	NA	0.0000	UP	9999	0	0	0	4820
2019/04/23 23:44:00	BASE	6.68	155	7.15	154	0.9	100	0.9	0	0	991.7	NA	0.0000	UP	9999	0	0	0	5250
2019/04/23 23:45:00	BASE	6.20	161	7.15	154	0.9	100	0.9	0	0	991.7	NA	0.0000	UP BR	4500	0	0	0	5740
2019/04/23 23:46:00	BASE	5.36	162	7.15	154	0.9	100	0.9	0	0	991.7	NA	0.0000	UP BR	3100	1640	0	0	0
2019/04/23 23:47:00	BASE	5.43	158	7.15	154	0.9	100	0.9	0	0	991.7	NA	0.0000	UP BR	3000	0	0	0	5710
2019/04/23 23:48:00	BASE	5.86	156	7.15	154	0.9	100	0.9	0	0	991.7	NA	0.0000	UP BR	3000	1670	0	0	0
2019/04/23 23:49:00	BASE	5.96	150	7.15	154	0.9	100	0.9	0	0	991.7	NA	0.0000	UP BR	3000	1710	0	0	0
2019/04/23 23:50:01	BASE	5.94	150	7.15	154	0.9	100	0.9	0	0	991.7	NA	0.0000	UP BR	3000	1800	3740	0	0
2019/04/23 23:51:00	BASE	6.01	161	7.15	154	0.9	100	0.9	0	0	991.7	NA	0.0000	UP BR	3000	2260	3710	0	0
2019/04/23 23:52:00	BASE	6.31	164	7.15	154	1.0	100	1.0	0	0	991.6	NA	0.0000	UP BR	2900	2300	3640	0	0
2019/04/23 23:53:00	BASE	6.99	159	9.21	150	1.0	100	1.0	0	0	991.6	NA	0.0000	UP BR	2900	2030	3640	0	0
2019/04/23 23:54:00	BASE	7.99	153	9.36	149	1.1	100	1.1	0	0	991.6	NA	0.0000	UP BR	2900	1800	3710	0	0
2019/04/23 23:55:00	BASE	9.04	152	10.19	156	1.1	100	1.1	0	0	991.6	NA	0.0000	UP BR	2900	1870	3870	0	0
2019/04/23 23:56:00	BASE	9.13	153	10.19	156	1.1	100	1.1	0	0	991.6	NA	0.0000	BR	2900	2200	0	0	0
2019/04/23 23:57:00	BASE	8.40	146	10.19	156	1.1	100	1.1	0	0	991.7	NA	0.0000	BR	3600	1800	3250	0	0
2019/04/23 23:58:00	BASE	8.00	139	10.19	156	1.2	100	1.2	0	0	991.7	NA	0.0000	BR	4600	1770	0	0	0
2019/04/23 23:59:01	BASE	7.46	128	10.19	156	1.2	100	1.2	0	0	991.8	NA	0.0000	BR	5000	1870	0	0	0